Provisional Data: Hammer Creek near Route 322


Please select a monitoring station.
Please select start date.
Please select start date.

Toggle Unit: C/F Toggle Unit: C/F
Sample Time Temperature (C) Temperature (F) Specific Conductivity (mS/cm) pH   Turbidity (NTU+) DO (mg/L)
3/7/2021 12:00:00 AM 5.94 42.692 0.418 7.94 191.75 12.01
3/7/2021 12:15:00 AM 5.92 42.656 0.419 7.94 42.28 12.02
3/7/2021 12:30:00 AM 5.9 42.62 0.419 7.94 424.15 12.01
3/7/2021 12:45:00 AM 5.88 42.584 0.418 7.94 280.77 12.03
3/7/2021 1:00:00 AM 5.87 42.566 0.42 7.93 21.61 12.01
3/7/2021 1:15:00 AM 5.85 42.53 0.42 7.93 94.55 12.03
3/7/2021 1:30:00 AM 5.83 42.494 0.42 7.93 18.43 12.03
3/7/2021 1:45:00 AM 5.82 42.476 0.42 7.93 171.77 12.05
3/7/2021 2:00:00 AM 5.81 42.458 0.42 7.93 23.42 12.06
3/7/2021 2:15:00 AM 5.81 42.458 0.42 7.93 60.76 12.06
3/7/2021 2:30:00 AM 5.8 42.44 0.419 7.93 26.64 12.07
3/7/2021 2:45:00 AM 5.8 42.44 0.421 7.93 20.05 12.07
3/7/2021 3:00:00 AM 5.79 42.422 0.42 7.93 31.19 12.08
3/7/2021 3:15:00 AM 5.79 42.422 0.42 7.93 139.57 12.06
3/7/2021 3:30:00 AM 5.79 42.422 0.421 7.93 23.09 12.04
3/7/2021 3:45:00 AM 5.78 42.404 0.421 7.93 23.15 12.06
3/7/2021 4:00:00 AM 5.76 42.368 0.421 7.93 20.86 12
3/7/2021 4:15:00 AM 5.73 42.314 0.421 7.94 87.82 12.06
3/7/2021 4:30:00 AM 5.71 42.278 0.421 7.93 24.35 12.08
3/7/2021 4:45:00 AM 5.67 42.206 0.422 7.94 25.62 12.05
3/7/2021 5:00:00 AM 5.63 42.134 0.421 7.94 92.13 12.09
3/7/2021 5:15:00 AM 5.59 42.062 0.421 7.94 68.6 11.95
3/7/2021 5:30:00 AM 5.55 41.99 0.421 7.94 20.96 12.02
3/7/2021 5:45:00 AM 5.51 41.918 0.422 7.94 35.29 11.99
3/7/2021 6:00:00 AM 5.47 41.846 0.422 7.94 174.76 12.05
3/7/2021 6:15:00 AM 5.42 41.756 0.422 7.94 26.01 12.01
3/7/2021 6:30:00 AM 5.38 41.684 0.423 7.94 30.01 12.04
3/7/2021 6:45:00 AM 5.34 41.612 0.423 7.94 27.84 12.06
3/7/2021 7:00:00 AM 5.3 41.54 0.423 7.94 28.09 12.08
3/7/2021 7:15:00 AM 5.25 41.45 0.423 7.94 28.8 11.93
3/7/2021 7:30:00 AM 5.21 41.378 0.423 7.94 31.82 12.21
3/7/2021 7:45:00 AM 5.17 41.306 0.422 7.95 37.85 12.23
3/7/2021 8:00:00 AM 5.13 41.234 0.423 7.95 21.56 12.28
3/7/2021 8:15:00 AM 5.11 41.198 0.423 7.95 22.51 12.33
3/7/2021 8:30:00 AM 5.1 41.18 0.424 7.95 27.81 12.38
3/7/2021 8:45:00 AM 5.1 41.18 0.424 7.96 30.56 12.43
3/7/2021 9:00:00 AM 5.12 41.216 0.424 7.96 27.8 12.5
3/7/2021 9:15:00 AM 5.17 41.306 0.423 7.97 22.57 12.57
3/7/2021 9:30:00 AM 5.23 41.414 0.423 7.97 23.78 12.65
3/7/2021 9:45:00 AM 5.31 41.558 0.424 7.98 31.29 12.67
3/7/2021 10:00:00 AM 5.42 41.756 0.423 7.99 24.2 12.74
3/7/2021 10:15:00 AM 5.53 41.954 0.423 7.99 19.21 12.81
3/7/2021 10:30:00 AM 5.69 42.242 0.422 8 25.76 12.81
3/7/2021 10:45:00 AM 5.9 42.62 0.423 8.01 42.62 12.86
3/7/2021 11:00:00 AM 6.13 43.034 0.423 8.02 26.45 12.84
3/7/2021 11:15:00 AM 6.38 43.484 0.422 8.03 26.11 12.88
3/7/2021 11:30:00 AM 6.69 44.042 0.421 8.04 65.22 12.87
3/7/2021 11:45:00 AM 6.98 44.564 0.421 8.05 35.02 12.89
3/7/2021 12:00:00 PM 7.26 45.068 0.42 8.06 20.33 12.86
3/7/2021 12:15:00 PM 7.55 45.59 0.422 8.07 53.81 12.85
3/7/2021 12:30:00 PM 7.85 46.13 0.422 8.08 38.8 12.83
3/7/2021 12:45:00 PM 8.15 46.67 0.42 8.09 23.49 12.77
3/7/2021 1:00:00 PM 8.41 47.138 0.419 8.1 39.23 12.73
3/7/2021 1:15:00 PM 8.66 47.588 0.419 8.11 25.4 12.71
3/7/2021 1:30:00 PM 8.91 48.038 0.419 8.11 26.65 12.63
3/7/2021 1:45:00 PM 9.12 48.416 0.419 8.12 23.51 12.57
3/7/2021 2:00:00 PM 9.28 48.704 0.419 8.13 165.48 12.56
3/7/2021 2:15:00 PM 9.43 48.974 0.419 8.13 29.17 12.5
3/7/2021 2:30:00 PM 9.56 49.208 0.418 8.14 35.57 12.44
3/7/2021 2:45:00 PM 9.67 49.406 0.419 8.14 35.54 12.37
3/7/2021 3:00:00 PM 9.73 49.514 0.419 8.15 34.43 12.28
3/7/2021 3:15:00 PM 9.77 49.586 0.419 8.15 40.08 12.26
3/7/2021 3:30:00 PM 9.79 49.622 0.419 8.15 38.44 12.2
3/7/2021 3:45:00 PM 9.77 49.586 0.419 8.15 108.99 12.14
3/7/2021 4:00:00 PM 9.74 49.532 0.419 8.15 21.91 11.99
3/7/2021 4:15:00 PM 9.7 49.46 0.419 8.15 24.2 12
3/7/2021 4:30:00 PM 9.63 49.334 0.42 8.15 20.98 11.91
3/7/2021 4:45:00 PM 9.55 49.19 0.419 8.15 22.03 11.89
3/7/2021 5:00:00 PM 9.47 49.046 0.419 8.14 34.51 11.89
3/7/2021 5:15:00 PM 9.38 48.884 0.42 8.13 24.71 11.84
3/7/2021 5:30:00 PM 9.3 48.74 0.42 8.13 24.65 11.82
3/7/2021 5:45:00 PM 9.2 48.56 0.42 8.12 25.65 11.78
3/7/2021 6:00:00 PM 9.11 48.398 0.42 8.12 18.66 11.75
3/7/2021 6:15:00 PM 8.99 48.182 0.42 8.11 45.82 11.72
3/7/2021 6:30:00 PM 8.86 47.948 0.42 8.1 36.67 11.71
3/7/2021 6:45:00 PM 8.72 47.696 0.42 8.09 51.58 11.67
3/7/2021 7:00:00 PM 8.58 47.444 0.421 8.09 23.96 11.68
3/7/2021 7:15:00 PM 8.43 47.174 0.422 8.08 17.13 11.69
3/7/2021 7:30:00 PM 8.27 46.886 0.421 8.07 20.05 11.7
3/7/2021 7:45:00 PM 8.12 46.616 0.422 8.07 19.33 11.63
3/7/2021 8:00:00 PM 7.96 46.328 0.422 8.06 37.72 11.73
3/7/2021 8:15:00 PM 7.8 46.04 0.423 8.05 29.98 11.74
3/7/2021 8:30:00 PM 7.64 45.752 0.423 8.04 18.52 11.76
3/7/2021 8:45:00 PM 7.48 45.464 0.423 8.04 27.56 11.71
3/7/2021 9:00:00 PM 7.32 45.176 0.423 8.03 28.61 11.74
3/7/2021 9:15:00 PM 7.18 44.924 0.425 8.01 23.43 11.7
3/7/2021 9:30:00 PM 7.04 44.672 0.426 8.01 29.26 11.61
3/7/2021 9:45:00 PM 6.91 44.438 0.426 8 25.87 11.7
3/7/2021 10:00:00 PM 6.79 44.222 0.426 7.99 50.88 11.74
3/7/2021 10:15:00 PM 6.67 44.006 0.426 7.99 26.02 11.79
3/7/2021 10:30:00 PM 6.56 43.808 0.426 7.98 22.44 11.82
3/7/2021 10:45:00 PM 6.45 43.61 0.427 7.98 25.35 11.79
3/7/2021 11:00:00 PM 6.34 43.412 0.427 7.97 21.06 11.86
3/7/2021 11:15:00 PM 6.24 43.232 0.427 7.97 34.89 11.85
3/7/2021 11:30:00 PM 6.14 43.052 0.427 7.96 24.25 11.93
3/7/2021 11:45:00 PM 6.05 42.89 0.427 7.96 21.01 11.95
3/8/2021 12:00:00 AM 5.96 42.728 0.427 7.96 58.93 11.98
3/8/2021 12:15:00 AM 5.88 42.584 0.427 7.96 66.86 12.02
3/8/2021 12:30:00 AM 5.8 42.44 0.428 7.96 23.86 12.04
3/8/2021 12:45:00 AM 5.71 42.278 0.428 7.96 26.92 12.09
3/8/2021 1:00:00 AM 5.63 42.134 0.428 7.96 24.3 12.11
3/8/2021 1:15:00 AM 5.56 42.008 0.428 7.96 23.51 12.12
3/8/2021 1:30:00 AM 5.48 41.864 0.428 7.96 22.62 12.16
3/8/2021 1:45:00 AM 5.41 41.738 0.428 7.96 23.56 12.2
3/8/2021 2:00:00 AM 5.34 41.612 0.429 7.96 19.48 12.23
3/8/2021 2:15:00 AM 5.27 41.486 0.429 7.96 48.59 12.24
3/8/2021 2:30:00 AM 5.21 41.378 0.429 7.96 26.99 12.24
3/8/2021 2:45:00 AM 5.15 41.27 0.429 7.96 24.27 12.32
3/8/2021 3:00:00 AM 5.09 41.162 0.43 7.96 26.51 12.31
3/8/2021 3:15:00 AM 5.03 41.054 0.43 7.96 62.41 12.34
3/8/2021 3:30:00 AM 4.97 40.946 0.43 7.96 21.23 12.39
3/8/2021 3:45:00 AM 4.92 40.856 0.43 7.96 27.98 12.39
3/8/2021 4:00:00 AM 4.87 40.766 0.43 7.96 22.69 12.43
3/8/2021 4:15:00 AM 4.81 40.658 0.431 7.96 18.61 12.45
3/8/2021 4:30:00 AM 4.76 40.568 0.431 7.96 20.31 12.47
3/8/2021 4:45:00 AM 4.72 40.496 0.431 7.96 23.54 12.49
3/8/2021 5:00:00 AM 4.67 40.406 0.431 7.96 19.62 12.5
3/8/2021 5:15:00 AM 4.62 40.316 0.431 7.96 19.64 12.51
3/8/2021 5:30:00 AM 4.57 40.226 0.431 7.96 28.66 12.54
3/8/2021 5:45:00 AM 4.52 40.136 0.432 7.96 20.2 12.55
3/8/2021 6:00:00 AM 4.48 40.064 0.432 7.97 22.58 12.57
3/8/2021 6:15:00 AM 4.44 39.992 0.432 7.97 24.1 12.58
3/8/2021 6:30:00 AM 4.4 39.92 0.432 7.96 17.36 12.6
3/8/2021 6:45:00 AM 4.37 39.866 0.432 7.96 18.59 12.63
3/8/2021 7:00:00 AM 4.33 39.794 0.432 7.97 19.7 12.67
3/8/2021 7:15:00 AM 4.31 39.758 0.432 7.97 18.53 12.68
3/8/2021 7:30:00 AM 4.29 39.722 0.433 7.97 22.29 12.72
3/8/2021 7:45:00 AM 4.28 39.704 0.433 7.97 16.67 12.75
3/8/2021 8:00:00 AM 4.28 39.704 0.434 7.98 17.86 12.79
3/8/2021 8:15:00 AM 4.29 39.722 0.433 7.98 17.26 12.83
3/8/2021 8:30:00 AM 4.32 39.776 0.434 7.98 17.01 12.87
3/8/2021 8:45:00 AM 4.37 39.866 0.433 7.99 16.82 12.91
3/8/2021 9:00:00 AM 4.45 40.01 0.434 7.99 15.86 12.96
3/8/2021 9:15:00 AM 4.53 40.154 0.434 8 20.11 13
3/8/2021 9:30:00 AM 4.63 40.334 0.434 8 15.76 13.04
3/8/2021 9:45:00 AM 4.76 40.568 0.434 8.01 15.03 13.09
3/8/2021 10:00:00 AM 4.91 40.838 0.433 8.02 15.67 13.12
3/8/2021 10:15:00 AM 5.05 41.09 0.433 8.02 14.95 13.15
3/8/2021 10:30:00 AM 5.23 41.414 0.434 8.03 16.37 13.19
3/8/2021 10:45:00 AM 5.46 41.828 0.434 8.04 16.13 13.21
3/8/2021 11:00:00 AM 5.72 42.296 0.434 8.05 15.35 13.23
3/8/2021 11:15:00 AM 6.04 42.872 0.433 8.06 17.42 13.23
3/8/2021 11:30:00 AM 6.35 43.43 0.432 8.07 15.2 13.22
3/8/2021 11:45:00 AM 6.69 44.042 0.431 8.08 15.45 13.2
3/8/2021 12:00:00 PM 7 44.6 0.43 8.09 15.93 13.18
3/8/2021 12:15:00 PM 7.31 45.158 0.431 8.1 16.39 13.16
3/8/2021 12:30:00 PM 7.65 45.77 0.43 8.11 17.36 13.12
3/8/2021 12:45:00 PM 7.96 46.328 0.43 8.12 17.59 13.07
3/8/2021 1:00:00 PM 8.26 46.868 0.429 8.13 17.52 13.02
3/8/2021 1:15:00 PM 8.56 47.408 0.429 8.14 18.05 12.96
3/8/2021 1:30:00 PM 8.82 47.876 0.428 8.15 18 12.92
3/8/2021 1:45:00 PM 9.08 48.344 0.428 8.16 17.11 12.84
3/8/2021 2:00:00 PM 9.27 48.686 0.428 8.17 16.86 12.79
3/8/2021 2:15:00 PM 9.44 48.992 0.428 8.17 32.64 12.71
3/8/2021 2:30:00 PM 9.6 49.28 0.427 8.2 17.61 12.64
3/8/2021 2:45:00 PM 9.72 49.496 0.427 8.2 18.39 12.58
3/8/2021 3:00:00 PM 9.82 49.676 0.427 8.2 33.67 12.51
3/8/2021 3:15:00 PM 9.9 49.82 0.426 8.21 22.23 12.48
3/8/2021 3:30:00 PM 9.94 49.892 0.425 8.21 18.52 12.41
3/8/2021 3:45:00 PM 9.96 49.928 0.425 8.21 24.32 12.35
3/8/2021 4:00:00 PM 9.98 49.964 0.425 8.21 16.06 12.3
3/8/2021 4:15:00 PM 9.99 49.982 0.426 8.21 29.17 12.24
3/8/2021 4:30:00 PM 9.95 49.91 0.426 8.21 15.48 12.17
3/8/2021 4:45:00 PM 9.93 49.874 0.426 8.21 16.91 12.09
3/8/2021 5:00:00 PM 9.88 49.784 0.426 8.2 30.31 12.01
3/8/2021 5:15:00 PM 9.81 49.658 0.427 8.2 31.75 11.94
3/8/2021 5:30:00 PM 9.76 49.568 0.427 8.19 15.79 11.87
3/8/2021 5:45:00 PM 9.7 49.46 0.428 8.18 15.84 11.79
3/8/2021 6:00:00 PM 9.62 49.316 0.427 8.17 31.54 11.73
3/8/2021 6:15:00 PM 9.52 49.136 0.427 8.16 15.47 11.7
3/8/2021 6:30:00 PM 9.42 48.956 0.428 8.15 14.54 11.68
3/8/2021 6:45:00 PM 9.3 48.74 0.429 8.14 17.78 11.66
3/8/2021 7:00:00 PM 9.17 48.506 0.428 8.13 22.81 11.61
3/8/2021 7:15:00 PM 9.03 48.254 0.429 8.13 19.86 11.61
3/8/2021 7:30:00 PM 8.89 48.002 0.429 8.12 45.23 11.6
3/8/2021 7:45:00 PM 8.75 47.75 0.429 8.11 30.97 11.61
3/8/2021 8:00:00 PM 8.61 47.498 0.429 8.1 16.12 11.62
3/8/2021 8:15:00 PM 8.46 47.228 0.43 8.09 15.41 11.61
3/8/2021 8:30:00 PM 8.31 46.958 0.43 8.08 15.08 11.61
3/8/2021 8:45:00 PM 8.17 46.706 0.43 8.07 16.23 11.61
3/8/2021 9:00:00 PM 8.03 46.454 0.43 8.06 20.5 11.61
3/8/2021 9:15:00 PM 7.9 46.22 0.43 8.05 25.15 11.59
3/8/2021 9:30:00 PM 7.78 46.004 0.431 8.04 16.7 11.6
3/8/2021 9:45:00 PM 7.66 45.788 0.431 8.03 14.77 11.6
3/8/2021 10:00:00 PM 7.55 45.59 0.431 8.02 16.63 11.62
3/8/2021 10:15:00 PM 7.44 45.392 0.432 8.02 15.68 11.64
3/8/2021 10:30:00 PM 7.33 45.194 0.432 8.01 18.14 11.65
3/8/2021 10:45:00 PM 7.23 45.014 0.432 8 22.39 11.67
3/8/2021 11:00:00 PM 7.14 44.852 0.432 8 16.52 11.67
3/8/2021 11:15:00 PM 7.05 44.69 0.432 7.99 85.64 11.69
3/8/2021 11:30:00 PM 6.95 44.51 0.432 7.99 60.98 11.74
3/8/2021 11:45:00 PM 6.87 44.366 0.432 7.99 16.03 11.76
3/9/2021 12:00:00 AM 6.79 44.222 0.433 7.98 15.66 11.78
3/9/2021 12:15:00 AM 6.71 44.078 0.432 7.98 20.81 11.78
3/9/2021 12:30:00 AM 6.64 43.952 0.433 7.98 22.12 11.83
3/9/2021 12:45:00 AM 6.58 43.844 0.433 7.98 15.27 11.84
3/9/2021 1:00:00 AM 6.52 43.736 0.433 7.98 19.97 11.85
3/9/2021 1:15:00 AM 6.47 43.646 0.432 7.98 32.67 11.86
3/9/2021 1:30:00 AM 6.43 43.574 0.432 7.97 17.03 11.9
3/9/2021 1:45:00 AM 6.39 43.502 0.433 7.97 15.22 11.9
3/9/2021 2:00:00 AM 6.34 43.412 0.433 7.98 25.5 11.93
3/9/2021 2:15:00 AM 6.3 43.34 0.433 7.98 16.24 11.95
3/9/2021 2:30:00 AM 6.25 43.25 0.433 7.98 15.6 11.96
3/9/2021 2:45:00 AM 6.2 43.16 0.434 7.98 15.82 11.97
3/9/2021 3:00:00 AM 6.16 43.088 0.433 7.98 20.68 11.99
3/9/2021 3:15:00 AM 6.12 43.016 0.434 7.97 15.2 12
3/9/2021 3:30:00 AM 6.1 42.98 0.434 7.97 25.82 12.01
3/9/2021 3:45:00 AM 6.08 42.944 0.434 7.97 480.77 12.02
3/9/2021 4:00:00 AM 6.07 42.926 0.434 7.97 17.53 12.03
3/9/2021 4:15:00 AM 6.06 42.908 0.434 7.97 16.63 12.03
3/9/2021 4:30:00 AM 6.05 42.89 0.434 7.97 15.99 12.04
3/9/2021 4:45:00 AM 6.05 42.89 0.435 7.97 15.17 12.05
3/9/2021 5:00:00 AM 6.05 42.89 0.434 7.97 221.55 12.04
3/9/2021 5:15:00 AM 6.04 42.872 0.434 7.97 2911.21 12.02
3/9/2021 5:30:00 AM 6.04 42.872 0.434 7.97 18.48 12.05
3/9/2021 5:45:00 AM 6.04 42.872 0.435 7.97 24.6 12.06
3/9/2021 6:00:00 AM 6.04 42.872 0.435 7.97 35.02 12.05
3/9/2021 6:15:00 AM 6.04 42.872 0.435 7.97 17.5 12.07
3/9/2021 6:30:00 AM 6.04 42.872 0.435 7.97 17.66 12.07
3/9/2021 6:45:00 AM 6.03 42.854 0.435 7.97 15.88 12.08
3/9/2021 7:00:00 AM 6.03 42.854 0.435 7.97 16.42 12.1
3/9/2021 7:15:00 AM 6.03 42.854 0.435 7.98 16.96 12.11
3/9/2021 7:30:00 AM 6.04 42.872 0.435 7.98 14.91 12.15
3/9/2021 7:45:00 AM 6.05 42.89 0.435 7.98 17.6 12.18
3/9/2021 8:00:00 AM 6.06 42.908 0.435 7.98 17.25 12.21
3/9/2021 8:15:00 AM 6.1 42.98 0.435 7.98 19.27 12.25
3/9/2021 8:30:00 AM 6.14 43.052 0.435 7.99 21.58 12.3
3/9/2021 8:45:00 AM 6.21 43.178 0.435 7.99 25.6 12.35
3/9/2021 9:00:00 AM 6.31 43.358 0.436 8 15.97 12.39
3/9/2021 9:15:00 AM 6.42 43.556 0.435 8 20.86 12.43
3/9/2021 9:30:00 AM 6.55 43.79 0.435 8.01 56.71 12.47
3/9/2021 9:45:00 AM 6.71 44.078 0.435 8.02 40.31 12.52
3/9/2021 10:00:00 AM 6.9 44.42 0.434 8.03 85.12 12.56
3/9/2021 10:15:00 AM 7.09 44.762 0.437 8.04 27.47 12.6
3/9/2021 10:30:00 AM 7.31 45.158 0.436 8.05 23.02 12.65
3/9/2021 10:45:00 AM 7.56 45.608 0.435 8.06 21.39 12.68
3/9/2021 11:00:00 AM 7.84 46.112 0.435 8.07 22.8 12.72
3/9/2021 11:15:00 AM 8.12 46.616 0.434 8.09 26.82 12.75
3/9/2021 11:30:00 AM 8.43 47.174 0.434 8.1 25.83 12.76
3/9/2021 11:45:00 AM 8.77 47.786 0.433 8.11 25.82 12.78
3/9/2021 12:00:00 PM 9.09 48.362 0.433 8.13 25.45 12.77
3/9/2021 12:15:00 PM 9.4 48.92 0.432 8.14 27.58 12.76
3/9/2021 12:30:00 PM 9.69 49.442 0.432 8.16 23.73 12.72
3/9/2021 12:45:00 PM 9.99 49.982 0.431 8.17 23.16 12.71
3/9/2021 1:00:00 PM 10.28 50.504 0.431 8.19 24.97 12.67
3/9/2021 1:15:00 PM 10.55 50.99 0.432 8.2 25.98 12.63
3/9/2021 1:30:00 PM 10.81 51.458 0.431 8.21 26.79 12.59
3/9/2021 1:45:00 PM 11.04 51.872 0.431 8.22 23.39 12.54
3/9/2021 2:00:00 PM 11.23 52.214 0.43 8.24 24.55 12.48
3/9/2021 2:15:00 PM 11.4 52.52 0.43 8.24 25.36 12.41
3/9/2021 2:30:00 PM 11.54 52.772 0.429 8.25 29.94 12.35
3/9/2021 2:45:00 PM 11.67 53.006 0.429 8.26 27.19 12.29
3/9/2021 3:00:00 PM 11.76 53.168 0.429 8.27 27.41 12.21
3/9/2021 3:15:00 PM 11.85 53.33 0.428 8.27 31.03 12.15
3/9/2021 3:30:00 PM 11.92 53.456 0.428 8.27 27.99 12.09
3/9/2021 3:45:00 PM 11.96 53.528 0.428 8.28 31.65 12.03
3/9/2021 4:00:00 PM 11.97 53.546 0.428 8.28 31.57 11.96
3/9/2021 4:15:00 PM 11.98 53.564 0.427 8.28 29.29 11.9
3/9/2021 4:30:00 PM 11.98 53.564 0.427 8.28 29.08 11.82
3/9/2021 4:45:00 PM 11.94 53.492 0.427 8.28 25.42 11.74
3/9/2021 5:00:00 PM 11.9 53.42 0.427 8.27 28.67 11.65
3/9/2021 5:15:00 PM 11.84 53.312 0.427 8.26 29.07 11.54
3/9/2021 5:30:00 PM 11.76 53.168 0.428 8.25 27.55 11.47
3/9/2021 5:45:00 PM 11.68 53.024 0.428 8.24 29.81 11.39
3/9/2021 6:00:00 PM 11.57 52.826 0.428 8.23 27.68 11.3
3/9/2021 6:15:00 PM 11.45 52.61 0.428 8.22 77.74 11.19
3/9/2021 6:30:00 PM 11.31 52.358 0.427 8.2 24.04 11.17
3/9/2021 6:45:00 PM 11.17 52.106 0.427 8.19 24.07 11.15
3/9/2021 7:00:00 PM 11.01 51.818 0.427 8.18 24.32 11.17
3/9/2021 7:15:00 PM 10.85 51.53 0.426 8.16 28.1 11.07
3/9/2021 7:30:00 PM 10.68 51.224 0.427 8.15 27.91 11.11
3/9/2021 7:45:00 PM 10.51 50.918 0.426 8.13 31.75 11.05
3/9/2021 8:00:00 PM 10.33 50.594 0.426 8.12 33.54 10.98
3/9/2021 8:15:00 PM 10.16 50.288 0.426 8.1 31.96 10.96
3/9/2021 8:30:00 PM 9.99 49.982 0.426 8.08 27.54 11.01
3/9/2021 8:45:00 PM 9.83 49.694 0.425 8.07 30.38 10.98
3/9/2021 9:00:00 PM 9.67 49.406 0.425 8.05 437.88 11.02
3/9/2021 9:15:00 PM 9.51 49.118 0.424 8.04 126.42 10.9
3/9/2021 9:30:00 PM 9.36 48.848 0.423 8.03 39.38 10.95
3/9/2021 9:45:00 PM 9.21 48.578 0.423 8.01 596 10.92
3/9/2021 10:00:00 PM 9.06 48.308 0.422 8 25.29 10.99
3/9/2021 10:15:00 PM 8.92 48.056 0.421 7.99 46.22 11.02
3/9/2021 10:30:00 PM 8.79 47.822 0.421 7.98 26.92 11.05
3/9/2021 10:45:00 PM 8.67 47.606 0.42 7.97 31.65 11.01
3/9/2021 11:00:00 PM 8.55 47.39 0.42 7.96 29.06 11.08
3/9/2021 11:15:00 PM 8.44 47.192 0.419 7.96 32.53 11.15
3/9/2021 11:30:00 PM 8.34 47.012 0.419 7.96 37.84 11.08
3/9/2021 11:45:00 PM 8.24 46.832 0.419 7.95 23.3 11.24
3/10/2021 12:00:00 AM 8.14 46.652 0.419 7.95 40.81 11.25
3/10/2021 12:15:00 AM 8.05 46.49 0.419 7.95 26.49 11.28
3/10/2021 12:30:00 AM 7.96 46.328 0.42 7.94 26.61 11.28
3/10/2021 12:45:00 AM 7.87 46.166 0.42 7.95 24.46 11.4
3/10/2021 1:00:00 AM 7.79 46.022 0.42 7.95 29.43 11.45
3/10/2021 1:15:00 AM 7.71 45.878 0.421 7.95 29.22 11.42
3/10/2021 1:30:00 AM 7.63 45.734 0.422 7.94 26.93 11.46
3/10/2021 1:45:00 AM 7.55 45.59 0.422 7.95 26.28 11.52
3/10/2021 2:00:00 AM 7.47 45.446 0.423 7.95 28.75 11.5
3/10/2021 2:15:00 AM 7.4 45.32 0.424 7.94 41.45 11.5
3/10/2021 2:30:00 AM 7.33 45.194 0.424 7.94 31.68 11.5
3/10/2021 2:45:00 AM 7.26 45.068 0.425 7.94 34.24 11.53
3/10/2021 3:00:00 AM 7.2 44.96 0.426 7.94 31.75 11.59
3/10/2021 3:15:00 AM 7.13 44.834 0.427 7.94 43.23 11.64
3/10/2021 3:30:00 AM 7.07 44.726 0.427 7.94 36.68 11.61
3/10/2021 3:45:00 AM 7.01 44.618 0.428 7.94 67.33 11.65
3/10/2021 4:00:00 AM 6.95 44.51 0.428 7.94 42.77 11.7
3/10/2021 4:15:00 AM 6.89 44.402 0.429 7.94 26.56 11.68
3/10/2021 4:30:00 AM 6.84 44.312 0.43 7.94 675.08 11.75
3/10/2021 4:45:00 AM 6.78 44.204 0.43 7.94 35.96 11.73
3/10/2021 5:00:00 AM 6.73 44.114 0.431 7.94 28.33 11.71
3/10/2021 5:15:00 AM 6.68 44.024 0.431 7.94 31.17 11.76
3/10/2021 5:30:00 AM 6.63 43.934 0.432 7.94 33.22 11.75
3/10/2021 5:45:00 AM 6.58 43.844 0.432 7.94 29.04 11.77
3/10/2021 6:00:00 AM 6.53 43.754 0.432 7.95 44.51 11.78
3/10/2021 6:15:00 AM 6.48 43.664 0.433 7.95 67.65 11.85
3/10/2021 6:30:00 AM 6.43 43.574 0.433 7.95 28.48 11.83
3/10/2021 6:45:00 AM 6.39 43.502 0.434 7.95 305.99 11.79
3/10/2021 7:00:00 AM 6.36 43.448 0.434 7.95 42.79 11.86
3/10/2021 7:15:00 AM 6.33 43.394 0.434 7.95 25.93 11.95
3/10/2021 7:30:00 AM 6.31 43.358 0.435 7.95 27.95 11.94
3/10/2021 7:45:00 AM 6.3 43.34 0.435 7.95 35.49 12.02
3/10/2021 8:00:00 AM 6.3 43.34 0.435 7.96 74.9 12.05
3/10/2021 8:15:00 AM 6.3 43.34 0.436 7.96 42.04 12.1
3/10/2021 8:30:00 AM 6.33 43.394 0.436 7.96 92.9 12.19
3/10/2021 8:45:00 AM 6.39 43.502 0.436 7.97 24.3 12.24
3/10/2021 9:00:00 AM 6.46 43.628 0.436 7.97 30.83 12.3
3/10/2021 9:15:00 AM 6.56 43.808 0.436 7.98 26.2 12.31
3/10/2021 9:30:00 AM 6.68 44.024 0.436 7.99 33.19 12.44
3/10/2021 9:45:00 AM 6.81 44.258 0.436 7.99 92.32 12.48
3/10/2021 10:00:00 AM 6.97 44.546 0.436 8 26.85 12.52
3/10/2021 10:15:00 AM 7.14 44.852 0.435 8.01 50.07 12.57
3/10/2021 10:30:00 AM 7.34 45.212 0.436 8.02 27.1 12.63
3/10/2021 10:45:00 AM 7.57 45.626 0.436 8.03 29.83 12.71
3/10/2021 11:00:00 AM 7.84 46.112 0.435 8.04 27.21 12.73
3/10/2021 11:15:00 AM 8.13 46.634 0.435 8.06 26.48 12.8
3/10/2021 11:30:00 AM 8.46 47.228 0.434 8.07 38.71 12.78
3/10/2021 11:45:00 AM 8.82 47.876 0.434 8.08 29.76 12.75
3/10/2021 12:00:00 PM 9.16 48.488 0.434 8.09 26.97 12.72
3/10/2021 12:15:00 PM 9.5 49.1 0.433 8.11 50.75 12.69
3/10/2021 12:30:00 PM 9.85 49.73 0.433 8.12 75.8 12.71
3/10/2021 12:45:00 PM 10.21 50.378 0.433 8.13 41.41 12.65
3/10/2021 1:00:00 PM 10.55 50.99 0.432 8.15 53.27 12.58
3/10/2021 1:15:00 PM 10.87 51.566 0.432 8.16 32.22 12.54
3/10/2021 1:30:00 PM 11.18 52.124 0.432 8.18 47.62 12.44
3/10/2021 1:45:00 PM 11.44 52.592 0.431 8.19 37.85 12.4
3/10/2021 2:00:00 PM 11.68 53.024 0.431 8.2 54.21 12.27
3/10/2021 2:15:00 PM 11.9 53.42 0.431 8.21 44.63 12.18
3/10/2021 2:30:00 PM 12.08 53.744 0.43 8.23 39.76 12.08
3/10/2021 2:45:00 PM 12.25 54.05 0.43 8.24 29.92 12.23
3/10/2021 3:00:00 PM 12.37 54.266 0.43 8.25 44.09 12.19
3/10/2021 3:15:00 PM 12.46 54.428 0.429 8.26 34.42 12.14
3/10/2021 3:30:00 PM 12.53 54.554 0.429 8.27 33.11 12.06
3/10/2021 3:45:00 PM 12.57 54.626 0.429 8.27 24.16 11.96
3/10/2021 4:00:00 PM 12.59 54.662 0.429 8.28 37.61 11.91
3/10/2021 4:15:00 PM 12.58 54.644 0.429 8.28 35.97 11.84
3/10/2021 4:30:00 PM 12.56 54.608 0.429 8.28 16.65 11.74
3/10/2021 4:45:00 PM 12.52 54.536 0.43 8.28 30.65 11.61
3/10/2021 5:00:00 PM 12.47 54.446 0.429 8.28 28.46 11.53
3/10/2021 5:15:00 PM 12.41 54.338 0.429 8.27 62.31 11.46
3/10/2021 5:30:00 PM 12.35 54.23 0.429 8.26 37.86 11.33
3/10/2021 5:45:00 PM 12.27 54.086 0.429 8.25 34 11.25
3/10/2021 6:00:00 PM 12.2 53.96 0.43 8.25 38.02 11.2
3/10/2021 6:15:00 PM 12.1 53.78 0.43 8.24 31.65 11.18
3/10/2021 6:30:00 PM 12 53.6 0.43 8.23 37.11 11.08
3/10/2021 6:45:00 PM 11.88 53.384 0.43 8.21 51.73 11.06
3/10/2021 7:00:00 PM 11.75 53.15 0.431 8.2 55.98 11.03
3/10/2021 7:15:00 PM 11.62 52.916 0.431 8.19 31.35 10.94
3/10/2021 7:30:00 PM 11.47 52.646 0.431 8.17 183.99 10.93
3/10/2021 7:45:00 PM 11.33 52.394 0.431 8.15 48.92 10.88
3/10/2021 8:00:00 PM 11.18 52.124 0.431 8.14 58.28 10.9
3/10/2021 8:15:00 PM 11.02 51.836 0.431 8.13 29.27 10.76
3/10/2021 8:30:00 PM 10.87 51.566 0.431 8.11 57.99 10.83
3/10/2021 8:45:00 PM 10.7 51.26 0.431 8.1 43.61 10.9
3/10/2021 9:00:00 PM 10.54 50.972 0.431 8.09 49.25 10.75
3/10/2021 9:15:00 PM 10.39 50.702 0.43 8.07 32.28 10.87
3/10/2021 9:30:00 PM 10.24 50.432 0.43 8.06 35.38 10.83
3/10/2021 9:45:00 PM 10.11 50.198 0.43 8.04 30.98 10.8
3/10/2021 10:00:00 PM 9.98 49.964 0.43 8.03 30.56 10.83
3/10/2021 10:15:00 PM 9.87 49.766 0.43 8.02 29.06 10.77
3/10/2021 10:30:00 PM 9.75 49.55 0.43 8.01 31.18 10.75
3/10/2021 10:45:00 PM 9.64 49.352 0.429 8 30.24 10.85
3/10/2021 11:00:00 PM 9.53 49.154 0.429 8 32.2 10.69
3/10/2021 11:15:00 PM 9.43 48.974 0.429 7.99 32.72 10.71
3/10/2021 11:30:00 PM 9.34 48.812 0.429 7.98 22.82 10.77
3/10/2021 11:45:00 PM 9.25 48.65 0.429 7.98 30.76 10.89
3/11/2021 12:00:00 AM 9.18 48.524 0.429 7.98 34.75 10.83
3/11/2021 12:15:00 AM 9.1 48.38 0.429 7.97 31.44 10.96
3/11/2021 12:30:00 AM 9.03 48.254 0.429 7.97 31.88 11.01
3/11/2021 12:45:00 AM 8.97 48.146 0.427 7.97 36.61 11.07
3/11/2021 1:00:00 AM 8.91 48.038 0.428 7.97 34.2 11.07
3/11/2021 1:15:00 AM 8.84 47.912 0.429 7.97 34.75 11.08
3/11/2021 1:30:00 AM 8.78 47.804 0.429 7.97 31.91 11.07
3/11/2021 1:45:00 AM 8.72 47.696 0.429 7.97 34.01 11.13
3/11/2021 2:00:00 AM 8.65 47.57 0.429 7.96 36.91 11.13
3/11/2021 2:15:00 AM 8.59 47.462 0.429 7.96 33.68 11.15
3/11/2021 2:30:00 AM 8.53 47.354 0.43 7.96 33.02 11.18
3/11/2021 2:45:00 AM 8.46 47.228 0.43 7.96 33.82 11.15
3/11/2021 3:00:00 AM 8.41 47.138 0.43 7.96 35.06 11.22
3/11/2021 3:15:00 AM 8.36 47.048 0.431 7.96 34.21 11.24
3/11/2021 3:30:00 AM 8.31 46.958 0.431 7.96 35.09 11.18
3/11/2021 3:45:00 AM 8.26 46.868 0.43 7.96 33.19 11.28
3/11/2021 4:00:00 AM 8.21 46.778 0.431 7.96 34.83 11.29
3/11/2021 4:15:00 AM 8.16 46.688 0.431 7.96 37.15 11.21
3/11/2021 4:30:00 AM 8.11 46.598 0.432 7.97 27.87 11.13
3/11/2021 4:45:00 AM 8.05 46.49 0.432 7.97 25.74 11.32
3/11/2021 5:00:00 AM 8 46.4 0.432 7.97 22.64 11.36
3/11/2021 5:15:00 AM 7.95 46.31 0.432 7.97 24.38 11.34
3/11/2021 5:30:00 AM 7.89 46.202 0.433 7.97 26.01 11.32
3/11/2021 5:45:00 AM 7.83 46.094 0.433 7.97 22.4 11.38
3/11/2021 6:00:00 AM 7.77 45.986 0.433 7.97 26.57 11.33
3/11/2021 6:15:00 AM 7.72 45.896 0.434 7.97 24.84 11.28
3/11/2021 6:30:00 AM 7.68 45.824 0.433 7.97 23.6 11.38
3/11/2021 6:45:00 AM 7.63 45.734 0.433 7.98 23.23 11.42
3/11/2021 7:00:00 AM 7.6 45.68 0.433 7.98 23.69 11.49
3/11/2021 7:15:00 AM 7.58 45.644 0.433 7.98 26.5 11.5
3/11/2021 7:30:00 AM 7.58 45.644 0.434 7.99 26.51 11.32
3/11/2021 7:45:00 AM 7.58 45.644 0.434 7.99 26.77 11.46
3/11/2021 8:00:00 AM 7.57 45.626 0.434 8 28.54 11.67
3/11/2021 8:15:00 AM 7.6 45.68 0.435 8 30.44 11.72
3/11/2021 8:30:00 AM 7.65 45.77 0.435 8.01 29.19 11.83
3/11/2021 8:45:00 AM 7.73 45.914 0.434 8.02 29.6 11.91
3/11/2021 9:00:00 AM 7.79 46.022 0.434 8.02 25.21 11.98
3/11/2021 9:15:00 AM 7.84 46.112 0.434 8.03 25.43 12.04
3/11/2021 9:30:00 AM 7.95 46.31 0.434 8.04 23.49 12.12
3/11/2021 9:45:00 AM 8.08 46.544 0.434 8.05 23.82 12.19
3/11/2021 10:00:00 AM 8.23 46.814 0.434 8.06 23.83 12.23
3/11/2021 10:15:00 AM 8.4 47.12 0.434 8.07 24.84 12.28
3/11/2021 10:30:00 AM 8.6 47.48 0.434 8.08 23.99 12.35
3/11/2021 10:45:00 AM 8.84 47.912 0.433 8.1 22.39 12.36
3/11/2021 11:00:00 AM 9.1 48.38 0.433 8.11 22.93 12.38
3/11/2021 11:15:00 AM 9.39 48.902 0.433 8.12 24.3 12.43
3/11/2021 11:30:00 AM 9.71 49.478 0.432 8.14 24.21 12.47
3/11/2021 11:45:00 AM 10.06 50.108 0.432 8.16 24.63 12.54
3/11/2021 12:00:00 PM 10.4 50.72 0.431 8.18 24.23 12.47
3/11/2021 12:15:00 PM 10.73 51.314 0.431 8.21 24.47 12.54
3/11/2021 12:30:00 PM 11.07 51.926 0.43 8.23 25.59 12.48
3/11/2021 12:45:00 PM 11.42 52.556 0.43 8.25 27.68 12.53
3/11/2021 1:00:00 PM 11.77 53.186 0.429 8.27 28.07 12.45
3/11/2021 1:15:00 PM 12.06 53.708 0.429 8.28 27.87 12.45
3/11/2021 1:30:00 PM 12.37 54.266 0.428 8.3 26.8 12.4
3/11/2021 1:45:00 PM 12.67 54.806 0.427 8.32 28.34 12.35
3/11/2021 2:00:00 PM 12.91 55.238 0.427 8.35 47.52 12.22
3/11/2021 2:15:00 PM 13.15 55.67 0.426 8.37 34.62 12.15
3/11/2021 2:30:00 PM 13.37 56.066 0.426 8.37 31.32 12.13
3/11/2021 2:45:00 PM 13.55 56.39 0.425 8.42 32.94 12.16
3/11/2021 3:00:00 PM 13.7 56.66 0.425 8.45 34.4 12.06
3/11/2021 3:15:00 PM 13.81 56.858 0.425 8.45 37.64 11.98
3/11/2021 3:30:00 PM 13.87 56.966 0.425 8.46 36.7 11.9
3/11/2021 3:45:00 PM 13.94 57.092 0.425 8.45 36.29 11.84
3/11/2021 4:00:00 PM 13.95 57.11 0.425 8.46 34.98 11.7
3/11/2021 4:15:00 PM 13.96 57.128 0.425 8.46 34.11 11.57
3/11/2021 4:30:00 PM 13.94 57.092 0.425 8.46 33.77 11.42
3/11/2021 4:45:00 PM 13.9 57.02 0.425 8.44 30.13 11.39
3/11/2021 5:00:00 PM 13.85 56.93 0.425 8.44 33.33 11.28
3/11/2021 5:15:00 PM 13.82 56.876 0.425 8.42 43.77 11.19
3/11/2021 5:30:00 PM 13.79 56.822 0.425 8.4 33.76 11.08
3/11/2021 5:45:00 PM 13.74 56.732 0.426 8.39 33.11 10.91
3/11/2021 6:00:00 PM 13.69 56.642 0.427 8.37 30.43 10.83
3/11/2021 6:15:00 PM 13.64 56.552 0.427 8.35 48.1 10.8
3/11/2021 6:30:00 PM 13.56 56.408 0.427 8.33 33.73 10.71
3/11/2021 6:45:00 PM 13.45 56.21 0.427 8.3 76.47 10.67
3/11/2021 7:00:00 PM 13.33 55.994 0.427 8.28 39.64 10.62
3/11/2021 7:15:00 PM 13.2 55.76 0.428 8.26 37.4 10.53
3/11/2021 7:30:00 PM 13.04 55.472 0.428 8.24 38.13 10.52
3/11/2021 7:45:00 PM 12.87 55.166 0.428 8.21 75.08 10.52
3/11/2021 8:00:00 PM 12.7 54.86 0.428 8.19 72.68 10.52
3/11/2021 8:15:00 PM 12.52 54.536 0.429 8.17 59.67 10.5
3/11/2021 8:30:00 PM 12.34 54.212 0.429 8.14 53.01 10.47
3/11/2021 8:45:00 PM 12.17 53.906 0.429 8.12 61.58 10.41
3/11/2021 9:00:00 PM 12 53.6 0.43 8.09 21.64 10.42
3/11/2021 9:15:00 PM 11.85 53.33 0.431 8.08 21.81 10.39
3/11/2021 9:30:00 PM 11.7 53.06 0.432 8.06 22 10.39
3/11/2021 9:45:00 PM 11.56 52.808 0.432 8.04 19.38 10.39
3/11/2021 10:00:00 PM 11.43 52.574 0.432 8.03 19.64 10.39
3/11/2021 10:15:00 PM 11.31 52.358 0.432 8.02 19.88 10.41
3/11/2021 10:30:00 PM 11.21 52.178 0.432 8.02 19.95 10.41
3/11/2021 10:45:00 PM 11.1 51.98 0.432 8.01 19.28 10.44
3/11/2021 11:00:00 PM 11 51.8 0.432 8 18.46 10.45
3/11/2021 11:15:00 PM 10.91 51.638 0.432 8 18.36 10.47
3/11/2021 11:30:00 PM 10.83 51.494 0.432 8 18.44 10.5
3/11/2021 11:45:00 PM 10.76 51.368 0.432 7.99 18.49 10.52
3/12/2021 12:00:00 AM 10.71 51.278 0.432 7.99 19.57 10.55
3/12/2021 12:15:00 AM 10.66 51.188 0.433 7.99 19.64 10.57
3/12/2021 12:30:00 AM 10.61 51.098 0.432 7.99 20.71 10.57
3/12/2021 12:45:00 AM 10.58 51.044 0.433 7.99 22.42 10.58
3/12/2021 1:00:00 AM 10.56 51.008 0.433 7.99 19.17 10.6
3/12/2021 1:15:00 AM 10.55 50.99 0.433 7.99 20.85 10.61
3/12/2021 1:30:00 AM 10.53 50.954 0.433 7.99 20.72 10.62
3/12/2021 1:45:00 AM 10.52 50.936 0.433 7.99 22.1 10.61
3/12/2021 2:00:00 AM 10.52 50.936 0.433 7.98 22.97 10.62
3/12/2021 2:15:00 AM 10.51 50.918 0.433 7.98 21.03 10.62
3/12/2021 2:30:00 AM 10.5 50.9 0.434 7.98 21.23 10.63
3/12/2021 2:45:00 AM 10.48 50.864 0.434 7.98 21.46 10.63
3/12/2021 3:00:00 AM 10.47 50.846 0.434 7.98 32.63 10.64
3/12/2021 3:15:00 AM 10.45 50.81 0.434 7.98 44.96 10.65
3/12/2021 3:30:00 AM 10.44 50.792 0.434 7.98 38.66 10.65
3/12/2021 3:45:00 AM 10.42 50.756 0.434 7.98 47.49 10.64
3/12/2021 4:00:00 AM 10.4 50.72 0.433 7.98 47.45 10.64
3/12/2021 4:15:00 AM 10.39 50.702 0.434 7.98 43.73 10.65
3/12/2021 4:30:00 AM 10.39 50.702 0.434 7.98 46.69 10.65
3/12/2021 4:45:00 AM 10.38 50.684 0.434 7.98 40.88 10.66
3/12/2021 5:00:00 AM 10.39 50.702 0.434 7.98 42.71 10.66
3/12/2021 5:15:00 AM 10.4 50.72 0.435 7.98 45.55 10.66
3/12/2021 5:30:00 AM 10.41 50.738 0.435 7.98 20.32 10.65
3/12/2021 5:45:00 AM 10.41 50.738 0.435 7.98 19.86 10.65
3/12/2021 6:00:00 AM 10.42 50.756 0.435 7.98 18.95 10.64
3/12/2021 6:15:00 AM 10.42 50.756 0.435 7.98 19.13 10.66
3/12/2021 6:30:00 AM 10.42 50.756 0.436 7.98 18.63 10.67
3/12/2021 6:45:00 AM 10.42 50.756 0.436 7.98 19.14 10.67
3/12/2021 7:00:00 AM 10.41 50.738 0.436 7.98 19.6 10.68
3/12/2021 7:15:00 AM 10.42 50.756 0.437 7.99 20.77 10.72
3/12/2021 7:30:00 AM 10.45 50.81 0.437 7.99 19.98 10.74
3/12/2021 7:45:00 AM 10.48 50.864 0.437 8 19.93 10.79
3/12/2021 8:00:00 AM 10.52 50.936 0.437 8.01 22.62 10.86
3/12/2021 8:15:00 AM 10.56 51.008 0.437 8.02 20.53 10.89
3/12/2021 8:30:00 AM 10.59 51.062 0.437 8.03 20.22 10.97
3/12/2021 8:45:00 AM 10.61 51.098 0.437 8.04 20.46 11.04
3/12/2021 9:00:00 AM 10.65 51.17 0.437 8.05 20.47 11.12
3/12/2021 9:15:00 AM 10.7 51.26 0.437 8.06 20.69 11.23
3/12/2021 9:30:00 AM 10.75 51.35 0.437 8.08 19.98 11.33
3/12/2021 9:45:00 AM 10.81 51.458 0.436 8.09 20.27 11.41
3/12/2021 10:00:00 AM 10.91 51.638 0.436 8.11 20.9 11.52
3/12/2021 10:15:00 AM 11.04 51.872 0.436 8.13 21.6 11.62
3/12/2021 10:30:00 AM 11.17 52.106 0.436 8.14 22.12 11.69
3/12/2021 10:45:00 AM 11.27 52.286 0.435 8.16 22.56 11.76
3/12/2021 11:00:00 AM 11.36 52.448 0.435 8.18 21.93 11.84
3/12/2021 11:15:00 AM 11.56 52.808 0.435 8.2 22.14 11.91
3/12/2021 11:30:00 AM 11.79 53.222 0.434 8.22 22.7 12
3/12/2021 11:45:00 AM 12.04 53.672 0.434 8.24 22.43 12.08
3/12/2021 12:00:00 PM 12.27 54.086 0.433 8.27 22.45 12.13
3/12/2021 12:15:00 PM 12.49 54.482 0.432 8.3 23.09 12.19
3/12/2021 12:30:00 PM 12.75 54.95 0.431 8.33 23.14 12.24
3/12/2021 12:45:00 PM 12.97 55.346 0.431 8.35 24.07 12.25
3/12/2021 1:00:00 PM 13.18 55.724 0.43 8.38 23.88 12.25
3/12/2021 1:15:00 PM 13.38 56.084 0.43 8.4 24.43 12.25
3/12/2021 1:30:00 PM 13.6 56.48 0.429 8.42 24.46 12.26
3/12/2021 1:45:00 PM 13.79 56.822 0.429 8.44 24.87 12.23
3/12/2021 2:00:00 PM 13.94 57.092 0.428 8.46 25.5 12.2
3/12/2021 2:15:00 PM 14.03 57.254 0.427 8.48 23.76 12.18
3/12/2021 2:30:00 PM 14.14 57.452 0.427 8.5 24.25 12.12
3/12/2021 2:45:00 PM 14.19 57.542 0.427 8.52 24.61 12.09
3/12/2021 3:00:00 PM 14.19 57.542 0.426 8.53 23.6 12.02
3/12/2021 3:15:00 PM 14.26 57.668 0.426 8.54 23.34 11.97
3/12/2021 3:30:00 PM 14.26 57.668 0.426 8.55 23.5 11.69
3/12/2021 3:45:00 PM 14.25 57.65 0.426 8.55 25.23 11.8
3/12/2021 4:00:00 PM 14.21 57.578 0.425 8.56 24.57 11.73
3/12/2021 4:15:00 PM 14.16 57.488 0.426 8.56 23.49 11.64
3/12/2021 4:30:00 PM 14.09 57.362 0.426 8.55 24.51 11.56
3/12/2021 4:45:00 PM 13.99 57.182 0.426 8.54 25.97 11.47
3/12/2021 5:00:00 PM 13.84 56.912 0.427 8.53 34.04 11.37
3/12/2021 5:15:00 PM 13.69 56.642 0.427 8.51 34.93 11.25
3/12/2021 5:30:00 PM 13.58 56.444 0.427 8.49 34.93 11.16
3/12/2021 5:45:00 PM 13.46 56.228 0.428 8.48 6.45 11.08
3/12/2021 6:00:00 PM 13.34 56.012 0.428 8.46 7.31 10.98
3/12/2021 6:15:00 PM 13.19 55.742 0.429 8.43 8.3 10.91
3/12/2021 6:30:00 PM 13.04 55.472 0.429 8.41 6.34 10.86
3/12/2021 6:45:00 PM 12.9 55.22 0.43 8.39 7.24 10.79
3/12/2021 7:00:00 PM 12.76 54.968 0.431 8.37 7.8 10.77
3/12/2021 7:15:00 PM 12.62 54.716 0.431 8.34 7.44 10.74
3/12/2021 7:30:00 PM 12.47 54.446 0.432 8.31 7.17 10.7
3/12/2021 7:45:00 PM 12.29 54.122 0.433 8.29 7.37 10.66
3/12/2021 8:00:00 PM 12.12 53.816 0.434 8.26 6.65 10.62
3/12/2021 8:15:00 PM 11.96 53.528 0.434 8.23 6.93 10.66
3/12/2021 8:30:00 PM 11.77 53.186 0.435 8.21 6.9 10.6
3/12/2021 8:45:00 PM 11.58 52.844 0.436 8.18 7.13 10.66
3/12/2021 9:00:00 PM 11.38 52.484 0.437 8.16 6.84 10.66
3/12/2021 9:15:00 PM 11.2 52.16 0.438 8.14 8.16 10.63
3/12/2021 9:30:00 PM 11.01 51.818 0.439 8.12 7.51 10.61
3/12/2021 9:45:00 PM 10.82 51.476 0.439 8.1 7.14 10.62
3/12/2021 10:00:00 PM 10.64 51.152 0.44 8.08 7.19 10.62
3/12/2021 10:15:00 PM 10.48 50.864 0.44 8.07 7.32 10.67
3/12/2021 10:30:00 PM 10.34 50.612 0.441 8.06 7.16 10.67
3/12/2021 10:45:00 PM 10.18 50.324 0.441 8.05 6.83 10.7
3/12/2021 11:00:00 PM 10.06 50.108 0.442 8.05 6.89 10.7
3/12/2021 11:15:00 PM 9.93 49.874 0.442 8.04 7.19 10.73
3/12/2021 11:30:00 PM 9.82 49.676 0.442 8.04 6.88 10.75
3/12/2021 11:45:00 PM 9.7 49.46 0.442 8.03 7.41 10.78
3/13/2021 12:00:00 AM 9.59 49.262 0.442 8.03 6.62 10.82
3/13/2021 12:15:00 AM 9.5 49.1 0.442 8.03 6.91 10.84
3/13/2021 12:30:00 AM 9.39 48.902 0.442 8.02 7.33 10.87
3/13/2021 12:45:00 AM 9.29 48.722 0.442 8.02 6.51 10.91
3/13/2021 1:00:00 AM 9.18 48.524 0.442 8.02 7.12 10.94
3/13/2021 1:15:00 AM 9.08 48.344 0.443 8.02 7.15 10.97
3/13/2021 1:30:00 AM 8.99 48.182 0.443 8.02 6.46 10.99
3/13/2021 1:45:00 AM 8.88 47.984 0.444 8.02 7.67 11.03
3/13/2021 2:00:00 AM 8.77 47.786 0.444 8.02 6.72 11.06
3/13/2021 2:15:00 AM 8.68 47.624 0.444 8.02 6.71 11.11
3/13/2021 2:30:00 AM 8.59 47.462 0.444 8.02 6.68 11.13
3/13/2021 2:45:00 AM 8.48 47.264 0.444 8.02 6.13 11.16
3/13/2021 3:00:00 AM 8.37 47.066 0.445 8.02 6.37 11.19
3/13/2021 3:15:00 AM 8.28 46.904 0.445 8.02 6.25 11.22
3/13/2021 3:30:00 AM 8.21 46.778 0.445 8.02 6.19 11.23
3/13/2021 3:45:00 AM 8.13 46.634 0.445 8.02 6.62 11.25
3/13/2021 4:00:00 AM 8.03 46.454 0.445 8.02 6.7 11.28
3/13/2021 4:15:00 AM 7.92 46.256 0.445 8.02 6.92 11.32
3/13/2021 4:30:00 AM 7.81 46.058 0.445 8.02 6.66 11.35
3/13/2021 4:45:00 AM 7.73 45.914 0.445 8.02 7.01 11.37
3/13/2021 5:00:00 AM 7.62 45.716 0.446 8.02 7.07 11.43
3/13/2021 5:15:00 AM 7.52 45.536 0.446 8.03 7.07 11.46
3/13/2021 5:30:00 AM 7.41 45.338 0.446 8.03 7.31 11.5
3/13/2021 5:45:00 AM 7.32 45.176 0.447 8.03 6.5 11.53
3/13/2021 6:00:00 AM 7.21 44.978 0.447 8.03 6.32 11.57
3/13/2021 6:15:00 AM 7.09 44.762 0.447 8.03 6.22 11.6
3/13/2021 6:30:00 AM 6.97 44.546 0.447 8.03 7.09 11.66
3/13/2021 6:45:00 AM 6.87 44.366 0.448 8.03 6.94 11.69
3/13/2021 7:00:00 AM 6.8 44.24 0.448 8.03 6.39 11.74
3/13/2021 7:15:00 AM 6.7 44.06 0.448 8.04 7.05 11.81
3/13/2021 7:30:00 AM 6.63 43.934 0.448 8.04 6.42 11.87
3/13/2021 7:45:00 AM 6.55 43.79 0.448 8.04 5.81 11.91
3/13/2021 8:00:00 AM 6.49 43.682 0.448 8.05 5.62 11.98
3/13/2021 8:15:00 AM 6.44 43.592 0.448 8.05 5.96 11.97
3/13/2021 8:30:00 AM 6.4 43.52 0.448 8.06 5.37 12.11
3/13/2021 8:45:00 AM 6.37 43.466 0.448 8.07 5.36 12.22
3/13/2021 9:00:00 AM 6.38 43.484 0.448 8.08 5.25 12.33
3/13/2021 9:15:00 AM 6.4 43.52 0.448 8.09 5.33 12.4
3/13/2021 9:30:00 AM 6.45 43.61 0.448 8.1 5.31 12.5
3/13/2021 9:45:00 AM 6.55 43.79 0.447 8.11 5.45 12.58
3/13/2021 10:00:00 AM 6.63 43.934 0.447 8.13 5.38 12.66
3/13/2021 10:15:00 AM 6.76 44.168 0.447 8.14 5.72 12.75
3/13/2021 10:30:00 AM 6.89 44.402 0.447 8.15 5.28 12.78
3/13/2021 10:45:00 AM 7.09 44.762 0.446 8.17 5.48 12.83
3/13/2021 11:00:00 AM 7.33 45.194 0.446 8.19 5.53 12.94
3/13/2021 11:15:00 AM 7.58 45.644 0.445 8.21 5.47 12.98
3/13/2021 11:30:00 AM 7.86 46.148 0.444 8.24 5.38 13.03
3/13/2021 11:45:00 AM 8.17 46.706 0.443 8.26 5.46 13.08
3/13/2021 12:00:00 PM 8.47 47.246 0.443 8.29 5.61 13.09
3/13/2021 12:15:00 PM 8.81 47.858 0.442 8.31 5.94 13.14
3/13/2021 12:30:00 PM 9.14 48.452 0.442 8.33 6.11 13.12
3/13/2021 12:45:00 PM 9.46 49.028 0.441 8.36 8.01 13.11
3/13/2021 1:00:00 PM 9.78 49.604 0.441 8.38 6.62 13.07
3/13/2021 1:15:00 PM 10.09 50.162 0.44 8.4 7.47 13.04
3/13/2021 1:30:00 PM 10.36 50.648 0.439 8.42 7.07 13.01
3/13/2021 1:45:00 PM 10.6 51.08 0.439 8.44 6.79 12.97
3/13/2021 2:00:00 PM 10.83 51.494 0.438 8.46 7.34 12.92
3/13/2021 2:15:00 PM 11.03 51.854 0.438 8.48 7.66 12.87
3/13/2021 2:30:00 PM 11.21 52.178 0.438 8.49 7.29 12.82
3/13/2021 2:45:00 PM 11.36 52.448 0.437 8.51 7.15 12.65
3/13/2021 3:00:00 PM 11.47 52.646 0.436 8.52 7.2 12.64
3/13/2021 3:15:00 PM 11.57 52.826 0.436 8.54 7.06 12.62
3/13/2021 3:30:00 PM 11.62 52.916 0.436 8.54 6.87 12.49
3/13/2021 3:45:00 PM 11.63 52.934 0.435 8.55 7.14 12.38
3/13/2021 4:00:00 PM 11.63 52.934 0.436 8.55 7.02 12.4
3/13/2021 4:15:00 PM 11.61 52.898 0.435 8.55 7.56 12.29
3/13/2021 4:30:00 PM 11.56 52.808 0.435 8.55 7.32 12.2
3/13/2021 4:45:00 PM 11.48 52.664 0.435 8.54 7.04 12.04
3/13/2021 5:00:00 PM 11.41 52.538 0.435 8.53 7.61 11.99
3/13/2021 5:15:00 PM 11.31 52.358 0.435 8.52 8.41 11.87
3/13/2021 5:30:00 PM 11.23 52.214 0.436 8.5 7.12 11.6
3/13/2021 5:45:00 PM 11.15 52.07 0.436 8.48 6.53 11.63
3/13/2021 6:00:00 PM 11.06 51.908 0.436 8.46 6.64 11.51
3/13/2021 6:15:00 PM 10.96 51.728 0.437 8.44 6.65 11.46
3/13/2021 6:30:00 PM 10.86 51.548 0.437 8.42 7.2 11.38
3/13/2021 6:45:00 PM 10.75 51.35 0.437 8.4 7.38 11.31
3/13/2021 7:00:00 PM 10.61 51.098 0.437 8.38 7.54 11.2
3/13/2021 7:15:00 PM 10.45 50.81 0.438 8.36 7.6 11.18
3/13/2021 7:30:00 PM 10.28 50.504 0.438 8.33 7.11 11.23
3/13/2021 7:45:00 PM 10.11 50.198 0.439 8.31 7.12 11.25
3/13/2021 8:00:00 PM 9.93 49.874 0.44 8.29 6.92 11.22
3/13/2021 8:15:00 PM 9.75 49.55 0.441 8.26 7.18 11.24
3/13/2021 8:30:00 PM 9.57 49.226 0.442 8.24 7 11.27
3/13/2021 8:45:00 PM 9.38 48.884 0.444 8.21 7.29 11.21
3/13/2021 9:00:00 PM 9.2 48.56 0.444 8.19 7.03 11.18
3/13/2021 9:15:00 PM 9.02 48.236 0.445 8.17 7.29 11.19
3/13/2021 9:30:00 PM 8.86 47.948 0.446 8.14 7 11.23
3/13/2021 9:45:00 PM 8.71 47.678 0.446 8.13 8.26 11.24
3/13/2021 10:00:00 PM 8.57 47.426 0.447 8.11 8.3 11.16
3/13/2021 10:15:00 PM 8.45 47.21 0.448 8.09 6.67 11.18
3/13/2021 10:30:00 PM 8.34 47.012 0.448 8.08 6.72 11.23
3/13/2021 10:45:00 PM 8.24 46.832 0.448 8.07 6.25 11.27
3/13/2021 11:00:00 PM 8.14 46.652 0.448 8.06 6.84 11.19
3/13/2021 11:15:00 PM 8.06 46.508 0.449 8.06 10.15 11.28
3/13/2021 11:30:00 PM 7.99 46.382 0.449 8.05 7.68 11.18
3/13/2021 11:45:00 PM 7.91 46.238 0.449 8.05 7.53 11.31
3/14/2021 12:00:00 AM 7.83 46.094 0.449 8.05 7.99 11.27
3/14/2021 12:15:00 AM 7.76 45.968 0.449 8.04 8.49 11.36
3/14/2021 12:30:00 AM 7.68 45.824 0.449 8.04 10.32 11.37
3/14/2021 12:45:00 AM 7.6 45.68 0.449 8.04 8.37 11.36
3/14/2021 1:00:00 AM 7.54 45.572 0.449 8.04 8.57 11.39
3/14/2021 1:15:00 AM 7.47 45.446 0.45 8.03 8.87 11.45
3/14/2021 1:30:00 AM 7.41 45.338 0.449 8.03 8.78 11.44
3/14/2021 1:45:00 AM 7.34 45.212 0.45 8.03 8.51 11.49
3/14/2021 3:00:00 AM 7.08 44.744 0.449 8.03 8.96 11.56
3/14/2021 3:15:00 AM 7.03 44.654 0.449 8.03 8.69 11.59
3/14/2021 3:30:00 AM 6.99 44.582 0.449 8.03 9.22 11.58
3/14/2021 3:45:00 AM 6.95 44.51 0.449 8.03 9.16 11.6
3/14/2021 4:00:00 AM 6.91 44.438 0.449 8.03 9.82 11.58
3/14/2021 4:15:00 AM 6.87 44.366 0.449 8.03 9.65 11.64
3/14/2021 4:30:00 AM 6.82 44.276 0.449 8.03 9.2 11.65
3/14/2021 4:45:00 AM 6.79 44.222 0.449 8.03 9.66 11.66
3/14/2021 5:00:00 AM 6.75 44.15 0.449 8.03 9.48 11.67
3/14/2021 5:15:00 AM 6.72 44.096 0.449 8.03 9.39 11.68
3/14/2021 5:30:00 AM 6.69 44.042 0.449 8.03 10.11 11.68
3/14/2021 5:45:00 AM 6.65 43.97 0.449 8.03 10.32 11.71
3/14/2021 6:00:00 AM 6.62 43.916 0.449 8.03 10.28 11.68
3/14/2021 6:15:00 AM 6.58 43.844 0.449 8.03 10.2 11.71
3/14/2021 6:30:00 AM 6.55 43.79 0.45 8.03 10.34 11.74
3/14/2021 6:45:00 AM 6.53 43.754 0.449 8.03 10.57 11.76
3/14/2021 7:00:00 AM 6.51 43.718 0.449 8.03 9.97 11.77
3/14/2021 7:15:00 AM 6.5 43.7 0.45 8.04 11.17 11.81
3/14/2021 7:30:00 AM 6.51 43.718 0.449 8.04 10.31 11.86
3/14/2021 7:45:00 AM 6.53 43.754 0.449 8.05 10.26 11.88
3/14/2021 8:00:00 AM 6.55 43.79 0.449 8.05 10.13 11.93
3/14/2021 9:15:00 AM 6.59 43.862 0.449 8.06 9.76 11.99
3/14/2021 9:30:00 AM 6.65 43.97 0.449 8.07 9.76 12.05
3/14/2021 9:45:00 AM 6.72 44.096 0.444 8.08 9.8 12.11
3/14/2021 10:00:00 AM 6.81 44.258 0.449 8.09 9.65 12.17
3/14/2021 10:15:00 AM 6.88 44.384 0.449 8.1 9.63 12.22
3/14/2021 10:30:00 AM 6.98 44.564 0.449 8.11 9.62 12.3
3/14/2021 10:45:00 AM 7.12 44.816 0.448 8.12 9.68 12.36
3/14/2021 11:00:00 AM 7.28 45.104 0.448 8.14 10.36 12.46
3/14/2021 11:15:00 AM 7.45 45.41 0.448 8.15 9.56 12.55
3/14/2021 11:30:00 AM 7.65 45.77 0.447 8.17 9.92 12.62
3/14/2021 11:45:00 AM 7.88 46.184 0.447 8.19 9.89 12.68
3/14/2021 12:00:00 PM 8.16 46.688 0.446 8.21 10.04 12.74
3/14/2021 12:15:00 PM 8.47 47.246 0.445 8.24 9.85 12.8
3/14/2021 12:30:00 PM 8.78 47.804 0.445 8.26 10.13 12.82
3/14/2021 12:45:00 PM 9.11 48.398 0.444 8.29 10.11 12.89
3/14/2021 1:00:00 PM 9.44 48.992 0.443 8.32 10.5 12.85
3/14/2021 1:15:00 PM 9.8 49.64 0.443 8.34 10.53 12.87
3/14/2021 1:30:00 PM 10.16 50.288 0.442 8.37 10.74 12.84
3/14/2021 1:45:00 PM 10.48 50.864 0.441 8.38 9.29 12.92
3/14/2021 2:00:00 PM 10.79 51.422 0.44 8.41 9.67 12.9
3/14/2021 2:15:00 PM 11.12 52.016 0.439 8.44 10.16 12.86
3/14/2021 2:30:00 PM 11.39 52.502 0.438 8.46 10.24 12.82
3/14/2021 2:45:00 PM 11.61 52.898 0.437 8.49 10.21 12.77
3/14/2021 3:00:00 PM 11.81 53.258 0.436 8.52 10.92 12.69
3/14/2021 3:15:00 PM 11.96 53.528 0.435 8.54 11.48 12.66
3/14/2021 3:30:00 PM 11.99 53.582 0.435 8.55 11.47 12.58
3/14/2021 3:45:00 PM 12.12 53.816 0.434 8.57 11.37 12.55
3/14/2021 4:00:00 PM 12.16 53.888 0.434 8.58 11.35 12.5
3/14/2021 4:15:00 PM 12.17 53.906 0.434 8.59 14.36 12.43
3/14/2021 4:30:00 PM 12.22 53.996 0.434 8.6 10.9 12.38
3/14/2021 4:45:00 PM 12.21 53.978 0.434 8.6 12.16 12.11
3/14/2021 5:00:00 PM 12.19 53.942 0.434 8.61 11.03 12.24
3/14/2021 5:15:00 PM 12.08 53.744 0.433 8.61 11.33 12.09
3/14/2021 5:30:00 PM 11.99 53.582 0.434 8.6 11.29 11.95
3/14/2021 5:45:00 PM 11.89 53.402 0.434 8.59 11.58 12
3/14/2021 6:00:00 PM 11.74 53.132 0.434 8.58 11.3 11.89
3/14/2021 6:15:00 PM 11.61 52.898 0.434 8.57 11.17 11.81
3/14/2021 6:30:00 PM 11.43 52.574 0.435 8.55 11.05 11.74
3/14/2021 6:45:00 PM 11.25 52.25 0.435 8.53 11.69 11.64
3/14/2021 7:00:00 PM 11.09 51.962 0.436 8.51 6.61 11.5
3/14/2021 7:15:00 PM 10.95 51.71 0.437 8.5 6.97 11.45
3/14/2021 7:30:00 PM 10.8 51.44 0.437 8.47 7 11.41
3/14/2021 7:45:00 PM 10.64 51.152 0.438 8.46 5.93 11.33
3/14/2021 8:00:00 PM 10.45 50.81 0.439 8.43 7.27 11.28
3/14/2021 8:15:00 PM 10.29 50.522 0.44 8.41 6.15 11.3
3/14/2021 8:30:00 PM 10.12 50.216 0.44 8.38 6.29 11.14
3/14/2021 8:45:00 PM 9.92 49.856 0.441 8.35 6.08 11.21
3/14/2021 9:00:00 PM 9.71 49.478 0.443 8.32 6.25 11.22
3/14/2021 9:15:00 PM 9.51 49.118 0.443 8.3 6.58 11.28
3/14/2021 9:30:00 PM 9.3 48.74 0.444 8.28 6.48 11.3
3/14/2021 9:45:00 PM 9.1 48.38 0.446 8.25 6.56 11.3
3/14/2021 10:00:00 PM 8.91 48.038 0.447 8.23 6.96 11.32
3/14/2021 10:15:00 PM 8.69 47.642 0.448 8.2 6.45 11.35
3/14/2021 10:30:00 PM 8.47 47.246 0.449 8.18 6.86 11.33
3/14/2021 10:45:00 PM 8.24 46.832 0.449 8.16 9.83 11.37
3/14/2021 11:00:00 PM 8.01 46.418 0.45 8.14 6.72 11.4
3/14/2021 11:15:00 PM 7.82 46.076 0.451 8.13 6.8 11.42
3/14/2021 11:30:00 PM 7.64 45.752 0.452 8.11 6.59 11.42
3/14/2021 11:45:00 PM 7.44 45.392 0.452 8.1 6.47 11.47
3/15/2021 12:00:00 AM 7.28 45.104 0.453 8.09 7.06 11.42
3/15/2021 12:15:00 AM 7.15 44.87 0.453 8.09 5.9 11.56
3/15/2021 12:30:00 AM 6.99 44.582 0.454 8.08 6.36 11.6
3/15/2021 12:45:00 AM 6.87 44.366 0.454 8.07 6.56 11.64
3/15/2021 1:00:00 AM 6.72 44.096 0.454 8.07 5.83 11.68
3/15/2021 1:15:00 AM 6.6 43.88 0.452 8.07 5.89 11.68
3/15/2021 1:30:00 AM 6.48 43.664 0.454 8.06 6.45 11.7
3/15/2021 1:45:00 AM 6.36 43.448 0.454 8.06 6.92 11.79
3/15/2021 2:00:00 AM 6.24 43.232 0.455 8.06 6.7 11.83
3/15/2021 2:15:00 AM 6.12 43.016 0.455 8.06 7.06 11.82
3/15/2021 2:30:00 AM 6.03 42.854 0.455 8.06 6.85 11.86
3/15/2021 2:45:00 AM 5.91 42.638 0.456 8.06 6.75 11.91
3/15/2021 3:00:00 AM 5.79 42.422 0.456 8.06 6.66 11.96
3/15/2021 3:15:00 AM 5.69 42.242 0.456 8.06 6.64 11.97
3/15/2021 3:30:00 AM 5.59 42.062 0.456 8.06 6.48 12.04
3/15/2021 3:45:00 AM 5.48 41.864 0.456 8.06 5.71 12.08
3/15/2021 4:00:00 AM 5.38 41.684 0.456 8.06 6.09 12.11
3/15/2021 4:15:00 AM 5.29 41.522 0.456 8.06 6.58 12.12
3/15/2021 4:30:00 AM 5.21 41.378 0.456 8.06 6.77 12.2
3/15/2021 4:45:00 AM 5.13 41.234 0.456 8.06 6.27 12.25
3/15/2021 5:00:00 AM 5.06 41.108 0.456 8.06 6.37 12.24
3/15/2021 5:15:00 AM 4.96 40.928 0.457 8.06 6.58 12.28
3/15/2021 5:30:00 AM 4.89 40.802 0.457 8.06 6.83 12.28
3/15/2021 5:45:00 AM 4.81 40.658 0.457 8.06 6.74 12.38
3/15/2021 6:00:00 AM 4.74 40.532 0.457 8.06 6.43 12.41
3/15/2021 6:15:00 AM 4.67 40.406 0.457 8.06 6.51 12.45
3/15/2021 6:30:00 AM 4.61 40.298 0.457 8.06 6.51 12.46
3/15/2021 6:45:00 AM 4.55 40.19 0.458 8.06 6.74 12.49
3/15/2021 7:00:00 AM 4.51 40.118 0.457 8.07 6.54 12.48
3/15/2021 7:15:00 AM 4.49 40.082 0.458 8.07 6.38 12.49
3/15/2021 7:30:00 AM 4.46 40.028 0.458 8.07 6.34 12.51
3/15/2021 7:45:00 AM 4.44 39.992 0.458 8.07 6.25 12.52
3/15/2021 8:00:00 AM 4.42 39.956 0.458 8.07 6.28 12.55
3/15/2021 8:15:00 AM 4.41 39.938 0.458 8.07 6.61 12.59
3/15/2021 8:30:00 AM 4.39 39.902 0.458 8.08 6.67 12.64
3/15/2021 8:45:00 AM 4.38 39.884 0.458 8.08 5.93 12.65
3/15/2021 9:00:00 AM 4.37 39.866 0.458 8.09 6.26 12.71
3/15/2021 9:15:00 AM 4.38 39.884 0.458 8.09 6.21 12.78
3/15/2021 9:30:00 AM 4.39 39.902 0.458 8.1 5.92 12.83
3/15/2021 9:45:00 AM 4.43 39.974 0.458 8.11 5.97 12.87
3/15/2021 10:00:00 AM 4.47 40.046 0.458 8.12 6.6 12.97
3/15/2021 10:15:00 AM 4.55 40.19 0.458 8.13 6.56 13.05
3/15/2021 10:30:00 AM 4.62 40.316 0.458 8.14 6.19 13.11
3/15/2021 10:45:00 AM 4.73 40.514 0.458 8.15 6.23 13.2
3/15/2021 11:00:00 AM 4.86 40.748 0.458 8.16 5.91 13.29
3/15/2021 11:15:00 AM 5 41 0.457 8.17 8.54 13.35
3/15/2021 11:30:00 AM 5.17 41.306 0.457 8.19 5.41 13.41
3/15/2021 11:45:00 AM 5.34 41.612 0.457 8.2 5.27 13.47
3/15/2021 12:00:00 PM 5.58 42.044 0.457 8.22 5.23 13.55
3/15/2021 12:15:00 PM 5.86 42.548 0.456 8.24 4.54 13.58
3/15/2021 12:30:00 PM 6.17 43.106 0.456 8.26 4.51 13.63
3/15/2021 12:45:00 PM 6.45 43.61 0.455 8.29 4.74 13.65
3/15/2021 1:00:00 PM 6.8 44.24 0.454 8.31 4.79 13.68
3/15/2021 1:15:00 PM 7.13 44.834 0.453 8.33 4.78 13.68
3/15/2021 1:30:00 PM 7.47 45.446 0.452 8.36 4.74 13.67
3/15/2021 1:45:00 PM 7.8 46.04 0.451 8.38 4.83 13.59
3/15/2021 2:00:00 PM 8.13 46.634 0.45 8.4 4.97 13.52
3/15/2021 2:15:00 PM 8.41 47.138 0.449 8.42 5.33 13.54
3/15/2021 2:30:00 PM 8.69 47.642 0.448 8.44 5.37 13.51
3/15/2021 2:45:00 PM 8.92 48.056 0.448 8.46 5.17 13.45
3/15/2021 3:00:00 PM 9.11 48.398 0.447 8.47 5.35 13.47
3/15/2021 3:15:00 PM 9.29 48.722 0.446 8.5 5.76 13.42
3/15/2021 3:30:00 PM 9.4 48.92 0.445 8.51 5.58 13.36
3/15/2021 3:45:00 PM 9.55 49.19 0.445 8.53 5.75 13.32
3/15/2021 4:00:00 PM 9.68 49.424 0.444 8.55 6.27 13.24
3/15/2021 4:15:00 PM 9.75 49.55 0.444 8.56 5.44 13.2
3/15/2021 4:30:00 PM 9.83 49.694 0.443 8.57 6.67 13.12
3/15/2021 4:45:00 PM 9.85 49.73 0.443 8.58 6.69 13.06
3/15/2021 5:00:00 PM 9.87 49.766 0.443 8.58 5.54 12.9
3/15/2021 5:15:00 PM 9.85 49.73 0.442 8.59 5.61 12.88
3/15/2021 5:30:00 PM 9.83 49.694 0.442 8.59 5.45 12.82
3/15/2021 5:45:00 PM 9.77 49.586 0.443 8.59 5.36 12.69
3/15/2021 6:00:00 PM 9.71 49.478 0.443 8.58 5.93 12.58
3/15/2021 6:15:00 PM 9.66 49.388 0.443 8.57 7.65 12.37
3/15/2021 6:30:00 PM 9.61 49.298 0.443 8.56 6.9 12.33
3/15/2021 6:45:00 PM 9.55 49.19 0.444 8.54 5.66 12.25
3/15/2021 7:00:00 PM 9.48 49.064 0.444 8.53 6 12.19
3/15/2021 7:15:00 PM 9.4 48.92 0.444 8.51 6.52 12.09
3/15/2021 7:30:00 PM 9.31 48.758 0.445 8.49 5.93 11.87
3/15/2021 7:45:00 PM 9.21 48.578 0.445 8.47 5.48 11.52
3/15/2021 8:00:00 PM 9.1 48.38 0.446 8.45 5.7 11.89
3/15/2021 8:15:00 PM 8.96 48.128 0.446 8.42 6.08 11.84
3/15/2021 8:30:00 PM 8.82 47.876 0.447 8.4 6.27 11.79
3/15/2021 8:45:00 PM 8.66 47.588 0.447 8.37 6.05 11.66
3/15/2021 9:00:00 PM 8.5 47.3 0.448 8.35 5.89 11.7
3/15/2021 9:15:00 PM 8.34 47.012 0.449 8.32 6.37 11.34
3/15/2021 9:30:00 PM 8.18 46.724 0.449 8.3 5.93 11.75
3/15/2021 9:45:00 PM 8.01 46.418 0.45 8.27 5.72 11.66
3/15/2021 10:00:00 PM 7.86 46.148 0.451 8.25 5.69 11.69
3/15/2021 10:15:00 PM 7.71 45.878 0.452 8.22 5.85 11.71
3/15/2021 10:30:00 PM 7.58 45.644 0.453 8.2 5.9 11.7
3/15/2021 10:45:00 PM 7.46 45.428 0.454 8.18 5.62 11.6
3/15/2021 11:00:00 PM 7.35 45.23 0.454 8.16 5.13 11.59
3/15/2021 11:15:00 PM 7.25 45.05 0.455 8.14 5.37 11.49
3/15/2021 11:30:00 PM 7.16 44.888 0.455 8.13 5.26 11.57
3/15/2021 11:45:00 PM 7.08 44.744 0.456 8.12 5.31 11.58
3/16/2021 12:00:00 AM 7.01 44.618 0.456 8.11 5.16 11.59
3/16/2021 12:15:00 AM 6.93 44.474 0.457 8.1 5.07 11.69
3/16/2021 12:30:00 AM 6.87 44.366 0.457 8.09 5.27 11.68
3/16/2021 12:45:00 AM 6.8 44.24 0.457 8.08 5.35 11.72
3/16/2021 1:00:00 AM 6.75 44.15 0.457 8.08 5.44 11.75
3/16/2021 1:15:00 AM 6.69 44.042 0.458 8.08 5.07 11.75
3/16/2021 1:30:00 AM 6.65 43.97 0.458 8.07 5.26 11.75
3/16/2021 1:45:00 AM 6.61 43.898 0.458 8.07 5.84 11.75
3/16/2021 2:00:00 AM 6.57 43.826 0.458 8.07 5.49 11.78
3/16/2021 2:15:00 AM 6.55 43.79 0.458 8.07 5.31 11.8
3/16/2021 2:30:00 AM 6.52 43.736 0.458 8.06 5.47 11.81
3/16/2021 2:45:00 AM 6.49 43.682 0.458 8.06 5.44 11.8
3/16/2021 3:00:00 AM 6.46 43.628 0.458 8.06 5.37 11.8
3/16/2021 3:15:00 AM 6.44 43.592 0.458 8.06 5.27 11.81
3/16/2021 3:30:00 AM 6.43 43.574 0.458 8.06 5.14 11.82
3/16/2021 3:45:00 AM 6.42 43.556 0.458 8.06 5.31 11.82
3/16/2021 4:00:00 AM 6.41 43.538 0.458 8.06 5.18 11.82
3/16/2021 4:15:00 AM 6.4 43.52 0.458 8.06 5.37 11.83
3/16/2021 4:30:00 AM 6.4 43.52 0.459 8.06 5.49 11.83
3/16/2021 4:45:00 AM 6.4 43.52 0.458 8.06 5.4 11.84
3/16/2021 5:00:00 AM 6.39 43.502 0.459 8.06 5.17 11.83
3/16/2021 5:15:00 AM 6.39 43.502 0.459 8.06 4.94 11.85
3/16/2021 5:30:00 AM 6.38 43.484 0.459 8.06 5.27 11.83
3/16/2021 5:45:00 AM 6.37 43.466 0.459 8.06 5.46 11.84
3/16/2021 6:00:00 AM 6.36 43.448 0.459 8.06 5.72 11.84
3/16/2021 6:15:00 AM 6.35 43.43 0.459 8.06 5.6 11.85
3/16/2021 6:30:00 AM 6.34 43.412 0.459 8.06 5.55 11.85
3/16/2021 6:45:00 AM 6.33 43.394 0.459 8.06 6.06 11.86
3/16/2021 7:00:00 AM 6.32 43.376 0.459 8.06 5.59 11.87
3/16/2021 7:15:00 AM 6.3 43.34 0.459 8.06 5.73 11.87
3/16/2021 7:30:00 AM 6.29 43.322 0.459 8.06 5.18 11.86
3/16/2021 7:45:00 AM 6.28 43.304 0.459 8.06 5.31 11.87
3/16/2021 8:00:00 AM 6.28 43.304 0.459 8.06 5.01 11.88
3/16/2021 8:15:00 AM 6.26 43.268 0.459 8.06 5.03 11.9
3/16/2021 8:30:00 AM 6.26 43.268 0.459 8.07 5.15 11.94
3/16/2021 8:45:00 AM 6.25 43.25 0.459 8.07 4.9 11.98
3/16/2021 9:00:00 AM 6.25 43.25 0.459 8.08 4.78 12.03
3/16/2021 9:15:00 AM 6.25 43.25 0.458 8.08 4.88 12.08
3/16/2021 9:30:00 AM 6.25 43.25 0.459 8.09 4.8 12.12
3/16/2021 9:45:00 AM 6.26 43.268 0.458 8.09 4.61 12.21
3/16/2021 10:00:00 AM 6.27 43.286 0.458 8.1 4.49 12.26
3/16/2021 10:15:00 AM 6.29 43.322 0.458 8.11 4.57 12.33
3/16/2021 10:30:00 AM 6.31 43.358 0.457 8.12 4.65 12.42
3/16/2021 10:45:00 AM 6.34 43.412 0.457 8.13 4.54 12.48
3/16/2021 11:00:00 AM 6.37 43.466 0.457 8.14 4.53 12.57
3/16/2021 11:15:00 AM 6.44 43.592 0.456 8.16 4.72 12.67
3/16/2021 11:30:00 AM 6.45 43.61 0.456 8.17 4.57 12.72
3/16/2021 11:45:00 AM 6.47 43.646 0.455 8.18 4.95 12.77
3/16/2021 12:00:00 PM 6.55 43.79 0.456 8.2 4.43 12.9
3/16/2021 12:15:00 PM 6.59 43.862 0.456 8.22 4.84 12.98
3/16/2021 12:30:00 PM 6.65 43.97 0.456 8.23 4.56 13.04
3/16/2021 12:45:00 PM 6.68 44.024 0.456 8.25 4.8 13.11
3/16/2021 1:00:00 PM 6.72 44.096 0.455 8.26 4.49 13.16
3/16/2021 1:15:00 PM 6.77 44.186 0.455 8.28 4.52 13.23
3/16/2021 1:30:00 PM 6.81 44.258 0.454 8.29 4.5 13.26
3/16/2021 1:45:00 PM 6.86 44.348 0.454 8.31 4.67 13.3
3/16/2021 2:00:00 PM 6.88 44.384 0.454 8.33 4.65 13.32
3/16/2021 2:15:00 PM 6.88 44.384 0.453 8.34 4.56 13.31
3/16/2021 2:30:00 PM 6.89 44.402 0.453 8.35 4.55 13.32
3/16/2021 2:45:00 PM 6.92 44.456 0.453 8.36 4.68 13.29
3/16/2021 3:00:00 PM 6.94 44.492 0.452 8.37 4.62 13.26
3/16/2021 3:15:00 PM 6.99 44.582 0.452 8.38 4.83 13.26
3/16/2021 3:30:00 PM 7.04 44.672 0.451 8.4 5.61 13.27
3/16/2021 3:45:00 PM 7.1 44.78 0.451 8.41 4.56 13.27
3/16/2021 4:00:00 PM 7.18 44.924 0.451 8.42 4.7 13.28
3/16/2021 4:15:00 PM 7.24 45.032 0.45 8.43 4.98 13.3
3/16/2021 4:30:00 PM 7.31 45.158 0.45 8.45 4.98 13.28
3/16/2021 4:45:00 PM 7.35 45.23 0.449 8.46 5.22 13.33
3/16/2021 5:00:00 PM 7.37 45.266 0.45 8.47 5.17 13.29
3/16/2021 5:15:00 PM 7.39 45.302 0.449 8.47 6.49 13.26
3/16/2021 5:30:00 PM 7.41 45.338 0.449 8.47 5.49 13.21
3/16/2021 5:45:00 PM 7.41 45.338 0.45 8.47 7.7 13.17
3/16/2021 6:00:00 PM 7.4 45.32 0.45 8.46 5.5 13.1
3/16/2021 6:15:00 PM 7.37 45.266 0.45 8.44 5.95 13
3/16/2021 6:30:00 PM 7.35 45.23 0.451 8.42 5.74 12.91
3/16/2021 6:45:00 PM 7.34 45.212 0.451 8.41 5.65 12.83
3/16/2021 7:00:00 PM 7.31 45.158 0.451 8.39 5.73 12.73
3/16/2021 7:15:00 PM 7.3 45.14 0.452 8.37 5.71 12.64
3/16/2021 7:30:00 PM 7.3 45.14 0.451 8.36 5.64 12.56
3/16/2021 7:45:00 PM 7.31 45.158 0.452 8.34 6.05 12.47
3/16/2021 8:00:00 PM 7.32 45.176 0.452 8.33 6.51 12.39
3/16/2021 8:15:00 PM 7.32 45.176 0.452 8.31 5.76 12.31
3/16/2021 8:30:00 PM 7.31 45.158 0.452 8.3 5.89 12.24
3/16/2021 8:45:00 PM 7.3 45.14 0.452 8.29 5.85 12.17
3/16/2021 9:00:00 PM 7.28 45.104 0.452 8.27 5.96 12.14
3/16/2021 9:15:00 PM 7.26 45.068 0.453 8.26 5.99 12.07
3/16/2021 9:30:00 PM 7.23 45.014 0.453 8.24 5.9 12.03
3/16/2021 9:45:00 PM 7.21 44.978 0.454 8.22 5.7 11.98
3/16/2021 10:00:00 PM 7.19 44.942 0.454 8.21 8.07 11.94
3/16/2021 10:15:00 PM 7.16 44.888 0.455 8.19 5.97 11.88
3/16/2021 10:30:00 PM 7.13 44.834 0.455 8.18 6.07 11.85
3/16/2021 10:45:00 PM 7.11 44.798 0.455 8.16 9.43 11.81
3/16/2021 11:00:00 PM 7.09 44.762 0.456 8.15 5.73 11.8
3/16/2021 11:15:00 PM 7.07 44.726 0.456 8.13 6.61 11.76
3/16/2021 11:30:00 PM 7.06 44.708 0.456 8.12 5.66 11.73
3/16/2021 11:45:00 PM 7.05 44.69 0.457 8.11 5.82 11.69
3/17/2021 12:00:00 AM 7.04 44.672 0.457 8.11 4.97 11.65
3/17/2021 12:15:00 AM 7.03 44.654 0.457 8.1 5.17 11.69
3/17/2021 12:30:00 AM 7.02 44.636 0.457 8.09 6.11 11.65
3/17/2021 12:45:00 AM 7 44.6 0.457 8.09 4.96 11.65
3/17/2021 1:00:00 AM 6.99 44.582 0.457 8.09 5.84 11.66
3/17/2021 1:15:00 AM 6.99 44.582 0.457 8.09 4.92 11.65
3/17/2021 1:30:00 AM 6.98 44.564 0.457 8.08 7.97 11.67
3/17/2021 1:45:00 AM 6.98 44.564 0.457 8.08 6.02 11.66
3/17/2021 2:00:00 AM 6.98 44.564 0.457 8.08 5.53 11.67
3/17/2021 2:15:00 AM 6.98 44.564 0.457 8.08 5.32 11.67
3/17/2021 2:30:00 AM 6.98 44.564 0.457 8.08 5.07 11.63
3/17/2021 2:45:00 AM 6.99 44.582 0.457 8.07 7.53 11.65
3/17/2021 3:00:00 AM 6.99 44.582 0.457 8.07 8.06 11.61
3/17/2021 3:15:00 AM 7 44.6 0.457 8.07 5.58 11.65
3/17/2021 3:30:00 AM 7.01 44.618 0.457 8.07 5.49 11.66
3/17/2021 3:45:00 AM 7.01 44.618 0.457 8.07 6.09 11.64
3/17/2021 4:00:00 AM 7.01 44.618 0.457 8.07 10.15 11.65
3/17/2021 4:15:00 AM 7.02 44.636 0.457 8.07 4.95 11.6
3/17/2021 4:30:00 AM 7.02 44.636 0.457 8.07 5.08 11.55
3/17/2021 4:45:00 AM 7.02 44.636 0.458 8.07 6.14 11.62
3/17/2021 5:00:00 AM 7.03 44.654 0.457 8.07 5.25 11.65
3/17/2021 5:15:00 AM 7.03 44.654 0.457 8.07 5.45 11.63
3/17/2021 5:30:00 AM 7.03 44.654 0.457 8.07 5.62 11.64
3/17/2021 5:45:00 AM 7.03 44.654 0.457 8.07 10.99 11.64
3/17/2021 6:00:00 AM 7.02 44.636 0.457 8.07 5.8 11.63
3/17/2021 6:15:00 AM 7.02 44.636 0.457 8.07 7.37 11.64
3/17/2021 6:30:00 AM 7.02 44.636 0.457 8.07 12.5 11.65
3/17/2021 6:45:00 AM 7.01 44.618 0.457 8.07 5.17 11.62
3/17/2021 7:00:00 AM 7 44.6 0.457 8.07 5.87 11.66
3/17/2021 7:15:00 AM 7 44.6 0.457 8.07 6.05 11.63
3/17/2021 7:30:00 AM 7 44.6 0.457 8.07 5.48 11.67
3/17/2021 7:45:00 AM 7.01 44.618 0.457 8.07 5.43 11.67
3/17/2021 8:00:00 AM 7.01 44.618 0.458 8.07 5.27 11.69
3/17/2021 8:15:00 AM 7.02 44.636 0.457 8.07 5.36 11.73
3/17/2021 8:30:00 AM 7.03 44.654 0.458 8.08 5.55 11.75
3/17/2021 8:45:00 AM 7.06 44.708 0.458 8.09 5.31 11.79
3/17/2021 9:00:00 AM 7.09 44.762 0.457 8.09 5.68 11.88
3/17/2021 9:15:00 AM 7.13 44.834 0.457 8.1 6.29 11.96
3/17/2021 9:30:00 AM 7.17 44.906 0.458 8.11 8.96 12.03
3/17/2021 9:45:00 AM 7.21 44.978 0.457 8.12 12.16 12.1
3/17/2021 10:00:00 AM 7.25 45.05 0.457 8.13 5.53 12.11
3/17/2021 10:15:00 AM 7.3 45.14 0.457 8.14 5.72 12.24
3/17/2021 10:30:00 AM 7.35 45.23 0.457 8.16 8.16 12.34
3/17/2021 10:45:00 AM 7.41 45.338 0.456 8.17 13 12.41
3/17/2021 11:00:00 AM 7.47 45.446 0.456 8.18 5.16 12.5
3/17/2021 11:15:00 AM 7.53 45.554 0.456 8.2 5.07 12.57
3/17/2021 11:30:00 AM 7.58 45.644 0.455 8.21 5.21 12.64
3/17/2021 11:45:00 AM 7.63 45.734 0.455 8.23 5.26 12.69
3/17/2021 12:00:00 PM 7.68 45.824 0.455 8.24 4.96 12.76
3/17/2021 12:15:00 PM 7.76 45.968 0.454 8.26 5.2 12.81
3/17/2021 12:30:00 PM 7.86 46.148 0.454 8.28 5.39 12.9
3/17/2021 12:45:00 PM 7.94 46.292 0.454 8.3 5.42 12.96
3/17/2021 1:00:00 PM 8.02 46.436 0.453 8.31 5.51 13
3/17/2021 1:15:00 PM 8.1 46.58 0.453 8.34 5.36 13.07
3/17/2021 1:30:00 PM 8.17 46.706 0.452 8.36 4.86 13.1
3/17/2021 1:45:00 PM 8.23 46.814 0.452 8.38 5 13.14
3/17/2021 2:00:00 PM 8.32 46.976 0.451 8.4 4.7 13.19
3/17/2021 2:15:00 PM 8.4 47.12 0.45 8.42 4.95 13.21
3/17/2021 2:30:00 PM 8.46 47.228 0.45 8.44 5.74 13.09
3/17/2021 2:45:00 PM 8.52 47.336 0.449 8.46 5.4 13.07
3/17/2021 3:00:00 PM 8.58 47.444 0.449 8.48 5.29 13.08
3/17/2021 3:15:00 PM 8.64 47.552 0.448 8.5 4.69 13.15
3/17/2021 3:30:00 PM 8.7 47.66 0.448 8.51 6.21 13.14
3/17/2021 3:45:00 PM 8.76 47.768 0.447 8.53 4.41 13.1
3/17/2021 4:00:00 PM 8.81 47.858 0.447 8.54 4.86 13.12
3/17/2021 4:15:00 PM 8.87 47.966 0.447 8.55 4.67 13.08
3/17/2021 4:30:00 PM 8.93 48.074 0.446 8.56 4.06 13.02
3/17/2021 4:45:00 PM 8.97 48.146 0.446 8.56 4.23 12.96
3/17/2021 5:00:00 PM 9.02 48.236 0.446 8.57 4.4 12.87
3/17/2021 5:15:00 PM 9.05 48.29 0.446 8.56 4.47 12.85
3/17/2021 5:30:00 PM 9.07 48.326 0.446 8.56 5.78 12.62
3/17/2021 5:45:00 PM 9.09 48.362 0.447 8.55 4.34 12.67
3/17/2021 6:00:00 PM 9.1 48.38 0.447 8.54 4.34 12.61
3/17/2021 6:15:00 PM 9.1 48.38 0.447 8.53 4.6 12.44
3/17/2021 6:30:00 PM 9.1 48.38 0.448 8.51 4.84 12.41
3/17/2021 6:45:00 PM 9.09 48.362 0.448 8.49 4.47 12.31
3/17/2021 7:00:00 PM 9.08 48.344 0.449 8.47 4.52 12.17
3/17/2021 7:15:00 PM 9.06 48.308 0.45 8.45 4.67 12.08
3/17/2021 7:30:00 PM 9.05 48.29 0.451 8.42 4.35 11.98
3/17/2021 7:45:00 PM 9.03 48.254 0.451 8.39 4.66 11.83
3/17/2021 8:00:00 PM 9.01 48.218 0.452 8.36 4.74 11.74
3/17/2021 8:15:00 PM 8.99 48.182 0.452 8.33 4.75 11.69
3/17/2021 8:30:00 PM 8.97 48.146 0.452 8.31 4.67 11.53
3/17/2021 8:45:00 PM 8.95 48.11 0.451 8.29 4.8 11.55
3/17/2021 9:00:00 PM 8.93 48.074 0.451 8.27 4.66 11.43
3/17/2021 9:15:00 PM 8.91 48.038 0.451 8.25 4.61 11.48
3/17/2021 9:30:00 PM 8.88 47.984 0.451 8.23 4.38 11.42
3/17/2021 9:45:00 PM 8.85 47.93 0.452 8.21 4.44 11.42
3/17/2021 10:00:00 PM 8.83 47.894 0.452 8.19 4.71 11.38
3/17/2021 10:15:00 PM 8.8 47.84 0.452 8.18 4.46 11.34
3/17/2021 10:30:00 PM 8.77 47.786 0.453 8.16 4.67 11.29
3/17/2021 10:45:00 PM 8.75 47.75 0.453 8.15 4.28 11.28
3/17/2021 11:00:00 PM 8.73 47.714 0.454 8.13 4.32 11.25
3/17/2021 11:15:00 PM 8.7 47.66 0.454 8.12 4.19 11.23
3/17/2021 11:30:00 PM 8.68 47.624 0.454 8.11 4 11.22
3/17/2021 11:45:00 PM 8.66 47.588 0.455 8.1 4.41 11.2
3/18/2021 12:00:00 AM 8.64 47.552 0.455 8.09 5.1 11.17
3/18/2021 12:15:00 AM 8.63 47.534 0.455 8.09 4.12 11.17
3/18/2021 12:30:00 AM 8.62 47.516 0.455 8.08 4.2 11.14
3/18/2021 12:45:00 AM 8.61 47.498 0.456 8.08 4.24 11.14
3/18/2021 1:00:00 AM 8.6 47.48 0.456 8.08 4.4 11.16
3/18/2021 1:15:00 AM 8.59 47.462 0.456 8.07 4.24 11.16
3/18/2021 1:30:00 AM 8.59 47.462 0.456 8.07 4.52 11.11
3/18/2021 1:45:00 AM 8.58 47.444 0.457 8.07 4.81 11.17
3/18/2021 2:00:00 AM 8.58 47.444 0.457 8.07 4.53 11.14
3/18/2021 2:15:00 AM 8.58 47.444 0.457 8.07 4.43 11.15
3/18/2021 2:30:00 AM 8.58 47.444 0.457 8.07 4.37 11.15
3/18/2021 2:45:00 AM 8.58 47.444 0.457 8.07 4.8 11.15
3/18/2021 3:00:00 AM 8.58 47.444 0.457 8.07 5.19 11.15
3/18/2021 3:15:00 AM 8.57 47.426 0.457 8.07 4.55 11.15
3/18/2021 3:30:00 AM 8.57 47.426 0.457 8.06 4.59 11.15
3/18/2021 3:45:00 AM 8.57 47.426 0.458 8.06 4.74 11.16
3/18/2021 4:00:00 AM 8.57 47.426 0.458 8.06 4.18 11.14
3/18/2021 4:15:00 AM 8.57 47.426 0.458 8.06 4.12 11.13
3/18/2021 4:30:00 AM 8.57 47.426 0.458 8.07 4.79 10.94
3/18/2021 4:45:00 AM 8.57 47.426 0.458 8.06 4.43 10.94
3/18/2021 5:00:00 AM 8.56 47.408 0.458 8.07 4.43 11.07
3/18/2021 5:15:00 AM 8.56 47.408 0.458 8.07 4.4 10.87
3/18/2021 5:30:00 AM 8.55 47.39 0.458 8.07 4.48 11.04
3/18/2021 5:45:00 AM 8.55 47.39 0.458 8.07 4.34 11.02
3/18/2021 6:00:00 AM 8.54 47.372 0.458 8.07 4.65 11.13
3/18/2021 6:15:00 AM 8.53 47.354 0.458 8.07 4.67 11.13
3/18/2021 6:30:00 AM 8.52 47.336 0.458 8.07 4.56 11.13
3/18/2021 6:45:00 AM 8.52 47.336 0.457 8.07 4.7 11.13
3/18/2021 7:00:00 AM 8.51 47.318 0.457 8.07 4.57 11.12
3/18/2021 7:15:00 AM 8.5 47.3 0.457 8.06 4.98 11.12
3/18/2021 7:30:00 AM 8.49 47.282 0.457 8.07 4.48 11.09
3/18/2021 7:45:00 AM 8.49 47.282 0.457 8.07 5.11 11.12
3/18/2021 8:00:00 AM 8.48 47.264 0.456 8.07 4.64 11.1
3/18/2021 8:15:00 AM 8.48 47.264 0.455 8.06 4.9 11.14
3/18/2021 8:30:00 AM 8.49 47.282 0.455 8.06 5.04 11.14
3/18/2021 8:45:00 AM 8.48 47.264 0.453 8.07 5.1 11.18
3/18/2021 9:00:00 AM 8.48 47.264 0.451 8.06 4.98 11.19
3/18/2021 9:15:00 AM 8.49 47.282 0.449 8.06 5.13 11.21
3/18/2021 9:30:00 AM 8.49 47.282 0.447 8.07 5.43 11.25
3/18/2021 9:45:00 AM 8.5 47.3 0.445 8.07 5.47 11.28
3/18/2021 10:00:00 AM 8.51 47.318 0.443 8.07 5.7 11.32
3/18/2021 10:15:00 AM 8.52 47.336 0.441 8.08 5.5 11.32
3/18/2021 10:30:00 AM 8.53 47.354 0.439 8.08 6.32 11.42
3/18/2021 10:45:00 AM 8.54 47.372 0.436 8.08 6.87 11.36
3/18/2021 11:00:00 AM 8.55 47.39 0.434 8.08 6.46 11.39
3/18/2021 11:15:00 AM 8.55 47.39 0.432 8.08 7.75 11.52
3/18/2021 11:30:00 AM 8.56 47.408 0.431 8.08 7.84 11.55
3/18/2021 11:45:00 AM 8.58 47.444 0.43 8.08 8.36 11.59
3/18/2021 12:00:00 PM 8.59 47.462 0.428 8.09 10.98 11.63
3/18/2021 12:15:00 PM 8.61 47.498 0.426 8.08 9.36 11.67
3/18/2021 12:30:00 PM 8.64 47.552 0.423 8.09 9.21 11.73
3/18/2021 12:45:00 PM 8.67 47.606 0.42 8.1 9.67 11.75
3/18/2021 1:00:00 PM 8.69 47.642 0.417 8.1 10.34 11.73
3/18/2021 1:15:00 PM 8.72 47.696 0.414 8.1 10.56 11.82
3/18/2021 1:30:00 PM 8.73 47.714 0.412 8.1 11.38 11.85
3/18/2021 1:45:00 PM 8.75 47.75 0.41 8.1 12.32 11.82
3/18/2021 2:00:00 PM 8.76 47.768 0.41 8.09 13.47 11.73
3/18/2021 2:15:00 PM 8.77 47.786 0.411 8.07 13.68 11.64
3/18/2021 2:30:00 PM 8.78 47.804 0.412 8.06 14.76 11.44
3/18/2021 2:45:00 PM 8.79 47.822 0.411 8.06 14.39 11.31
3/18/2021 3:00:00 PM 8.8 47.84 0.408 8.05 14.43 11.38
3/18/2021 3:15:00 PM 8.82 47.876 0.407 8.05 13.85 11.46
3/18/2021 3:30:00 PM 8.84 47.912 0.404 8.05 13.79 11.49
3/18/2021 3:45:00 PM 8.84 47.912 0.399 8.05 13.49 11.54
3/18/2021 4:00:00 PM 8.83 47.894 0.393 8.05 13.42 11.65
3/18/2021 4:15:00 PM 8.81 47.858 0.386 8.05 15.87 11.66
3/18/2021 4:30:00 PM 8.79 47.822 0.379 8.03 16.61 11.65
3/18/2021 4:45:00 PM 8.74 47.732 0.372 8.02 18.21 11.59
3/18/2021 5:00:00 PM 8.69 47.642 0.366 8 32.71 11.52
3/18/2021 5:15:00 PM 8.64 47.552 0.36 7.97 23.24 11.45
3/18/2021 5:30:00 PM 8.6 47.48 0.355 7.94 24.9 11.39
3/18/2021 5:45:00 PM 8.56 47.408 0.35 7.93 30.65 11.34
3/18/2021 6:00:00 PM 8.51 47.318 0.346 7.91 38.69 11.27
3/18/2021 6:15:00 PM 8.47 47.246 0.343 7.9 37.64 11.27
3/18/2021 6:30:00 PM 8.45 47.21 0.341 7.89 41.49 11.25
3/18/2021 6:45:00 PM 8.41 47.138 0.338 7.88 44.28 11.22
3/18/2021 7:00:00 PM 8.37 47.066 0.335 7.87 54.03 11.16
3/18/2021 7:15:00 PM 8.32 46.976 0.332 7.85 56.42 11.12
3/18/2021 7:30:00 PM 8.28 46.904 0.329 7.84 57.2 10.96
3/18/2021 7:45:00 PM 8.25 46.85 0.328 7.83 59.84 10.94
3/18/2021 8:00:00 PM 8.22 46.796 0.329 7.82 64.55 10.99
3/18/2021 8:15:00 PM 8.19 46.742 0.329 7.81 66.55 10.98
3/18/2021 8:30:00 PM 8.16 46.688 0.329 7.8 59.48 10.96
3/18/2021 8:45:00 PM 8.13 46.634 0.328 7.79 57.62 10.97
3/18/2021 9:00:00 PM 8.1 46.58 0.325 7.79 55.87 10.96
3/18/2021 9:15:00 PM 8.06 46.508 0.32 7.78 59.86 10.92
3/18/2021 9:30:00 PM 8.02 46.436 0.315 7.77 52.79 10.81
3/18/2021 9:45:00 PM 7.99 46.382 0.311 7.76 62.04 10.67
3/18/2021 10:00:00 PM 7.96 46.328 0.307 7.76 53.61 10.93
3/18/2021 10:15:00 PM 7.93 46.274 0.305 7.75 58.52 10.85
3/18/2021 10:30:00 PM 7.91 46.238 0.304 7.75 53.94 10.88
3/18/2021 10:45:00 PM 7.88 46.184 0.304 7.74 59.3 10.93
3/18/2021 11:00:00 PM 7.86 46.148 0.304 7.74 51.63 10.9
3/18/2021 11:15:00 PM 7.84 46.112 0.305 7.74 47.43 10.93
3/18/2021 11:30:00 PM 7.83 46.094 0.307 7.74 45.4 10.85
3/18/2021 11:45:00 PM 7.82 46.076 0.31 7.75 45.9 10.9
3/19/2021 12:00:00 AM 7.8 46.04 0.313 7.75 40.33 10.93
3/19/2021 12:15:00 AM 7.79 46.022 0.316 7.76 43.84 10.92
3/19/2021 12:30:00 AM 7.77 45.986 0.321 7.76 43.54 10.86
3/19/2021 12:45:00 AM 7.75 45.95 0.307 7.76 39.36 10.9
3/19/2021 1:00:00 AM 7.74 45.932 0.329 7.77 33.8 10.91
3/19/2021 1:15:00 AM 7.73 45.914 0.334 7.77 33.76 10.9
3/19/2021 1:30:00 AM 7.71 45.878 0.338 7.78 30.29 10.91
3/19/2021 1:45:00 AM 7.68 45.824 0.343 7.78 31.88 10.93
3/19/2021 2:00:00 AM 7.66 45.788 0.347 7.79 29.93 10.93
3/19/2021 2:15:00 AM 7.64 45.752 0.35 7.79 24.21 10.92
3/19/2021 2:30:00 AM 7.61 45.698 0.353 7.8 24.4 10.94
3/19/2021 2:45:00 AM 7.58 45.644 0.357 7.8 24.23 10.95
3/19/2021 3:00:00 AM 7.55 45.59 0.359 7.81 21.12 10.96
3/19/2021 3:15:00 AM 7.51 45.518 0.361 7.81 20.89 11.03
3/19/2021 3:30:00 AM 7.48 45.464 0.363 7.82 20.65 11.01
3/19/2021 3:45:00 AM 7.43 45.374 0.364 7.82 18.48 11.07
3/19/2021 4:00:00 AM 7.38 45.284 0.366 7.82 19.72 11.08
3/19/2021 4:15:00 AM 7.32 45.176 0.368 7.83 18.16 11.15
3/19/2021 4:30:00 AM 7.26 45.068 0.37 7.83 16.96 11.17
3/19/2021 4:45:00 AM 7.2 44.96 0.371 7.84 16.4 11.2
3/19/2021 5:00:00 AM 7.14 44.852 0.373 7.84 16.83 11.23
3/19/2021 5:15:00 AM 7.08 44.744 0.375 7.84 16.06 11.25
3/19/2021 5:30:00 AM 7.01 44.618 0.376 7.85 14.86 11.28
3/19/2021 5:45:00 AM 6.95 44.51 0.378 7.85 14.59 11.28
3/19/2021 6:00:00 AM 6.88 44.384 0.38 7.86 14.05 11.31
3/19/2021 6:15:00 AM 6.81 44.258 0.382 7.86 13.17 11.38
3/19/2021 6:30:00 AM 6.73 44.114 0.384 7.87 13.11 11.41
3/19/2021 6:45:00 AM 6.66 43.988 0.386 7.87 12.58 11.46
3/19/2021 7:00:00 AM 6.59 43.862 0.388 7.87 11.62 11.49
3/19/2021 7:15:00 AM 6.51 43.718 0.39 7.88 11.2 11.51
3/19/2021 7:30:00 AM 6.45 43.61 0.391 7.88 11.44 11.56
3/19/2021 7:45:00 AM 6.4 43.52 0.393 7.89 10.54 11.59
3/19/2021 8:00:00 AM 6.35 43.43 0.395 7.89 9.9 11.64
3/19/2021 8:15:00 AM 6.3 43.34 0.397 7.9 10.92 11.73
3/19/2021 8:30:00 AM 6.26 43.268 0.398 7.91 9.58 11.8
3/19/2021 8:45:00 AM 6.24 43.232 0.399 7.92 8.92 11.9
3/19/2021 9:00:00 AM 6.2 43.16 0.401 7.93 8.29 11.99
3/19/2021 9:15:00 AM 6.19 43.142 0.402 7.95 8.56 12.09
3/19/2021 9:30:00 AM 6.16 43.088 0.403 7.96 8 12.2
3/19/2021 9:45:00 AM 6.14 43.052 0.404 7.97 7.57 12.3
3/19/2021 10:00:00 AM 6.1 42.98 0.405 7.98 7.19 12.39
3/19/2021 10:15:00 AM 6.11 42.998 0.406 8 7.36 12.52
3/19/2021 10:30:00 AM 6.17 43.106 0.407 8.01 6.78 12.62
3/19/2021 10:45:00 AM 6.28 43.304 0.408 8.03 6.78 12.72
3/19/2021 11:00:00 AM 6.34 43.412 0.408 8.05 6.3 12.83
3/19/2021 11:15:00 AM 6.44 43.592 0.409 8.07 6.26 12.94
3/19/2021 11:30:00 AM 6.64 43.952 0.409 8.09 5.95 13.07
3/19/2021 11:45:00 AM 6.78 44.204 0.41 8.12 6.33 13.19
3/19/2021 12:00:00 PM 6.94 44.492 0.41 8.14 5.88 13.27
3/19/2021 12:15:00 PM 7.15 44.87 0.41 8.17 5.61 13.35
3/19/2021 12:30:00 PM 7.42 45.356 0.411 8.2 5.63 13.43
3/19/2021 12:45:00 PM 7.68 45.824 0.411 8.23 5.54 13.46
3/19/2021 1:00:00 PM 7.97 46.346 0.411 8.26 5.41 13.5
3/19/2021 1:15:00 PM 8.26 46.868 0.411 8.28 5.49 13.52
3/19/2021 1:30:00 PM 8.53 47.354 0.411 8.31 5.58 13.51
3/19/2021 1:45:00 PM 8.82 47.876 0.411 8.33 5.4 13.5
3/19/2021 2:00:00 PM 9.13 48.434 0.411 8.36 5.1 13.48
3/19/2021 2:15:00 PM 9.41 48.938 0.412 8.38 5.1 13.44
3/19/2021 2:30:00 PM 9.65 49.37 0.412 8.4 4.95 13.4
3/19/2021 2:45:00 PM 9.88 49.784 0.412 8.42 5.04 13.37
3/19/2021 3:00:00 PM 10.06 50.108 0.412 8.43 5.24 13.33
3/19/2021 3:15:00 PM 10.21 50.378 0.412 8.45 4.84 13.29
3/19/2021 3:30:00 PM 10.33 50.594 0.412 8.47 4.85 13.24
3/19/2021 3:45:00 PM 10.44 50.792 0.412 8.48 4.66 13.19
3/19/2021 4:00:00 PM 10.52 50.936 0.412 8.49 5.09 13.13
3/19/2021 4:15:00 PM 10.57 51.026 0.412 8.5 4.92 13.05
3/19/2021 4:30:00 PM 10.58 51.044 0.413 8.51 5.33 12.99
3/19/2021 4:45:00 PM 10.62 51.116 0.413 8.51 4.67 12.91
3/19/2021 5:00:00 PM 10.59 51.062 0.413 8.51 4.96 12.86
3/19/2021 5:15:00 PM 10.54 50.972 0.414 8.51 4.86 12.78
3/19/2021 5:30:00 PM 10.48 50.864 0.414 8.51 5.3 12.68
3/19/2021 5:45:00 PM 10.41 50.738 0.415 8.5 5.07 12.58
3/19/2021 6:00:00 PM 10.32 50.576 0.415 8.48 5.03 12.47
3/19/2021 6:15:00 PM 10.22 50.396 0.416 8.47 4.97 12.36
3/19/2021 6:30:00 PM 10.12 50.216 0.417 8.45 4.66 12.25
3/19/2021 6:45:00 PM 10.04 50.072 0.418 8.43 4.92 12.15
3/19/2021 7:00:00 PM 9.96 49.928 0.418 8.4 4.8 12.04
3/19/2021 7:15:00 PM 9.87 49.766 0.419 8.38 4.84 11.94
3/19/2021 7:30:00 PM 9.78 49.604 0.42 8.35 5.46 11.85
3/19/2021 7:45:00 PM 9.68 49.424 0.42 8.33 5.12 11.79
3/19/2021 8:00:00 PM 9.58 49.244 0.421 8.31 5.02 11.72
3/19/2021 8:15:00 PM 9.45 49.01 0.421 8.28 4.88 11.66
3/19/2021 8:30:00 PM 9.31 48.758 0.422 8.26 4.96 11.61
3/19/2021 8:45:00 PM 9.15 48.47 0.423 8.23 5.54 11.59
3/19/2021 9:00:00 PM 9 48.2 0.424 8.21 5.17 11.56
3/19/2021 9:15:00 PM 8.84 47.912 0.425 8.19 5.14 11.55
3/19/2021 9:30:00 PM 8.67 47.606 0.426 8.16 5.77 11.54
3/19/2021 9:45:00 PM 8.51 47.318 0.426 8.14 5.84 11.51
3/19/2021 10:00:00 PM 8.35 47.03 0.427 8.12 6.05 11.47
3/19/2021 10:15:00 PM 8.18 46.724 0.428 8.11 5.7 11.48
3/19/2021 10:30:00 PM 8.02 46.436 0.429 8.09 5.75 11.49
3/19/2021 10:45:00 PM 7.87 46.166 0.429 8.08 5.76 11.49
3/19/2021 11:00:00 PM 7.71 45.878 0.43 8.06 4.98 11.5
3/19/2021 11:15:00 PM 7.58 45.644 0.43 8.05 4.97 11.5
3/19/2021 11:30:00 PM 7.45 45.41 0.431 8.04 5.16 11.51
3/19/2021 11:45:00 PM 7.32 45.176 0.431 8.03 5.83 11.53
3/20/2021 12:00:00 AM 7.22 44.996 0.432 8.02 5.67 11.56
3/20/2021 12:15:00 AM 7.12 44.816 0.432 8.02 5.64 11.57
3/20/2021 12:30:00 AM 7.03 44.654 0.432 8.01 6.89 11.6
3/20/2021 12:45:00 AM 6.94 44.492 0.433 8.01 6.07 11.62
3/20/2021 1:00:00 AM 6.85 44.33 0.433 8 5.36 11.66
3/20/2021 1:15:00 AM 6.77 44.186 0.433 8 5.32 11.69
3/20/2021 1:30:00 AM 6.68 44.024 0.433 8 4.95 11.71
3/20/2021 1:45:00 AM 6.6 43.88 0.433 8 5.81 11.74
3/20/2021 2:00:00 AM 6.53 43.754 0.434 7.99 5.55 11.77
3/20/2021 2:15:00 AM 6.46 43.628 0.434 7.99 5.66 11.79
3/20/2021 2:30:00 AM 6.39 43.502 0.434 7.99 6.01 11.81
3/20/2021 2:45:00 AM 6.32 43.376 0.434 7.99 6.29 11.83
3/20/2021 3:00:00 AM 6.25 43.25 0.434 7.99 5.34 11.86
3/20/2021 3:15:00 AM 6.18 43.124 0.435 7.99 6.35 11.9
3/20/2021 3:30:00 AM 6.12 43.016 0.435 7.99 5.19 11.91
3/20/2021 3:45:00 AM 6.06 42.908 0.435 7.99 5.11 11.94
3/20/2021 4:00:00 AM 6 42.8 0.435 7.99 4.93 11.97
3/20/2021 4:15:00 AM 5.93 42.674 0.435 7.99 5.6 11.99
3/20/2021 4:30:00 AM 5.88 42.584 0.435 7.99 5.06 12.01
3/20/2021 4:45:00 AM 5.82 42.476 0.435 7.99 5.1 12.03
3/20/2021 5:00:00 AM 5.77 42.386 0.435 7.99 4.65 12.05
3/20/2021 5:15:00 AM 5.71 42.278 0.435 7.99 4.8 12.07
3/20/2021 5:30:00 AM 5.65 42.17 0.435 7.99 4.94 12.1
3/20/2021 5:45:00 AM 5.6 42.08 0.435 7.99 4.65 12.12
3/20/2021 6:00:00 AM 5.55 41.99 0.435 7.99 4.64 12.14
3/20/2021 6:15:00 AM 5.5 41.9 0.436 7.99 12.23 12.16
3/20/2021 6:30:00 AM 5.45 41.81 0.436 7.99 63.48 12.18
3/20/2021 6:45:00 AM 5.4 41.72 0.436 7.99 8.73 12.18
3/20/2021 7:00:00 AM 5.35 41.63 0.436 7.99 5.41 12.1
3/20/2021 7:15:00 AM 5.31 41.558 0.436 8 4.83 12.24
3/20/2021 7:30:00 AM 5.27 41.486 0.437 8 4.91 12.26
3/20/2021 7:45:00 AM 5.24 41.432 0.437 8 4.73 12.3
3/20/2021 8:00:00 AM 5.21 41.378 0.437 8 4.47 12.34
3/20/2021 8:15:00 AM 5.19 41.342 0.437 8.01 4.57 12.39
3/20/2021 8:30:00 AM 5.18 41.324 0.437 8.01 4.45 12.44
3/20/2021 8:45:00 AM 5.18 41.324 0.437 8.02 4.39 12.49
3/20/2021 9:00:00 AM 5.19 41.342 0.437 8.02 5.18 12.56
3/20/2021 9:15:00 AM 5.22 41.396 0.437 8.03 5.37 12.63
3/20/2021 9:30:00 AM 5.28 41.504 0.437 8.04 5.25 12.7
3/20/2021 9:45:00 AM 5.37 41.666 0.437 8.05 4.82 12.77
3/20/2021 10:00:00 AM 5.47 41.846 0.437 8.06 3.9 12.85
3/20/2021 10:15:00 AM 5.6 42.08 0.437 8.07 3.89 12.78
3/20/2021 10:30:00 AM 5.74 42.332 0.436 8.09 3.87 13
3/20/2021 10:45:00 AM 5.9 42.62 0.436 8.1 3.86 13.08
3/20/2021 11:00:00 AM 6.09 42.962 0.436 8.12 3.61 13.16
3/20/2021 11:15:00 AM 6.29 43.322 0.436 8.13 3.76 13.23
3/20/2021 11:30:00 AM 6.54 43.772 0.435 8.15 3.86 13.29
3/20/2021 11:45:00 AM 6.84 44.312 0.435 8.18 6.14 13.37
3/20/2021 12:00:00 PM 7.14 44.852 0.435 8.2 3.8 13.4
3/20/2021 12:15:00 PM 7.49 45.482 0.434 8.23 10.66 13.41
3/20/2021 12:30:00 PM 7.87 46.166 0.433 8.26 3.79 13.49
3/20/2021 12:45:00 PM 8.26 46.868 0.432 8.29 3.87 13.53
3/20/2021 1:00:00 PM 8.66 47.588 0.431 8.31 4.08 13.54
3/20/2021 1:15:00 PM 9.07 48.326 0.43 8.34 4.7 13.52
3/20/2021 1:30:00 PM 9.45 49.01 0.429 8.37 4.14 13.49
3/20/2021 1:45:00 PM 9.85 49.73 0.429 8.39 4.17 13.44
3/20/2021 2:00:00 PM 10.22 50.396 0.428 8.41 4.03 13.41
3/20/2021 2:15:00 PM 10.57 51.026 0.427 8.44 4.47 13.36
3/20/2021 2:30:00 PM 10.87 51.566 0.428 8.46 4.96 13.3
3/20/2021 2:45:00 PM 11.16 52.088 0.427 8.48 4.7 13.26
3/20/2021 3:00:00 PM 11.42 52.556 0.426 8.5 4.92 13.13
3/20/2021 3:15:00 PM 11.66 52.988 0.425 8.52 4.58 13.12
3/20/2021 3:30:00 PM 11.87 53.366 0.425 8.54 4.56 13.06
3/20/2021 3:45:00 PM 12.03 53.654 0.424 8.55 5.07 12.98
3/20/2021 4:00:00 PM 12.17 53.906 0.424 8.56 5.8 12.9
3/20/2021 4:15:00 PM 12.28 54.104 0.424 8.57 4.97 12.84
3/20/2021 4:30:00 PM 12.34 54.212 0.424 8.58 5 12.72
3/20/2021 4:45:00 PM 12.4 54.32 0.424 8.59 5 12.58
3/20/2021 5:00:00 PM 12.42 54.356 0.424 8.59 4.77 12.55
3/20/2021 5:15:00 PM 12.42 54.356 0.424 8.58 4.75 12.46
3/20/2021 5:30:00 PM 12.4 54.32 0.424 8.58 6.28 12.31
3/20/2021 5:45:00 PM 12.35 54.23 0.424 8.56 5.22 12.2
3/20/2021 6:00:00 PM 12.28 54.104 0.424 8.55 4.86 12.05
3/20/2021 6:15:00 PM 12.2 53.96 0.424 8.53 5.17 11.95
3/20/2021 6:30:00 PM 12.12 53.816 0.424 8.51 4.81 11.84
3/20/2021 6:45:00 PM 12.03 53.654 0.424 8.48 4.96 11.68
3/20/2021 7:00:00 PM 11.94 53.492 0.425 8.46 4.8 11.6
3/20/2021 7:15:00 PM 11.85 53.33 0.425 8.43 4.88 11.43
3/20/2021 7:30:00 PM 11.74 53.132 0.426 8.4 4.93 11.37
3/20/2021 7:45:00 PM 11.62 52.916 0.426 8.38 4.76 11.28
3/20/2021 8:00:00 PM 11.49 52.682 0.427 8.35 5.28 11.17
3/20/2021 8:15:00 PM 11.34 52.412 0.427 8.33 5.13 11.12
3/20/2021 8:30:00 PM 11.18 52.124 0.428 8.3 5 11.06
3/20/2021 8:45:00 PM 11.01 51.818 0.428 8.27 5.41 11.03
3/20/2021 9:00:00 PM 10.83 51.494 0.429 8.24 5.3 11.03
3/20/2021 9:15:00 PM 10.65 51.17 0.43 8.22 5.53 11.03
3/20/2021 9:30:00 PM 10.47 50.846 0.43 8.2 5.25 11.03
3/20/2021 9:45:00 PM 10.28 50.504 0.431 8.18 5.04 11.01
3/20/2021 10:00:00 PM 10.08 50.144 0.432 8.16 5.23 10.9
3/20/2021 10:15:00 PM 9.89 49.802 0.432 8.14 4.73 11.02
3/20/2021 10:30:00 PM 9.69 49.442 0.433 8.12 4.79 11.01
3/20/2021 10:45:00 PM 9.49 49.082 0.434 8.1 5.86 11
3/20/2021 11:00:00 PM 9.31 48.758 0.435 8.08 4.53 11.02
3/20/2021 11:15:00 PM 9.13 48.434 0.435 8.07 4.6 11.03
3/20/2021 11:30:00 PM 8.96 48.128 0.436 8.06 4.79 11.05
3/20/2021 11:45:00 PM 8.8 47.84 0.436 8.05 4.59 11.08
3/21/2021 12:00:00 AM 8.66 47.588 0.436 8.04 4.72 11.11
3/21/2021 12:15:00 AM 8.51 47.318 0.437 8.04 5 11.14
3/21/2021 12:30:00 AM 8.37 47.066 0.437 8.03 4.77 11.17
3/21/2021 12:45:00 AM 8.24 46.832 0.437 8.02 4.89 11.2
3/21/2021 1:00:00 AM 8.11 46.598 0.437 8.02 4.84 11.25
3/21/2021 1:15:00 AM 7.98 46.364 0.437 8.02 4.62 11.29
3/21/2021 1:30:00 AM 7.86 46.148 0.437 8.02 4.68 11.32
3/21/2021 1:45:00 AM 7.75 45.95 0.438 8.01 4.88 11.36
3/21/2021 2:00:00 AM 7.64 45.752 0.438 8.01 4.94 11.39
3/21/2021 2:15:00 AM 7.53 45.554 0.438 8.01 4.62 11.43
3/21/2021 2:30:00 AM 7.44 45.392 0.438 8.01 4.55 11.46
3/21/2021 2:45:00 AM 7.34 45.212 0.438 8.01 5.62 11.49
3/21/2021 3:00:00 AM 7.25 45.05 0.438 8.01 4.54 11.48
3/21/2021 3:15:00 AM 7.15 44.87 0.438 8.01 4.75 11.55
3/21/2021 3:30:00 AM 7.07 44.726 0.438 8.01 4.34 11.59
3/21/2021 3:45:00 AM 6.98 44.564 0.438 8.01 4.44 11.62
3/21/2021 4:00:00 AM 6.89 44.402 0.437 8.01 8.91 11.64
3/21/2021 4:15:00 AM 6.81 44.258 0.438 8.01 4.5 11.49
3/21/2021 4:30:00 AM 6.73 44.114 0.438 8.01 4.84 11.72
3/21/2021 4:45:00 AM 6.65 43.97 0.438 8 6.11 11.73
3/21/2021 5:00:00 AM 6.58 43.844 0.438 8 4.81 11.75
3/21/2021 5:15:00 AM 6.5 43.7 0.438 8 4.36 11.79
3/21/2021 5:30:00 AM 6.43 43.574 0.438 8 4.68 11.82
3/21/2021 5:45:00 AM 6.37 43.466 0.439 8 4.82 11.8
3/21/2021 6:00:00 AM 6.31 43.358 0.439 8 4.7 11.83
3/21/2021 6:15:00 AM 6.24 43.232 0.439 8 4.75 11.77
3/21/2021 6:30:00 AM 6.18 43.124 0.439 8 4.44 11.89
3/21/2021 6:45:00 AM 6.12 43.016 0.439 8 4.76 11.92
3/21/2021 7:00:00 AM 6.06 42.908 0.439 8 4.36 11.94
3/21/2021 7:15:00 AM 6 42.8 0.439 8 4.87 11.9
3/21/2021 7:30:00 AM 5.94 42.692 0.439 8 4.7 11.97
3/21/2021 7:45:00 AM 5.9 42.62 0.439 8.01 4.84 11.98
3/21/2021 8:00:00 AM 5.86 42.548 0.439 8.01 4.57 12.07
3/21/2021 8:15:00 AM 5.83 42.494 0.439 8.02 4.31 12.1
3/21/2021 8:30:00 AM 5.8 42.44 0.439 8.02 4.44 12.19
3/21/2021 8:45:00 AM 5.8 42.44 0.439 8.03 4.08 12.24
3/21/2021 9:00:00 AM 5.8 42.44 0.439 8.03 4.39 12.32
3/21/2021 9:15:00 AM 5.83 42.494 0.439 8.04 4.22 12.39
3/21/2021 9:30:00 AM 5.9 42.62 0.439 8.05 3.93 12.48
3/21/2021 9:45:00 AM 5.99 42.782 0.439 8.06 3.84 12.57
3/21/2021 10:00:00 AM 6.11 42.998 0.439 8.07 8.77 12.65
3/21/2021 10:15:00 AM 6.26 43.268 0.439 8.09 3.42 12.75
3/21/2021 10:30:00 AM 6.43 43.574 0.438 8.1 3.25 12.83
3/21/2021 10:45:00 AM 6.62 43.916 0.438 8.11 3.47 12.94
3/21/2021 11:00:00 AM 6.83 44.294 0.438 8.13 3.61 13.01
3/21/2021 11:15:00 AM 7.08 44.744 0.437 8.15 3.86 13
3/21/2021 11:30:00 AM 7.34 45.212 0.436 8.18 3.45 13.19
3/21/2021 11:45:00 AM 7.65 45.77 0.435 8.2 3.79 13.28
3/21/2021 12:00:00 PM 7.97 46.346 0.435 8.23 3.43 13.35
3/21/2021 12:15:00 PM 8.33 46.994 0.434 8.26 5.6 13.41
3/21/2021 12:30:00 PM 8.73 47.714 0.433 8.29 3.7 13.45
3/21/2021 12:45:00 PM 9.14 48.452 0.432 8.33 3.54 13.46
3/21/2021 1:00:00 PM 9.55 49.19 0.431 8.36 3.57 13.5
3/21/2021 1:15:00 PM 9.99 49.982 0.43 8.39 3.72 13.5
3/21/2021 1:30:00 PM 10.39 50.702 0.429 8.43 3.45 13.47
3/21/2021 1:45:00 PM 10.79 51.422 0.428 8.46 3.74 13.44
3/21/2021 2:00:00 PM 11.19 52.142 0.427 8.49 3.95 13.37
3/21/2021 2:15:00 PM 11.56 52.808 0.426 8.52 4.28 13.33
3/21/2021 2:30:00 PM 11.89 53.402 0.426 8.55 3.68 13.3
3/21/2021 2:45:00 PM 12.18 53.924 0.425 8.58 3.71 13.24
3/21/2021 3:00:00 PM 12.46 54.428 0.424 8.6 3.77 13.15
3/21/2021 3:15:00 PM 12.7 54.86 0.423 8.62 4.92 13.09
3/21/2021 3:30:00 PM 12.91 55.238 0.422 8.64 3.92 13.05
3/21/2021 3:45:00 PM 13.09 55.562 0.421 8.67 4.02 13.03
3/21/2021 4:00:00 PM 13.22 55.796 0.421 8.68 3.84 12.93
3/21/2021 4:15:00 PM 13.3 55.94 0.42 8.7 4.06 12.85
3/21/2021 4:30:00 PM 13.38 56.084 0.419 8.71 4.5 12.76
3/21/2021 4:45:00 PM 13.43 56.174 0.419 8.71 4.28 12.67
3/21/2021 5:00:00 PM 13.42 56.156 0.419 8.72 3.88 12.57
3/21/2021 5:15:00 PM 13.41 56.138 0.419 8.71 4.21 12.47
3/21/2021 5:30:00 PM 13.38 56.084 0.419 8.71 4.46 12.33
3/21/2021 5:45:00 PM 13.31 55.958 0.419 8.7 4.76 12.21
3/21/2021 6:00:00 PM 13.24 55.832 0.419 8.68 4.84 12.07
3/21/2021 6:15:00 PM 13.16 55.688 0.42 8.66 4.62 11.96
3/21/2021 6:30:00 PM 13.07 55.526 0.42 8.64 4.55 11.79
3/21/2021 6:45:00 PM 12.99 55.382 0.421 8.61 4.27 11.66
3/21/2021 7:00:00 PM 12.89 55.202 0.421 8.59 4.27 11.52
3/21/2021 7:15:00 PM 12.79 55.022 0.422 8.56 4.37 11.36
3/21/2021 7:30:00 PM 12.68 54.824 0.422 8.52 5.14 11.26
3/21/2021 7:45:00 PM 12.55 54.59 0.423 8.49 5.35 11.16
3/21/2021 8:00:00 PM 12.41 54.338 0.424 8.46 4.72 11.07
3/21/2021 8:15:00 PM 12.26 54.068 0.424 8.42 5.88 10.81
3/21/2021 8:30:00 PM 12.08 53.744 0.425 8.39 4.57 10.9
3/21/2021 8:45:00 PM 11.9 53.42 0.426 8.35 4.77 10.86
3/21/2021 9:00:00 PM 11.71 53.078 0.427 8.32 4.69 10.83
3/21/2021 9:15:00 PM 11.53 52.754 0.428 8.28 4.76 10.78
3/21/2021 9:30:00 PM 11.33 52.394 0.429 8.25 4.85 10.74
3/21/2021 9:45:00 PM 11.14 52.052 0.43 8.22 4.8 10.57
3/21/2021 10:00:00 PM 10.94 51.692 0.431 8.19 4.77 10.14
3/21/2021 10:15:00 PM 10.74 51.332 0.43 8.17 42.26 10.55
3/21/2021 10:30:00 PM 10.54 50.972 0.433 8.15 4.59 10.69
3/21/2021 10:45:00 PM 10.34 50.612 0.434 8.12 4.7 10.62
3/21/2021 11:00:00 PM 10.15 50.27 0.435 8.11 4.9 10.75
3/21/2021 11:15:00 PM 9.96 49.928 0.436 8.09 5.17 10.74
3/21/2021 11:30:00 PM 9.79 49.622 0.436 8.07 4.06 10.79
3/21/2021 11:45:00 PM 9.62 49.316 0.436 8.06 4.37 10.81
3/22/2021 12:00:00 AM 9.47 49.046 0.436 8.05 4.15 10.82
3/22/2021 12:15:00 AM 9.32 48.776 0.437 8.04 4.4 10.82
3/22/2021 12:30:00 AM 9.17 48.506 0.437 8.04 4.04 10.87
3/22/2021 12:45:00 AM 9.03 48.254 0.437 8.03 4.36 10.91
3/22/2021 1:00:00 AM 8.89 48.002 0.437 8.03 4.18 10.95
3/22/2021 1:15:00 AM 8.76 47.768 0.437 8.02 4.17 11
3/22/2021 1:30:00 AM 8.63 47.534 0.437 8.02 4.47 11.03
3/22/2021 1:45:00 AM 8.51 47.318 0.437 8.01 4.6 11.07
3/22/2021 2:00:00 AM 8.39 47.102 0.437 8.01 4.33 11.1
3/22/2021 2:15:00 AM 8.27 46.886 0.438 8.01 4.46 11.1
3/22/2021 2:30:00 AM 8.16 46.688 0.438 8.01 4.03 11.18
3/22/2021 2:45:00 AM 8.05 46.49 0.438 8.01 4.01 11.22
3/22/2021 3:00:00 AM 7.95 46.31 0.438 8.01 4.35 11.27
3/22/2021 3:15:00 AM 7.85 46.13 0.438 8.01 4.37 11.29
3/22/2021 3:30:00 AM 7.76 45.968 0.438 8.01 4.19 11.32
3/22/2021 3:45:00 AM 7.67 45.806 0.439 8.01 4.07 11.36
3/22/2021 4:00:00 AM 7.59 45.662 0.438 8.01 5.4 11.38
3/22/2021 4:15:00 AM 7.5 45.5 0.438 8.01 4.72 11.4
3/22/2021 4:30:00 AM 7.43 45.374 0.438 8.01 8.33 11.43
3/22/2021 4:45:00 AM 7.36 45.248 0.439 8.01 4.31 11.46
3/22/2021 5:00:00 AM 7.29 45.122 0.439 8.01 4.23 11.47
3/22/2021 5:15:00 AM 7.23 45.014 0.439 8.01 4.42 11.51
3/22/2021 5:30:00 AM 7.17 44.906 0.439 8.01 4.9 11.52
3/22/2021 5:45:00 AM 7.11 44.798 0.439 8.01 5.75 11.53
3/22/2021 6:00:00 AM 7.04 44.672 0.439 8.01 4.91 11.55
3/22/2021 6:15:00 AM 6.99 44.582 0.439 8.01 4.23 11.58
3/22/2021 6:30:00 AM 6.93 44.474 0.438 8.01 7.53 11.59
3/22/2021 6:45:00 AM 6.87 44.366 0.438 8.01 4.34 11.62
3/22/2021 7:00:00 AM 6.8 44.24 0.438 8.01 4.3 11.65
3/22/2021 7:15:00 AM 6.75 44.15 0.438 8.01 4.59 11.66
3/22/2021 7:30:00 AM 6.69 44.042 0.438 8.01 4.32 11.72
3/22/2021 7:45:00 AM 6.64 43.952 0.438 8.01 4.03 11.74
3/22/2021 8:00:00 AM 6.59 43.862 0.438 8.02 4.22 11.79
3/22/2021 8:15:00 AM 6.56 43.808 0.438 8.02 4.15 11.86
3/22/2021 8:30:00 AM 6.53 43.754 0.438 8.03 4.33 11.89
3/22/2021 8:45:00 AM 6.52 43.736 0.438 8.04 4.42 11.98
3/22/2021 9:00:00 AM 6.53 43.754 0.438 8.04 4.12 12.01
3/22/2021 9:15:00 AM 6.55 43.79 0.438 8.05 3.83 12.14
3/22/2021 9:30:00 AM 6.62 43.916 0.438 8.06 3.84 12.23
3/22/2021 9:45:00 AM 6.71 44.078 0.438 8.07 3.78 12.32
3/22/2021 10:00:00 AM 6.82 44.276 0.437 8.09 3.56 12.43
3/22/2021 10:15:00 AM 6.97 44.546 0.437 8.1 3.53 12.56
3/22/2021 10:30:00 AM 7.13 44.834 0.437 8.12 3.38 12.64
3/22/2021 10:45:00 AM 7.31 45.158 0.436 8.14 3.38 12.75
3/22/2021 11:00:00 AM 7.5 45.5 0.436 8.16 3.55 12.86
3/22/2021 11:15:00 AM 7.73 45.914 0.435 8.18 3.68 12.97
3/22/2021 11:30:00 AM 8 46.4 0.434 8.21 3.91 13.08
3/22/2021 11:45:00 AM 8.29 46.922 0.434 8.24 3.3 13.17
3/22/2021 12:00:00 PM 8.6 47.48 0.433 8.27 3.42 13.38
3/22/2021 12:15:00 PM 8.95 48.11 0.432 8.31 3.82 13.39
3/22/2021 12:30:00 PM 9.33 48.794 0.431 8.35 3.52 13.64
3/22/2021 12:45:00 PM 9.73 49.514 0.43 8.38 3.82 13.57
3/22/2021 1:00:00 PM 10.15 50.27 0.429 8.42 3.61 13.47
3/22/2021 1:15:00 PM 10.57 51.026 0.428 8.46 3.7 13.5
3/22/2021 1:30:00 PM 10.96 51.728 0.427 8.5 4.52 13.46
3/22/2021 1:45:00 PM 11.35 52.43 0.425 8.54 5.14 13.5
3/22/2021 2:00:00 PM 11.74 53.132 0.424 8.57 3.81 13.4
3/22/2021 2:15:00 PM 12.09 53.762 0.423 8.6 3.62 13.45
3/22/2021 2:30:00 PM 12.4 54.32 0.422 8.64 3.69 13.41
3/22/2021 2:45:00 PM 12.69 54.842 0.421 8.67 3.93 13.31
3/22/2021 3:00:00 PM 12.94 55.292 0.42 8.69 4.01 13.22
3/22/2021 3:15:00 PM 13.16 55.688 0.419 8.72 3.97 13.25
3/22/2021 3:30:00 PM 13.36 56.048 0.418 8.74 4 13.16
3/22/2021 3:45:00 PM 13.53 56.354 0.417 8.76 4.07 13.03
3/22/2021 4:00:00 PM 13.66 56.588 0.416 8.78 4.21 13.01
3/22/2021 4:15:00 PM 13.74 56.732 0.415 8.79 3.97 12.92
3/22/2021 4:30:00 PM 13.81 56.858 0.415 8.8 3.99 12.85
3/22/2021 4:45:00 PM 13.83 56.894 0.415 8.8 4.34 12.73
3/22/2021 5:00:00 PM 13.82 56.876 0.415 8.81 4.83 12.64
3/22/2021 5:15:00 PM 13.77 56.786 0.415 8.81 4.5 12.52
3/22/2021 5:30:00 PM 13.75 56.75 0.415 8.8 5 12.36
3/22/2021 5:45:00 PM 13.65 56.57 0.415 8.79 5.27 12.27
3/22/2021 6:00:00 PM 13.59 56.462 0.415 8.78 4.69 12.11
3/22/2021 6:15:00 PM 13.47 56.246 0.415 8.76 4.48 11.92
3/22/2021 6:30:00 PM 13.38 56.084 0.416 8.74 4.51 11.81
3/22/2021 6:45:00 PM 13.29 55.922 0.416 8.71 5.57 11.66
3/22/2021 7:00:00 PM 13.18 55.724 0.417 8.68 4.77 11.4
3/22/2021 7:15:00 PM 13.07 55.526 0.417 8.65 4.37 11.37
3/22/2021 7:30:00 PM 12.96 55.328 0.418 8.61 4.25 11.19
3/22/2021 7:45:00 PM 12.84 55.112 0.419 8.58 10.22 11.07
3/22/2021 8:00:00 PM 12.69 54.842 0.42 8.54 3.92 11.01
3/22/2021 8:15:00 PM 12.54 54.572 0.42 8.5 4.17 10.96
3/22/2021 8:30:00 PM 12.37 54.266 0.422 8.46 4.73 10.88
3/22/2021 8:45:00 PM 12.19 53.942 0.423 8.42 4.27 10.8
3/22/2021 9:00:00 PM 12 53.6 0.424 8.38 4.31 10.76
3/22/2021 9:15:00 PM 11.8 53.24 0.425 8.34 4.66 10.73
3/22/2021 9:30:00 PM 11.61 52.898 0.426 8.31 4.3 10.69
3/22/2021 9:45:00 PM 11.41 52.538 0.427 8.27 4.08 10.72
3/22/2021 10:00:00 PM 11.21 52.178 0.428 8.23 4.48 10.67
3/22/2021 10:15:00 PM 11 51.8 0.43 8.2 4.4 10.64
3/22/2021 10:30:00 PM 10.79 51.422 0.431 8.17 4.35 10.65
3/22/2021 10:45:00 PM 10.59 51.062 0.432 8.15 4.28 10.6
3/22/2021 11:00:00 PM 10.4 50.72 0.433 8.12 4.38 10.63
3/22/2021 11:15:00 PM 10.21 50.378 0.434 8.1 4.54 10.63
3/22/2021 11:30:00 PM 10.04 50.072 0.434 8.08 4.1 10.63
3/22/2021 11:45:00 PM 9.88 49.784 0.434 8.07 4.1 10.64
3/23/2021 12:00:00 AM 9.72 49.496 0.435 8.05 4.06 10.67
3/23/2021 12:15:00 AM 9.57 49.226 0.435 8.05 4.05 10.69
3/23/2021 12:30:00 AM 9.43 48.974 0.435 8.04 4.11 10.7
3/23/2021 12:45:00 AM 9.29 48.722 0.435 8.03 4 10.73
3/23/2021 1:00:00 AM 9.15 48.47 0.435 8.03 4.56 10.78
3/23/2021 1:15:00 AM 9.02 48.236 0.434 8.02 4.14 10.81
3/23/2021 1:30:00 AM 8.89 48.002 0.435 8.02 5.17 10.85
3/23/2021 1:45:00 AM 8.77 47.786 0.435 8.02 8.47 10.94
3/23/2021 2:00:00 AM 8.66 47.588 0.435 8.01 4.1 10.95
3/23/2021 2:15:00 AM 8.55 47.39 0.434 8.01 5.53 11.02
3/23/2021 2:30:00 AM 8.45 47.21 0.435 8.01 3.57 11.04
3/23/2021 2:45:00 AM 8.35 47.03 0.435 8.01 3.77 11.08
3/23/2021 3:00:00 AM 8.25 46.85 0.435 8.01 3.96 11.1
3/23/2021 3:15:00 AM 8.16 46.688 0.435 8.01 3.97 11.14
3/23/2021 3:30:00 AM 8.08 46.544 0.435 8.01 3.68 11.17
3/23/2021 3:45:00 AM 7.99 46.382 0.435 8 4.2 11.17
3/23/2021 4:00:00 AM 7.91 46.238 0.435 8.01 3.9 11.21
3/23/2021 4:15:00 AM 7.84 46.112 0.435 8 3.62 11.26
3/23/2021 4:30:00 AM 7.76 45.968 0.435 8.01 3.67 11.26
3/23/2021 4:45:00 AM 7.69 45.842 0.435 8.01 3.43 11.27
3/23/2021 5:00:00 AM 7.62 45.716 0.435 8.01 3.74 11.33
3/23/2021 5:15:00 AM 7.55 45.59 0.435 8.01 3.91 11.33
3/23/2021 5:30:00 AM 7.49 45.482 0.436 8.01 5.36 11.36
3/23/2021 5:45:00 AM 7.42 45.356 0.436 8.01 5.14 11.37
3/23/2021 6:00:00 AM 7.36 45.248 0.436 8.01 3.74 11.41
3/23/2021 6:15:00 AM 7.3 45.14 0.436 8.01 3.61 11.42
3/23/2021 6:30:00 AM 7.24 45.032 0.436 8.01 3.67 11.45
3/23/2021 6:45:00 AM 7.18 44.924 0.436 8 3.61 11.49
3/23/2021 7:00:00 AM 7.12 44.816 0.436 8 3.64 11.48
3/23/2021 7:15:00 AM 7.07 44.726 0.436 8 3.85 11.52
3/23/2021 7:30:00 AM 7.02 44.636 0.436 8 3.58 11.54
3/23/2021 7:45:00 AM 6.98 44.564 0.436 8.01 3.97 11.59
3/23/2021 8:00:00 AM 6.95 44.51 0.436 8.01 3.58 11.66
3/23/2021 8:15:00 AM 6.93 44.474 0.436 8.02 3.75 11.76
3/23/2021 8:30:00 AM 6.92 44.456 0.437 8.02 3.46 11.82
3/23/2021 8:45:00 AM 6.92 44.456 0.436 8.03 3.3 11.97
3/23/2021 9:00:00 AM 6.94 44.492 0.437 8.04 3.38 12.03
3/23/2021 9:15:00 AM 6.99 44.582 0.437 8.05 3.34 12.15
3/23/2021 9:30:00 AM 7.07 44.726 0.436 8.07 3.32 12.27
3/23/2021 9:45:00 AM 7.16 44.888 0.436 8.08 3.67 12.33
3/23/2021 10:00:00 AM 7.28 45.104 0.436 8.1 3.37 12.53
3/23/2021 10:15:00 AM 7.43 45.374 0.436 8.12 3.08 12.66
3/23/2021 10:30:00 AM 7.6 45.68 0.435 8.14 3.17 12.75
3/23/2021 10:45:00 AM 7.78 46.004 0.435 8.16 3.07 12.95
3/23/2021 11:00:00 AM 8 46.4 0.434 8.18 3.14 13.19
3/23/2021 11:15:00 AM 8.24 46.832 0.434 8.21 2.97 13.13
3/23/2021 11:30:00 AM 8.52 47.336 0.433 8.24 3.25 13.25
3/23/2021 11:45:00 AM 8.83 47.894 0.432 8.28 3.19 13.5
3/23/2021 12:00:00 PM 9.14 48.452 0.431 8.32 3.42 13.55
3/23/2021 12:15:00 PM 9.48 49.064 0.43 8.36 3.16 13.55
3/23/2021 12:30:00 PM 9.85 49.73 0.429 8.4 3.27 13.56
3/23/2021 12:45:00 PM 10.26 50.468 0.428 8.45 3.27 13.65
3/23/2021 1:00:00 PM 10.65 51.17 0.426 8.49 3.58 13.68
3/23/2021 1:15:00 PM 11.03 51.854 0.425 8.54 3.82 13.83
3/23/2021 1:30:00 PM 11.34 52.412 0.423 8.58 3.46 13.76
3/23/2021 1:45:00 PM 11.62 52.916 0.422 8.62 3.92 13.72
3/23/2021 2:00:00 PM 12.02 53.636 0.421 8.66 3.72 13.69
3/23/2021 2:15:00 PM 12.37 54.266 0.42 8.69 3.82 13.65
3/23/2021 2:30:00 PM 12.7 54.86 0.418 8.73 3.95 13.6
3/23/2021 2:45:00 PM 12.9 55.22 0.417 8.76 4.23 13.55
3/23/2021 3:00:00 PM 13.1 55.58 0.416 8.79 4.04 13.51
3/23/2021 3:15:00 PM 13.28 55.904 0.415 8.82 4.27 13.47
3/23/2021 3:30:00 PM 13.42 56.156 0.413 8.84 5.29 13.45
3/23/2021 3:45:00 PM 13.6 56.48 0.412 8.87 5.07 13.39
3/23/2021 4:00:00 PM 13.73 56.714 0.412 8.89 5.91 13.32
3/23/2021 4:15:00 PM 13.78 56.804 0.41 8.9 5.83 13.24
3/23/2021 4:30:00 PM 13.88 56.984 0.41 8.91 6.22 13.17
3/23/2021 4:45:00 PM 13.91 57.038 0.409 8.92 4.09 13.06
3/23/2021 5:00:00 PM 13.96 57.128 0.409 8.92 4.14 12.96
3/23/2021 5:15:00 PM 13.99 57.182 0.408 8.92 3.7 12.86
3/23/2021 5:30:00 PM 13.98 57.164 0.408 8.92 7.74 12.69
3/23/2021 5:45:00 PM 13.94 57.092 0.408 8.91 3.88 12.55
3/23/2021 6:00:00 PM 13.88 56.984 0.408 8.9 4.11 12.44
3/23/2021 6:15:00 PM 13.85 56.93 0.408 8.89 3.86 12.27
3/23/2021 6:30:00 PM 13.82 56.876 0.408 8.87 14.79 12.11
3/23/2021 6:45:00 PM 13.77 56.786 0.409 8.85 4.09 11.93
3/23/2021 7:00:00 PM 13.7 56.66 0.41 8.82 4.37 11.73
3/23/2021 7:15:00 PM 13.6 56.48 0.411 8.79 4.21 11.56
3/23/2021 7:30:00 PM 13.48 56.264 0.412 8.75 4.63 11.41
3/23/2021 7:45:00 PM 13.37 56.066 0.413 8.72 3.93 11.23
3/23/2021 8:00:00 PM 13.26 55.868 0.414 8.68 4.14 11.07
3/23/2021 8:15:00 PM 13.12 55.616 0.415 8.63 4.22 10.96
3/23/2021 8:30:00 PM 12.98 55.364 0.417 8.57 4.08 10.84
3/23/2021 8:45:00 PM 12.81 55.058 0.408 8.52 4.07 10.73
3/23/2021 9:00:00 PM 12.65 54.77 0.377 8.47 3.72 10.68
3/23/2021 9:15:00 PM 12.49 54.482 0.386 8.42 3.99 10.6
3/23/2021 9:30:00 PM 12.33 54.194 0.389 8.37 4.02 10.54
3/23/2021 9:45:00 PM 12.18 53.924 0.425 8.32 3.84 10.49
3/23/2021 10:00:00 PM 12.01 53.618 0.427 8.27 3.77 10.48
3/23/2021 10:15:00 PM 11.85 53.33 0.429 8.23 3.96 10.44
3/23/2021 10:30:00 PM 11.69 53.042 0.43 8.19 3.8 10.4
3/23/2021 10:45:00 PM 11.55 52.79 0.431 8.16 4.07 10.37
3/23/2021 11:00:00 PM 11.41 52.538 0.432 8.13 4.2 10.34
3/23/2021 11:15:00 PM 11.27 52.286 0.434 8.11 4 10.28
3/23/2021 11:30:00 PM 11.14 52.052 0.434 8.09 5.22 10.27
3/23/2021 11:45:00 PM 11.01 51.818 0.435 8.07 3.88 10.32
3/24/2021 12:00:00 AM 10.89 51.602 0.436 8.06 4.1 10.28
3/24/2021 12:15:00 AM 10.77 51.386 0.436 8.05 4.56 10.31
3/24/2021 12:30:00 AM 10.66 51.188 0.436 8.04 4.18 10.36
3/24/2021 12:45:00 AM 10.58 51.044 0.437 8.03 4.17 10.32
3/24/2021 1:00:00 AM 10.51 50.918 0.437 8.02 3.85 10.38
3/24/2021 1:15:00 AM 10.44 50.792 0.437 8.02 3.93 10.4
3/24/2021 1:30:00 AM 10.39 50.702 0.437 8.01 4.02 10.43
3/24/2021 1:45:00 AM 10.34 50.612 0.437 8.01 4.05 10.46
3/24/2021 2:00:00 AM 10.29 50.522 0.437 8.01 4.6 10.46
3/24/2021 2:15:00 AM 10.26 50.468 0.437 8.01 3.84 10.49
3/24/2021 2:30:00 AM 10.23 50.414 0.437 8 3.96 10.5
3/24/2021 2:45:00 AM 10.2 50.36 0.425 8 3.94 10.52
3/24/2021 3:00:00 AM 10.18 50.324 0.437 8 4.72 10.53
3/24/2021 3:15:00 AM 10.16 50.288 0.437 8 3.78 10.54
3/24/2021 3:30:00 AM 10.14 50.252 0.437 8 3.9 10.55
3/24/2021 3:45:00 AM 10.13 50.234 0.437 8 3.73 10.55
3/24/2021 4:00:00 AM 10.13 50.234 0.437 8 3.69 10.55
3/24/2021 4:15:00 AM 10.12 50.216 0.437 8 3.93 10.53
3/24/2021 4:30:00 AM 10.13 50.234 0.437 8 3.68 10.54
3/24/2021 4:45:00 AM 10.13 50.234 0.437 8 4.02 10.55
3/24/2021 5:00:00 AM 10.14 50.252 0.437 8 3.92 10.5
3/24/2021 5:15:00 AM 10.15 50.27 0.427 8 4 10.55
3/24/2021 5:30:00 AM 10.16 50.288 0.435 8 3.65 10.55
3/24/2021 5:45:00 AM 10.18 50.324 0.403 8 3.89 10.55
3/24/2021 6:00:00 AM 10.19 50.342 0.437 8 3.8 10.54
3/24/2021 6:15:00 AM 10.19 50.342 0.437 8 4.3 10.51
3/24/2021 6:30:00 AM 10.2 50.36 0.437 8 4.35 10.54
3/24/2021 6:45:00 AM 10.21 50.378 0.436 8 4.61 10.52
3/24/2021 7:00:00 AM 10.21 50.378 0.436 8 3.96 10.5
3/24/2021 7:15:00 AM 10.2 50.36 0.436 8 4.01 10.5
3/24/2021 7:30:00 AM 10.2 50.36 0.436 7.99 3.85 10.53
3/24/2021 7:45:00 AM 10.2 50.36 0.436 8 3.84 10.54
3/24/2021 8:00:00 AM 10.2 50.36 0.436 8 3.84 10.52
3/24/2021 8:15:00 AM 10.2 50.36 0.436 8 3.7 10.52
3/24/2021 8:30:00 AM 10.2 50.36 0.436 8 3.75 10.54
3/24/2021 8:45:00 AM 10.21 50.378 0.435 8.01 3.55 10.57
3/24/2021 9:00:00 AM 10.22 50.396 0.435 8.01 3.63 10.63
3/24/2021 9:15:00 AM 10.24 50.432 0.435 8.02 3.77 10.62
3/24/2021 9:30:00 AM 10.25 50.45 0.434 8.02 3.79 10.72
3/24/2021 9:45:00 AM 10.26 50.468 0.434 8.02 3.89 10.76
3/24/2021 10:00:00 AM 10.27 50.486 0.433 8.03 3.84 10.82
3/24/2021 10:15:00 AM 10.29 50.522 0.432 8.04 3.82 10.87
3/24/2021 10:30:00 AM 10.31 50.558 0.43 8.04 4.02 10.94
3/24/2021 10:45:00 AM 10.32 50.576 0.429 8.05 3.97 10.98
3/24/2021 11:00:00 AM 10.34 50.612 0.428 8.05 4.15 11.03
3/24/2021 11:15:00 AM 10.38 50.684 0.426 8.06 4.03 11.13
3/24/2021 11:30:00 AM 10.41 50.738 0.425 8.07 4.38 11.19
3/24/2021 11:45:00 AM 10.44 50.792 0.388 8.08 4.64 11.23
3/24/2021 12:00:00 PM 10.46 50.828 0.422 8.09 4.75 11.31
3/24/2021 12:15:00 PM 10.5 50.9 0.416 8.1 5.58 11.36
3/24/2021 12:30:00 PM 10.54 50.972 0.401 8.11 20.73 11.34
3/24/2021 12:45:00 PM 10.55 50.99 0.393 8.11 29.1 11.34
3/24/2021 1:00:00 PM 10.55 50.99 0.389 8.1 24.89 11.31
3/24/2021 1:15:00 PM 10.56 51.008 0.379 8.08 42.02 11.24
3/24/2021 1:30:00 PM 10.57 51.026 0.367 8.06 68.93 11.17
3/24/2021 1:45:00 PM 10.56 51.008 0.356 8.02 128.45 11.06
3/24/2021 2:00:00 PM 10.55 50.99 0.343 7.97 156.08 11
3/24/2021 2:15:00 PM 10.56 51.008 0.338 7.94 161.34 10.99
3/24/2021 2:30:00 PM 10.59 51.062 0.338 7.94 199.59 11
3/24/2021 2:45:00 PM 10.62 51.116 0.326 7.93 178.88 10.83
3/24/2021 3:00:00 PM 10.66 51.188 0.303 7.9 182.47 10.56
3/24/2021 3:15:00 PM 10.7 51.26 0.288 7.87 225.33 10.42
3/24/2021 3:30:00 PM 10.71 51.278 0.28 7.82 286.7 10.31
3/24/2021 3:45:00 PM 10.67 51.206 0.28 7.8 206 10.37
3/24/2021 4:00:00 PM 10.65 51.17 0.264 7.8 207.24 10.35
3/24/2021 4:15:00 PM 10.69 51.242 0.239 7.78 229.56 10.29
3/24/2021 4:30:00 PM 10.75 51.35 0.223 7.77 279.58 10.24
3/24/2021 4:45:00 PM 10.75 51.35 0.219 7.75 274.64 10.24
3/24/2021 5:00:00 PM 10.74 51.332 0.215 7.74 227.96 10.22
3/24/2021 5:15:00 PM 10.72 51.296 0.214 7.72 222.18 10.23
3/24/2021 5:30:00 PM 10.7 51.26 0.217 7.71 197.48 10.21
3/24/2021 5:45:00 PM 10.69 51.242 0.221 7.69 184.3 10.18
3/24/2021 6:00:00 PM 10.69 51.242 0.225 7.69 169.81 10.18
3/24/2021 6:15:00 PM 10.67 51.206 0.229 7.67 176.21 10.18
3/24/2021 6:30:00 PM 10.66 51.188 0.234 7.67 141.2 10.16
3/24/2021 6:45:00 PM 10.66 51.188 0.238 7.67 147.86 10.15
3/24/2021 7:00:00 PM 10.64 51.152 0.242 7.66 118.6 10.15
3/24/2021 7:15:00 PM 10.64 51.152 0.246 7.67 108.2 10.17
3/24/2021 7:30:00 PM 10.63 51.134 0.251 7.67 107.33 10.18
3/24/2021 7:45:00 PM 10.63 51.134 0.255 7.66 96.96 10.2
3/24/2021 8:00:00 PM 10.62 51.116 0.26 7.66 88.3 10.2
3/24/2021 8:15:00 PM 10.61 51.098 0.264 7.66 86.81 10.21
3/24/2021 8:30:00 PM 10.59 51.062 0.268 7.66 71.16 10.23
3/24/2021 8:45:00 PM 10.58 51.044 0.273 7.66 66.25 10.23
3/24/2021 9:00:00 PM 10.56 51.008 0.277 7.67 61.13 10.24
3/24/2021 9:15:00 PM 10.55 50.99 0.281 7.67 56.03 10.25
3/24/2021 9:30:00 PM 10.54 50.972 0.285 7.67 52.91 10.26
3/24/2021 9:45:00 PM 10.52 50.936 0.289 7.68 50.44 10.25
3/24/2021 10:00:00 PM 10.51 50.918 0.293 7.68 46.56 10.27
3/24/2021 10:15:00 PM 10.5 50.9 0.298 7.68 44.83 10.26
3/24/2021 10:30:00 PM 10.49 50.882 0.302 7.69 40.54 10.27
3/24/2021 10:45:00 PM 10.48 50.864 0.306 7.69 44.23 10.28
3/24/2021 11:00:00 PM 10.48 50.864 0.31 7.69 37.43 10.29
3/24/2021 11:15:00 PM 10.47 50.846 0.314 7.7 30.05 10.3
3/24/2021 11:30:00 PM 10.46 50.828 0.317 7.71 34.11 10.31
3/24/2021 11:45:00 PM 10.45 50.81 0.321 7.71 33.03 10.32
3/25/2021 12:00:00 AM 10.44 50.792 0.324 7.71 31.82 10.33
3/25/2021 12:15:00 AM 10.43 50.774 0.328 7.72 30.16 10.34
3/25/2021 12:30:00 AM 10.42 50.756 0.331 7.72 27.41 10.35
3/25/2021 12:45:00 AM 10.41 50.738 0.334 7.72 26.6 10.36
3/25/2021 1:00:00 AM 10.4 50.72 0.337 7.73 25.73 10.37
3/25/2021 1:15:00 AM 10.39 50.702 0.34 7.73 23.97 10.38
3/25/2021 1:30:00 AM 10.39 50.702 0.343 7.74 22.32 10.39
3/25/2021 1:45:00 AM 10.38 50.684 0.345 7.74 20.87 10.4
3/25/2021 2:00:00 AM 10.38 50.684 0.347 7.74 24.55 10.4
3/25/2021 2:15:00 AM 10.37 50.666 0.35 7.74 25.24 10.41
3/25/2021 2:30:00 AM 10.36 50.648 0.352 7.74 22.73 10.41
3/25/2021 2:45:00 AM 10.35 50.63 0.354 7.75 20.89 10.41
3/25/2021 3:00:00 AM 10.35 50.63 0.355 7.75 22.16 10.43
3/25/2021 3:15:00 AM 10.34 50.612 0.357 7.75 18.77 10.44
3/25/2021 3:30:00 AM 10.33 50.594 0.359 7.75 20.12 10.45
3/25/2021 3:45:00 AM 10.32 50.576 0.361 7.76 18.79 10.45
3/25/2021 4:00:00 AM 10.32 50.576 0.362 7.76 19.74 10.46
3/25/2021 4:15:00 AM 10.31 50.558 0.363 7.76 18.38 10.47
3/25/2021 4:30:00 AM 10.3 50.54 0.364 7.76 18.51 10.46
3/25/2021 4:45:00 AM 10.3 50.54 0.366 7.77 18.53 10.47
3/25/2021 5:00:00 AM 10.29 50.522 0.367 7.77 17.77 10.48
3/25/2021 5:15:00 AM 10.29 50.522 0.368 7.77 17.08 10.49
3/25/2021 5:30:00 AM 10.28 50.504 0.369 7.77 16.71 10.5
3/25/2021 5:45:00 AM 10.27 50.486 0.37 7.77 16.85 10.51
3/25/2021 6:00:00 AM 10.27 50.486 0.371 7.77 16.64 10.52
3/25/2021 6:15:00 AM 10.27 50.486 0.372 7.77 16.45 10.52
3/25/2021 6:30:00 AM 10.26 50.468 0.372 7.78 16.92 10.53
3/25/2021 6:45:00 AM 10.25 50.45 0.373 7.77 16.24 10.53
3/25/2021 7:00:00 AM 10.25 50.45 0.374 7.78 19.02 10.54
3/25/2021 7:15:00 AM 10.25 50.45 0.374 7.78 16.5 10.55
3/25/2021 7:30:00 AM 10.24 50.432 0.375 7.78 15.57 10.55
3/25/2021 7:45:00 AM 10.24 50.432 0.375 7.78 13.86 10.57
3/25/2021 8:00:00 AM 10.25 50.45 0.376 7.79 14.14 10.59
3/25/2021 8:15:00 AM 10.26 50.468 0.376 7.79 14.24 10.61
3/25/2021 8:30:00 AM 10.28 50.504 0.377 7.79 14.08 10.65
3/25/2021 8:45:00 AM 10.3 50.54 0.377 7.8 13.5 10.69
3/25/2021 9:00:00 AM 10.33 50.594 0.378 7.81 12.47 10.74
3/25/2021 9:15:00 AM 10.37 50.666 0.378 7.82 12.13 10.8
3/25/2021 9:30:00 AM 10.41 50.738 0.378 7.83 12 10.87
3/25/2021 9:45:00 AM 10.47 50.846 0.378 7.84 12.03 10.95
3/25/2021 10:00:00 AM 10.51 50.918 0.379 7.85 11.73 11
3/25/2021 10:15:00 AM 10.55 50.99 0.379 7.86 11.14 11.06
3/25/2021 10:30:00 AM 10.58 51.044 0.379 7.87 10.57 11.11
3/25/2021 10:45:00 AM 10.63 51.134 0.38 7.88 10.83 11.17
3/25/2021 11:00:00 AM 10.71 51.278 0.38 7.9 11.16 11.25
3/25/2021 11:15:00 AM 10.76 51.368 0.38 7.91 11.07 11.29
3/25/2021 11:30:00 AM 10.82 51.476 0.38 7.92 10.76 11.34
3/25/2021 11:45:00 AM 10.9 51.62 0.38 7.94 11.58 11.42
3/25/2021 12:00:00 PM 10.99 51.782 0.38 7.95 10.12 11.49
3/25/2021 12:15:00 PM 11.11 51.998 0.379 7.97 10.17 11.57
3/25/2021 12:30:00 PM 11.21 52.178 0.379 7.99 10.29 11.63
3/25/2021 12:45:00 PM 11.34 52.412 0.379 8 10.28 11.7
3/25/2021 1:00:00 PM 11.46 52.628 0.379 8.02 10.04 11.77
3/25/2021 1:15:00 PM 11.55 52.79 0.379 8.04 9.73 11.81
3/25/2021 1:30:00 PM 11.65 52.97 0.379 8.05 9.65 11.84
3/25/2021 1:45:00 PM 11.73 53.114 0.379 8.07 10.21 11.84
3/25/2021 2:00:00 PM 11.82 53.276 0.379 8.08 10.23 11.87
3/25/2021 2:15:00 PM 11.9 53.42 0.379 8.09 9.82 11.9
3/25/2021 2:30:00 PM 11.97 53.546 0.379 8.1 10.65 11.9
3/25/2021 2:45:00 PM 12.05 53.69 0.379 8.11 9.75 11.91
3/25/2021 3:00:00 PM 12.14 53.852 0.379 8.12 9.83 11.92
3/25/2021 3:15:00 PM 12.25 54.05 0.378 8.13 9.78 11.93
3/25/2021 3:30:00 PM 12.36 54.248 0.378 8.14 10.04 11.96
3/25/2021 3:45:00 PM 12.49 54.482 0.378 8.16 10.27 11.98
3/25/2021 4:00:00 PM 12.62 54.716 0.378 8.17 12.39 12
3/25/2021 4:15:00 PM 12.72 54.896 0.378 8.18 10.78 11.98
3/25/2021 4:30:00 PM 12.81 55.058 0.378 8.19 10.18 11.95
3/25/2021 4:45:00 PM 12.88 55.184 0.378 8.19 9.96 11.91
3/25/2021 5:00:00 PM 12.93 55.274 0.378 8.19 10.71 11.83
3/25/2021 5:15:00 PM 12.97 55.346 0.378 8.19 10.17 11.77
3/25/2021 5:30:00 PM 12.99 55.382 0.378 8.18 9.97 11.67
3/25/2021 5:45:00 PM 13 55.4 0.378 8.17 11.51 11.56
3/25/2021 6:00:00 PM 13.02 55.436 0.378 8.16 10.09 11.43
3/25/2021 6:15:00 PM 13.04 55.472 0.378 8.14 9.84 11.29
3/25/2021 6:30:00 PM 13.06 55.508 0.378 8.13 10.35 11.17
3/25/2021 6:45:00 PM 13.07 55.526 0.378 8.11 10.17 11.06
3/25/2021 7:00:00 PM 13.06 55.508 0.378 8.09 10.29 10.92
3/25/2021 7:15:00 PM 13.04 55.472 0.379 8.08 10.12 10.81
3/25/2021 7:30:00 PM 13 55.4 0.378 8.06 10.97 10.64
3/25/2021 7:45:00 PM 12.94 55.292 0.378 8.04 10.49 10.6
3/25/2021 8:00:00 PM 12.87 55.166 0.379 8.02 10.8 10.51
3/25/2021 8:15:00 PM 12.8 55.04 0.379 8 11.5 10.44
3/25/2021 8:30:00 PM 12.73 54.914 0.379 7.98 11.76 10.38
3/25/2021 8:45:00 PM 12.66 54.788 0.38 7.97 11.35 10.33
3/25/2021 9:00:00 PM 12.59 54.662 0.379 7.95 11.71 10.27
3/25/2021 9:15:00 PM 12.52 54.536 0.38 7.94 12.15 10.23
3/25/2021 9:30:00 PM 12.46 54.428 0.38 7.93 12.88 10.18
3/25/2021 9:45:00 PM 12.4 54.32 0.381 7.91 11.88 10.16
3/25/2021 10:00:00 PM 12.34 54.212 0.381 7.9 12.35 10.13
3/25/2021 10:15:00 PM 12.28 54.104 0.381 7.89 12.05 10.1
3/25/2021 10:30:00 PM 12.22 53.996 0.381 7.88 12.09 10.09
3/25/2021 10:45:00 PM 12.17 53.906 0.381 7.88 12.43 10.07
3/25/2021 11:00:00 PM 12.12 53.816 0.38 7.87 13.06 10.06
3/25/2021 11:15:00 PM 12.08 53.744 0.381 7.87 13.36 10.07
3/25/2021 11:30:00 PM 12.04 53.672 0.381 7.86 12.24 10.07
3/25/2021 11:45:00 PM 12 53.6 0.381 7.86 12.48 10.06
3/26/2021 12:00:00 AM 11.97 53.546 0.381 7.85 12.93 10.07
3/26/2021 12:15:00 AM 11.93 53.474 0.381 7.85 12.37 10.07
3/26/2021 12:30:00 AM 11.9 53.42 0.38 7.85 12.12 10.07
3/26/2021 12:45:00 AM 11.87 53.366 0.381 7.85 12.11 10.07
3/26/2021 1:00:00 AM 11.85 53.33 0.381 7.85 12.57 10.08
3/26/2021 1:15:00 AM 11.83 53.294 0.381 7.85 12.2 10.08
3/26/2021 1:30:00 AM 11.8 53.24 0.381 7.85 12.45 10.08
3/26/2021 1:45:00 AM 11.78 53.204 0.381 7.84 11.89 10.06
3/26/2021 2:00:00 AM 11.76 53.168 0.381 7.84 12.34 10.08
3/26/2021 2:15:00 AM 11.74 53.132 0.381 7.84 12.48 10.08
3/26/2021 2:30:00 AM 11.73 53.114 0.38 7.84 13.08 10.1
3/26/2021 2:45:00 AM 11.72 53.096 0.38 7.85 12.63 10.08
3/26/2021 3:00:00 AM 11.71 53.078 0.38 7.84 12.38 10.09
3/26/2021 3:15:00 AM 11.71 53.078 0.38 7.84 18.37 10.09
3/26/2021 3:30:00 AM 11.7 53.06 0.38 7.85 12.68 10.09
3/26/2021 3:45:00 AM 11.69 53.042 0.38 7.85 12.47 10.08
3/26/2021 4:00:00 AM 11.68 53.024 0.38 7.84 12.32 10.08
3/26/2021 4:15:00 AM 11.67 53.006 0.379 7.84 12.56 10.07
3/26/2021 4:30:00 AM 11.66 52.988 0.379 7.84 12.58 10.08
3/26/2021 4:45:00 AM 11.65 52.97 0.379 7.84 12.54 10.08
3/26/2021 5:00:00 AM 11.64 52.952 0.379 7.84 12.78 10.07
3/26/2021 5:15:00 AM 11.62 52.916 0.379 7.84 13.26 10.05
3/26/2021 5:30:00 AM 11.61 52.898 0.379 7.84 12.7 10.09
3/26/2021 5:45:00 AM 11.58 52.844 0.379 7.84 12.32 10.09
3/26/2021 6:00:00 AM 11.55 52.79 0.379 7.83 12.09 10.09
3/26/2021 6:15:00 AM 11.52 52.736 0.379 7.83 12.3 10.1
3/26/2021 6:30:00 AM 11.5 52.7 0.379 7.83 14.89 10.09
3/26/2021 6:45:00 AM 11.47 52.646 0.379 7.83 12.32 10.08
3/26/2021 7:00:00 AM 11.46 52.628 0.379 7.84 12.71 10.1
3/26/2021 7:15:00 AM 11.47 52.646 0.379 7.84 11.91 10.11
3/26/2021 7:30:00 AM 11.48 52.664 0.379 7.84 12.34 10.11
3/26/2021 7:45:00 AM 11.5 52.7 0.379 7.84 12.53 10.14
3/26/2021 8:00:00 AM 11.52 52.736 0.379 7.84 12.33 10.16
3/26/2021 8:15:00 AM 11.54 52.772 0.379 7.85 15.28 10.19
3/26/2021 8:30:00 AM 11.57 52.826 0.379 7.85 12.28 10.2
3/26/2021 8:45:00 AM 11.6 52.88 0.378 7.85 10.85 10.22
3/26/2021 9:00:00 AM 11.67 53.006 0.378 7.87 11.64 10.33
3/26/2021 9:15:00 AM 11.74 53.132 0.378 7.88 11.08 10.41
3/26/2021 9:30:00 AM 11.81 53.258 0.378 7.89 11.68 10.5
3/26/2021 9:45:00 AM 11.91 53.438 0.378 7.9 10.29 10.62
3/26/2021 10:00:00 AM 12.03 53.654 0.378 7.92 10.01 10.72
3/26/2021 10:15:00 AM 12.15 53.87 0.378 7.93 9.74 10.8
3/26/2021 10:30:00 AM 12.32 54.176 0.377 7.95 9.91 10.9
3/26/2021 10:45:00 AM 12.51 54.518 0.377 7.97 9.92 10.99
3/26/2021 11:00:00 AM 12.71 54.878 0.377 7.99 10.12 11.08
3/26/2021 11:15:00 AM 12.94 55.292 0.377 8.01 10.2 11.14
3/26/2021 11:30:00 AM 13.2 55.76 0.376 8.03 9.71 11.18
3/26/2021 11:45:00 AM 13.45 56.21 0.376 8.05 9.57 11.21
3/26/2021 12:00:00 PM 13.72 56.696 0.375 8.07 9.88 11.31
3/26/2021 12:15:00 PM 14 57.2 0.375 8.1 10.09 11.36
3/26/2021 12:30:00 PM 14.28 57.704 0.374 8.12 9.89 11.31
3/26/2021 12:45:00 PM 14.64 58.352 0.374 8.15 9.69 11.4
3/26/2021 1:00:00 PM 14.96 58.928 0.373 8.17 9.82 11.43
3/26/2021 1:15:00 PM 15.25 59.45 0.373 8.19 13.06 11.37
3/26/2021 1:30:00 PM 15.55 59.99 0.373 8.21 9.98 11.4
3/26/2021 1:45:00 PM 15.89 60.602 0.373 8.24 10.28 11.53
3/26/2021 2:00:00 PM 16.2 61.16 0.373 8.26 9.9 11.41
3/26/2021 2:15:00 PM 16.47 61.646 0.373 8.29 10 11.42
3/26/2021 2:30:00 PM 16.71 62.078 0.373 8.3 10.87 11.29
3/26/2021 2:45:00 PM 16.91 62.438 0.373 8.33 11.32 11.5
3/26/2021 3:00:00 PM 17.03 62.654 0.372 8.34 11.71 11.42
3/26/2021 3:15:00 PM 17.1 62.78 0.372 8.35 11.9 11.41
3/26/2021 3:30:00 PM 17.16 62.888 0.372 8.36 11.84 11.37
3/26/2021 3:45:00 PM 17.19 62.942 0.372 8.36 11.61 11.22
3/26/2021 4:00:00 PM 17.19 62.942 0.372 8.36 12.14 11.17
3/26/2021 4:15:00 PM 17.19 62.942 0.372 8.37 11.01 11.06
3/26/2021 4:30:00 PM 17.1 62.78 0.372 8.37 32.65 11.03
3/26/2021 4:45:00 PM 17.02 62.636 0.372 8.36 14.11 10.98
3/26/2021 5:00:00 PM 16.89 62.402 0.372 8.34 11.42 10.85
3/26/2021 5:15:00 PM 16.74 62.132 0.373 8.33 11.44 10.76
3/26/2021 5:30:00 PM 16.58 61.844 0.373 8.31 12.23 10.71
3/26/2021 5:45:00 PM 16.42 61.556 0.373 8.29 12.26 10.53
3/26/2021 6:00:00 PM 16.24 61.232 0.374 8.26 11.27 10.42
3/26/2021 6:15:00 PM 16.05 60.89 0.374 8.24 10.27 10.2
3/26/2021 6:30:00 PM 15.87 60.566 0.374 8.21 10.31 10.1
3/26/2021 6:45:00 PM 15.69 60.242 0.375 8.18 10.38 9.86
3/26/2021 7:00:00 PM 15.52 59.936 0.375 8.15 10.06 9.83
3/26/2021 7:15:00 PM 15.37 59.666 0.376 8.13 9.62 9.8
3/26/2021 7:30:00 PM 15.21 59.378 0.376 8.11 11.46 9.58
3/26/2021 7:45:00 PM 15.03 59.054 0.377 8.08 10.59 9.83
3/26/2021 8:00:00 PM 14.81 58.658 0.377 8.07 11.97 9.8
3/26/2021 8:15:00 PM 14.61 58.298 0.378 8.04 11.37 9.79
3/26/2021 8:30:00 PM 14.39 57.902 0.379 8.02 13.92 9.81
3/26/2021 8:45:00 PM 14.18 57.524 0.379 8.01 11.35 9.65
3/26/2021 9:00:00 PM 13.94 57.092 0.38 7.99 11.83 9.82
3/26/2021 9:15:00 PM 13.71 56.678 0.381 7.98 10.88 9.83
3/26/2021 9:30:00 PM 13.49 56.282 0.382 7.96 11.01 9.86
3/26/2021 9:45:00 PM 13.29 55.922 0.382 7.95 11 9.87
3/26/2021 10:00:00 PM 13.08 55.544 0.383 7.94 11.41 9.88
3/26/2021 10:15:00 PM 12.89 55.202 0.384 7.93 10.99 9.9
3/26/2021 10:30:00 PM 12.71 54.878 0.384 7.93 10.93 9.93
3/26/2021 10:45:00 PM 12.54 54.572 0.385 7.92 10.61 9.93
3/26/2021 11:00:00 PM 12.38 54.284 0.383 7.91 10.7 9.95
3/26/2021 11:15:00 PM 12.23 54.014 0.386 7.9 11.32 9.97
3/26/2021 11:30:00 PM 12.09 53.762 0.386 7.89 10.89 10
3/26/2021 11:45:00 PM 11.95 53.51 0.386 7.89 10.29 10.04
3/27/2021 12:00:00 AM 11.81 53.258 0.386 7.89 10.34 10
3/27/2021 12:15:00 AM 11.69 53.042 0.386 7.88 10.95 10.04
3/27/2021 12:30:00 AM 11.57 52.826 0.386 7.88 10.5 10.12
3/27/2021 12:45:00 AM 11.45 52.61 0.387 7.88 10.99 10.16
3/27/2021 1:00:00 AM 11.35 52.43 0.387 7.88 10.16 10.18
3/27/2021 1:15:00 AM 11.25 52.25 0.388 7.88 10.77 10.22
3/27/2021 1:30:00 AM 11.14 52.052 0.389 7.88 10.58 10.24
3/27/2021 1:45:00 AM 11.04 51.872 0.389 7.88 11.24 10.28
3/27/2021 2:00:00 AM 10.95 51.71 0.389 7.88 9.88 10.3
3/27/2021 2:15:00 AM 10.85 51.53 0.389 7.88 10.09 10.32
3/27/2021 2:30:00 AM 10.76 51.368 0.389 7.87 11 10.35
3/27/2021 2:45:00 AM 10.67 51.206 0.388 7.87 9.28 10.39
3/27/2021 3:00:00 AM 10.59 51.062 0.388 7.87 9.38 10.41
3/27/2021 3:15:00 AM 10.5 50.9 0.388 7.87 9.96 10.44
3/27/2021 3:30:00 AM 10.42 50.756 0.388 7.87 9.27 10.45
3/27/2021 3:45:00 AM 10.34 50.612 0.388 7.87 9.87 10.47
3/27/2021 4:00:00 AM 10.26 50.468 0.388 7.87 9.23 10.49
3/27/2021 4:15:00 AM 10.18 50.324 0.388 7.87 9.8 10.52
3/27/2021 4:30:00 AM 10.1 50.18 0.388 7.87 9.71 10.55
3/27/2021 4:45:00 AM 10.02 50.036 0.388 7.87 10.28 10.57
3/27/2021 5:00:00 AM 9.95 49.91 0.389 7.87 9.76 10.6
3/27/2021 5:15:00 AM 9.87 49.766 0.388 7.87 9.55 10.6
3/27/2021 5:30:00 AM 9.8 49.64 0.389 7.87 9.97 10.63
3/27/2021 5:45:00 AM 9.73 49.514 0.389 7.87 10.14 10.65
3/27/2021 6:00:00 AM 9.66 49.388 0.389 7.87 9.59 10.68
3/27/2021 6:15:00 AM 9.59 49.262 0.389 7.87 9.93 10.69
3/27/2021 6:30:00 AM 9.52 49.136 0.389 7.87 10.38 10.72
3/27/2021 6:45:00 AM 9.45 49.01 0.389 7.87 9.86 10.75
3/27/2021 7:00:00 AM 9.39 48.902 0.389 7.87 11.93 10.78
3/27/2021 7:15:00 AM 9.33 48.794 0.389 7.87 10.22 10.8
3/27/2021 7:30:00 AM 9.28 48.704 0.389 7.87 9.2 10.84
3/27/2021 7:45:00 AM 9.23 48.614 0.389 7.87 8.58 10.88
3/27/2021 8:00:00 AM 9.19 48.542 0.389 7.88 8.85 10.92
3/27/2021 8:15:00 AM 9.16 48.488 0.389 7.88 8.87 10.98
3/27/2021 8:30:00 AM 9.14 48.452 0.389 7.88 8.26 11.02
3/27/2021 8:45:00 AM 9.13 48.434 0.389 7.89 8.32 11.08
3/27/2021 9:00:00 AM 9.15 48.47 0.389 7.9 8.67 11.16
3/27/2021 9:15:00 AM 9.2 48.56 0.389 7.91 8.36 11.25
3/27/2021 9:30:00 AM 9.28 48.704 0.39 7.91 8.63 11.34
3/27/2021 9:45:00 AM 9.38 48.884 0.389 7.93 7.89 11.43
3/27/2021 10:00:00 AM 9.48 49.064 0.389 7.94 7.73 11.53
3/27/2021 10:15:00 AM 9.62 49.316 0.389 7.96 8.21 11.64
3/27/2021 10:30:00 AM 9.78 49.604 0.389 7.98 8.5 11.74
3/27/2021 10:45:00 AM 9.95 49.91 0.388 8 8.23 11.87
3/27/2021 11:00:00 AM 10.16 50.288 0.388 8.02 7.73 11.97
3/27/2021 11:15:00 AM 10.41 50.738 0.388 8.04 7.99 12.08
3/27/2021 11:30:00 AM 10.68 51.224 0.388 8.07 8.05 12.18
3/27/2021 11:45:00 AM 10.99 51.782 0.388 8.1 7.6 12.24
3/27/2021 12:00:00 PM 11.31 52.358 0.387 8.12 7.64 12.31
3/27/2021 12:15:00 PM 11.66 52.988 0.387 8.15 7.4 12.33
3/27/2021 12:30:00 PM 12.04 53.672 0.386 8.18 7.5 12.37
3/27/2021 12:45:00 PM 12.42 54.356 0.386 8.21 7.37 12.39
3/27/2021 1:00:00 PM 12.79 55.022 0.386 8.24 7.82 12.4
3/27/2021 1:15:00 PM 13.14 55.652 0.385 8.26 7.29 12.4
3/27/2021 1:30:00 PM 13.48 56.264 0.385 8.29 9.45 12.38
3/27/2021 1:45:00 PM 13.8 56.84 0.384 8.31 7.85 12.36
3/27/2021 2:00:00 PM 14.04 57.272 0.384 8.34 10.97 12.32
3/27/2021 2:15:00 PM 14.25 57.65 0.384 8.36 8.35 12.29
3/27/2021 2:30:00 PM 14.44 57.992 0.383 8.38 8.31 12.25
3/27/2021 2:45:00 PM 14.62 58.316 0.383 8.4 8.12 12.23
3/27/2021 3:00:00 PM 14.78 58.604 0.383 8.41 7.89 12.19
3/27/2021 3:15:00 PM 14.96 58.928 0.382 8.43 7.83 12.14
3/27/2021 3:30:00 PM 15.1 59.18 0.381 8.44 7.99 12.09
3/27/2021 3:45:00 PM 15.19 59.342 0.381 8.45 7.92 12.04
3/27/2021 4:00:00 PM 15.26 59.468 0.381 8.46 7.9 11.97
3/27/2021 4:15:00 PM 15.3 59.54 0.381 8.46 8.02 11.89
3/27/2021 4:30:00 PM 15.32 59.576 0.381 8.46 8.08 11.79
3/27/2021 4:45:00 PM 15.32 59.576 0.381 8.46 7.96 11.68
3/27/2021 5:00:00 PM 15.31 59.558 0.382 8.45 8.11 11.58
3/27/2021 5:15:00 PM 15.28 59.504 0.382 8.43 8.31 11.48
3/27/2021 5:30:00 PM 15.24 59.432 0.382 8.42 8.29 11.36
3/27/2021 5:45:00 PM 15.18 59.324 0.382 8.4 8.15 11.25
3/27/2021 6:00:00 PM 15.12 59.216 0.382 8.38 8.06 11.14
3/27/2021 6:15:00 PM 15.04 59.072 0.383 8.35 8.13 10.99
3/27/2021 6:30:00 PM 14.95 58.91 0.383 8.33 8.48 10.89
3/27/2021 6:45:00 PM 14.85 58.73 0.383 8.3 8.56 10.78
3/27/2021 7:00:00 PM 14.74 58.532 0.384 8.27 8.48 10.67
3/27/2021 7:15:00 PM 14.6 58.28 0.384 8.24 8.22 10.55
3/27/2021 7:30:00 PM 14.46 58.028 0.385 8.21 8.54 10.44
3/27/2021 7:45:00 PM 14.3 57.74 0.386 8.18 8.44 10.36
3/27/2021 8:00:00 PM 14.14 57.452 0.386 8.15 8.79 10.28
3/27/2021 8:15:00 PM 13.98 57.164 0.387 8.12 8.79 10.22
3/27/2021 8:30:00 PM 13.82 56.876 0.388 8.09 8.48 10.16
3/27/2021 8:45:00 PM 13.66 56.588 0.389 8.07 8.39 10.11
3/27/2021 9:00:00 PM 13.51 56.318 0.39 8.05 8.76 10.08
3/27/2021 9:15:00 PM 13.35 56.03 0.39 8.03 8.55 10.05
3/27/2021 9:30:00 PM 13.21 55.778 0.391 8.02 8.6 10.02
3/27/2021 9:45:00 PM 13.06 55.508 0.392 8 8.86 10.01
3/27/2021 10:00:00 PM 12.93 55.274 0.393 7.98 8.65 10
3/27/2021 10:15:00 PM 12.79 55.022 0.393 7.97 8.56 10
3/27/2021 10:30:00 PM 12.66 54.788 0.394 7.96 8.79 9.99
3/27/2021 10:45:00 PM 12.53 54.554 0.394 7.95 8.88 9.98
3/27/2021 11:00:00 PM 12.41 54.338 0.394 7.94 8.81 9.97
3/27/2021 11:15:00 PM 12.3 54.14 0.394 7.93 8.57 9.97
3/27/2021 11:30:00 PM 12.18 53.924 0.394 7.93 8.9 9.99
3/27/2021 11:45:00 PM 12.07 53.726 0.395 7.92 8.74 10.02
3/28/2021 12:00:00 AM 11.97 53.546 0.395 7.92 8.69 10.04
3/28/2021 12:15:00 AM 11.86 53.348 0.395 7.92 8.94 10.05
3/28/2021 12:30:00 AM 11.76 53.168 0.395 7.91 9.97 10.06
3/28/2021 12:45:00 AM 11.67 53.006 0.395 7.91 8.85 10.08
3/28/2021 1:00:00 AM 11.58 52.844 0.395 7.91 8.97 10.11
3/28/2021 1:15:00 AM 11.5 52.7 0.396 7.9 9.2 10.13
3/28/2021 1:30:00 AM 11.42 52.556 0.396 7.91 8.78 10.16
3/28/2021 1:45:00 AM 11.34 52.412 0.396 7.9 8.8 10.18
3/28/2021 2:00:00 AM 11.27 52.286 0.396 7.9 8.8 10.19
3/28/2021 2:15:00 AM 11.21 52.178 0.396 7.9 8.53 10.21
3/28/2021 2:30:00 AM 11.14 52.052 0.396 7.9 8.7 10.21
3/28/2021 2:45:00 AM 11.09 51.962 0.396 7.9 8.72 10.22
3/28/2021 3:00:00 AM 11.05 51.89 0.396 7.9 13.14 10.23
3/28/2021 3:15:00 AM 11 51.8 0.396 7.9 8.82 10.27
3/28/2021 3:30:00 AM 10.97 51.746 0.396 7.9 8.8 10.28
3/28/2021 3:45:00 AM 10.94 51.692 0.396 7.9 8.88 10.3
3/28/2021 4:00:00 AM 10.92 51.656 0.396 7.9 8.94 10.29
3/28/2021 4:15:00 AM 10.9 51.62 0.396 7.9 8.47 10.3
3/28/2021 4:30:00 AM 10.88 51.584 0.396 7.9 8.67 10.31
3/28/2021 4:45:00 AM 10.87 51.566 0.396 7.9 8.94 10.32
3/28/2021 5:00:00 AM 10.85 51.53 0.396 7.9 8.75 10.33
3/28/2021 5:15:00 AM 10.84 51.512 0.396 7.9 8.87 10.33
3/28/2021 5:30:00 AM 10.82 51.476 0.396 7.9 8.9 10.34
3/28/2021 5:45:00 AM 10.8 51.44 0.396 7.9 11.62 10.34
3/28/2021 6:00:00 AM 10.78 51.404 0.396 7.9 8.75 10.35
3/28/2021 6:15:00 AM 10.77 51.386 0.396 7.9 8.97 10.35
3/28/2021 6:30:00 AM 10.76 51.368 0.396 7.9 9.63 10.35
3/28/2021 6:45:00 AM 10.75 51.35 0.396 7.9 9.5 10.36
3/28/2021 7:00:00 AM 10.74 51.332 0.396 7.9 9.12 10.35
3/28/2021 7:15:00 AM 10.73 51.314 0.396 7.9 8.84 10.35
3/28/2021 7:30:00 AM 10.73 51.314 0.396 7.9 9.59 10.37
3/28/2021 7:45:00 AM 10.74 51.332 0.395 7.91 8.64 10.37
3/28/2021 8:00:00 AM 10.74 51.332 0.393 7.9 8.7 10.38
3/28/2021 8:15:00 AM 10.74 51.332 0.389 7.9 9.7 10.38
3/28/2021 8:30:00 AM 10.74 51.332 0.387 7.9 10.6 10.38
3/28/2021 8:45:00 AM 10.74 51.332 0.385 7.9 11.26 10.38
3/28/2021 9:00:00 AM 10.74 51.332 0.383 7.9 15.24 10.38
3/28/2021 9:15:00 AM 10.75 51.35 0.381 7.89 11.17 10.43
3/28/2021 9:30:00 AM 10.75 51.35 0.38 7.89 11.31 10.43
3/28/2021 9:45:00 AM 10.76 51.368 0.38 7.88 11.75 10.45
3/28/2021 10:00:00 AM 10.77 51.386 0.38 7.89 13.01 10.46
3/28/2021 10:15:00 AM 10.79 51.422 0.379 7.89 12.83 10.49
3/28/2021 10:30:00 AM 10.8 51.44 0.378 7.89 12.51 10.52
3/28/2021 10:45:00 AM 10.82 51.476 0.376 7.89 12.92 10.53
3/28/2021 11:00:00 AM 10.83 51.494 0.374 7.89 12.82 10.51
3/28/2021 11:15:00 AM 10.85 51.53 0.371 7.89 13.53 10.5
3/28/2021 11:30:00 AM 10.87 51.566 0.369 7.9 13.98 10.45
3/28/2021 11:45:00 AM 10.89 51.602 0.366 7.89 16.69 10.43
3/28/2021 12:00:00 PM 10.92 51.656 0.363 7.89 17.38 10.39
3/28/2021 12:15:00 PM 10.95 51.71 0.362 7.87 23.93 10.26
3/28/2021 12:30:00 PM 10.99 51.782 0.364 7.87 19.08 10.37
3/28/2021 12:45:00 PM 11.02 51.836 0.367 7.87 21.7 10.35
3/28/2021 1:00:00 PM 11.05 51.89 0.369 7.87 21.61 10.36
3/28/2021 1:15:00 PM 11.09 51.962 0.369 7.87 19.57 10.33
3/28/2021 1:30:00 PM 11.13 52.034 0.366 7.88 21.81 10.38
3/28/2021 1:45:00 PM 11.17 52.106 0.363 7.87 21.88 10.33
3/28/2021 2:00:00 PM 11.23 52.214 0.359 7.87 23.57 10.36
3/28/2021 2:15:00 PM 11.3 52.34 0.355 7.87 23.69 10.44
3/28/2021 2:30:00 PM 11.37 52.466 0.351 7.87 24.54 10.44
3/28/2021 2:45:00 PM 11.43 52.574 0.348 7.86 23.9 10.41
3/28/2021 3:00:00 PM 11.5 52.7 0.345 7.86 22.56 10.41
3/28/2021 3:15:00 PM 11.56 52.808 0.342 7.86 22.96 10.48
3/28/2021 3:30:00 PM 11.62 52.916 0.339 7.85 22.84 10.5
3/28/2021 3:45:00 PM 11.7 53.06 0.335 7.85 19.72 10.52
3/28/2021 4:00:00 PM 11.78 53.204 0.331 7.85 19.14 10.29
3/28/2021 4:15:00 PM 11.87 53.366 0.328 7.86 21.37 10.58
3/28/2021 4:30:00 PM 11.98 53.564 0.326 7.86 19.09 10.6
3/28/2021 4:45:00 PM 12.07 53.726 0.324 7.87 19.27 10.6
3/28/2021 5:00:00 PM 12.13 53.834 0.322 7.87 18.72 10.61
3/28/2021 5:15:00 PM 12.19 53.942 0.319 7.87 18.31 10.65
3/28/2021 5:30:00 PM 12.25 54.05 0.317 7.87 18.8 10.58
3/28/2021 5:45:00 PM 12.29 54.122 0.314 7.87 19.43 10.48
3/28/2021 6:00:00 PM 12.31 54.158 0.313 7.86 20.5 10.48
3/28/2021 6:15:00 PM 12.34 54.212 0.313 7.86 22.03 10.42
3/28/2021 6:30:00 PM 12.37 54.266 0.312 7.86 23.94 10.24
3/28/2021 6:45:00 PM 12.4 54.32 0.313 7.86 23.12 10.33
3/28/2021 7:00:00 PM 12.43 54.374 0.314 7.86 23.48 10.3
3/28/2021 7:15:00 PM 12.45 54.41 0.315 7.85 31.47 10.25
3/28/2021 7:30:00 PM 12.44 54.392 0.317 7.85 30.28 10.29
3/28/2021 7:45:00 PM 12.41 54.338 0.321 7.84 36.07 10.29
3/28/2021 8:00:00 PM 12.37 54.266 0.324 7.85 28.28 10.17
3/28/2021 8:15:00 PM 12.3 54.14 0.324 7.84 36.87 10
3/28/2021 8:30:00 PM 12.2 53.96 0.321 7.82 38.17 9.85
3/28/2021 8:45:00 PM 12.12 53.816 0.316 7.81 45.97 9.77
3/28/2021 9:00:00 PM 12.04 53.672 0.315 7.79 47.23 9.65
3/28/2021 9:15:00 PM 11.96 53.528 0.317 7.78 47.72 9.64
3/28/2021 9:30:00 PM 11.84 53.312 0.321 7.77 49.97 9.65
3/28/2021 9:45:00 PM 11.72 53.096 0.327 7.76 45.59 9.65
3/28/2021 10:00:00 PM 11.59 52.862 0.331 7.75 40.55 9.69
3/28/2021 10:15:00 PM 11.48 52.664 0.331 7.75 39.09 9.72
3/28/2021 10:30:00 PM 11.37 52.466 0.329 7.74 49.15 9.75
3/28/2021 10:45:00 PM 11.24 52.232 0.325 7.75 40.05 9.85
3/28/2021 11:00:00 PM 11.12 52.016 0.32 7.74 49 9.88
3/28/2021 11:15:00 PM 10.99 51.782 0.312 7.73 41.81 9.88
3/28/2021 11:30:00 PM 10.86 51.548 0.304 7.72 39.6 9.94
3/28/2021 11:45:00 PM 10.73 51.314 0.3 7.71 39.26 9.99
3/29/2021 12:00:00 AM 10.59 51.062 0.298 7.71 38.94 10.03
3/29/2021 12:15:00 AM 10.47 50.846 0.298 7.71 38.58 10
3/29/2021 12:30:00 AM 10.36 50.648 0.3 7.72 36.75 10.03
3/29/2021 12:45:00 AM 10.24 50.432 0.302 7.72 34.95 10.09
3/29/2021 1:00:00 AM 10.12 50.216 0.304 7.72 34.41 10.14
3/29/2021 1:15:00 AM 10 50 0.306 7.71 33.54 10.18
3/29/2021 1:30:00 AM 9.88 49.784 0.31 7.72 33.86 10.22
3/29/2021 1:45:00 AM 9.76 49.568 0.313 7.72 29.95 10.26
3/29/2021 2:00:00 AM 9.65 49.37 0.316 7.72 28.83 10.31
3/29/2021 2:15:00 AM 9.53 49.154 0.319 7.73 28.12 10.36
3/29/2021 2:30:00 AM 9.43 48.974 0.322 7.73 26.82 10.43
3/29/2021 2:45:00 AM 9.35 48.83 0.326 7.73 25.28 10.46
3/29/2021 3:00:00 AM 9.26 48.668 0.329 7.74 24.75 10.48
3/29/2021 3:15:00 AM 9.17 48.506 0.332 7.74 24.13 10.54
3/29/2021 3:30:00 AM 9.08 48.344 0.335 7.75 22.69 10.58
3/29/2021 3:45:00 AM 9 48.2 0.338 7.75 22.72 10.62
3/29/2021 4:00:00 AM 8.94 48.092 0.341 7.76 21.81 10.67
3/29/2021 4:15:00 AM 8.87 47.966 0.343 7.76 21.29 10.71
3/29/2021 4:30:00 AM 8.8 47.84 0.346 7.77 20.4 10.75
3/29/2021 4:45:00 AM 8.72 47.696 0.348 7.77 19.28 10.79
3/29/2021 5:00:00 AM 8.65 47.57 0.35 7.78 19.4 10.82
3/29/2021 5:15:00 AM 8.57 47.426 0.352 7.78 19.59 10.84
3/29/2021 5:30:00 AM 8.5 47.3 0.354 7.79 19.49 10.88
3/29/2021 5:45:00 AM 8.43 47.174 0.356 7.8 18.41 10.9
3/29/2021 6:00:00 AM 8.37 47.066 0.358 7.8 18.05 10.93
3/29/2021 6:15:00 AM 8.3 46.94 0.36 7.8 17.2 10.96
3/29/2021 6:30:00 AM 8.23 46.814 0.361 7.8 16.43 10.99
3/29/2021 6:45:00 AM 8.19 46.742 0.363 7.81 17.2 11.02
3/29/2021 7:00:00 AM 8.15 46.67 0.364 7.81 15.98 11.04
3/29/2021 7:15:00 AM 8.13 46.634 0.365 7.82 15.85 11.06
3/29/2021 7:30:00 AM 8.09 46.562 0.366 7.82 15.67 11.1
3/29/2021 7:45:00 AM 8.05 46.49 0.367 7.82 15.53 11.13
3/29/2021 8:00:00 AM 8 46.4 0.368 7.83 15.13 11.19
3/29/2021 8:15:00 AM 7.97 46.346 0.369 7.84 14.53 11.27
3/29/2021 8:30:00 AM 7.95 46.31 0.37 7.84 14.37 11.34
3/29/2021 8:45:00 AM 7.94 46.292 0.37 7.85 13.75 11.42
3/29/2021 9:00:00 AM 7.94 46.292 0.371 7.86 13.91 11.51
3/29/2021 9:15:00 AM 7.96 46.328 0.372 7.87 13.6 11.61
3/29/2021 9:30:00 AM 7.99 46.382 0.372 7.89 13.03 11.71
3/29/2021 9:45:00 AM 8.04 46.472 0.373 7.9 12.81 11.81
3/29/2021 10:00:00 AM 8.11 46.598 0.373 7.91 13.1 11.9
3/29/2021 10:15:00 AM 8.16 46.688 0.373 7.92 12.29 11.98
3/29/2021 10:30:00 AM 8.29 46.922 0.374 7.94 12.62 12.08
3/29/2021 10:45:00 AM 8.41 47.138 0.374 7.96 12.22 12.16
3/29/2021 11:00:00 AM 8.55 47.39 0.374 7.97 12.08 12.26
3/29/2021 11:15:00 AM 8.67 47.606 0.374 7.99 12.24 12.35
3/29/2021 11:30:00 AM 8.84 47.912 0.375 8.01 12.33 12.42
3/29/2021 11:45:00 AM 9.03 48.254 0.375 8.03 11.65 12.51
3/29/2021 12:00:00 PM 9.27 48.686 0.375 8.05 11.98 12.59
3/29/2021 12:15:00 PM 9.52 49.136 0.375 8.07 12.21 12.64
3/29/2021 12:30:00 PM 9.81 49.658 0.375 8.1 12.3 12.69
3/29/2021 12:45:00 PM 10.08 50.144 0.375 8.12 11.54 12.74
3/29/2021 1:00:00 PM 10.36 50.648 0.375 8.14 12.21 12.72
3/29/2021 1:15:00 PM 10.71 51.278 0.375 8.16 11.62 12.74
3/29/2021 1:30:00 PM 11.05 51.89 0.374 8.19 11.92 12.74
3/29/2021 1:45:00 PM 11.38 52.484 0.375 8.21 12.5 12.75
3/29/2021 2:00:00 PM 11.65 52.97 0.375 8.23 12.14 12.7
3/29/2021 2:15:00 PM 11.9 53.42 0.375 8.25 12.01 12.65
3/29/2021 2:30:00 PM 12.11 53.798 0.375 8.26 12.76 12.61
3/29/2021 2:45:00 PM 12.32 54.176 0.375 8.28 12.83 12.58
3/29/2021 3:00:00 PM 12.54 54.572 0.375 8.3 13.2 12.51
3/29/2021 3:15:00 PM 12.72 54.896 0.375 8.32 12.3 12.47
3/29/2021 3:30:00 PM 12.88 55.184 0.375 8.33 13.78 12.45
3/29/2021 3:45:00 PM 13.02 55.436 0.375 8.35 13.37 12.38
3/29/2021 4:00:00 PM 13.11 55.598 0.373 8.35 16.23 12.3
3/29/2021 4:15:00 PM 13.16 55.688 0.375 8.37 11.75 12.24
3/29/2021 4:30:00 PM 13.2 55.76 0.375 8.37 12.94 12.14
3/29/2021 4:45:00 PM 13.18 55.724 0.375 8.37 13.1 12.1
3/29/2021 5:00:00 PM 13.13 55.634 0.375 8.37 13.55 11.89
3/29/2021 5:15:00 PM 13.09 55.562 0.375 8.37 13.23 11.95
3/29/2021 5:30:00 PM 13.02 55.436 0.376 8.36 13.34 11.87
3/29/2021 5:45:00 PM 12.91 55.238 0.376 8.34 13.06 11.75
3/29/2021 6:00:00 PM 12.81 55.058 0.376 8.32 13.81 11.63
3/29/2021 6:15:00 PM 12.7 54.86 0.377 8.3 12.5 11.49
3/29/2021 6:30:00 PM 12.6 54.68 0.377 8.27 11.86 11.39
3/29/2021 6:45:00 PM 12.51 54.518 0.378 8.25 11.82 10.68
3/29/2021 7:00:00 PM 12.4 54.32 0.378 8.23 11.76 11.04
3/29/2021 7:15:00 PM 12.3 54.14 0.378 8.2 12.29 11.01
3/29/2021 7:30:00 PM 12.19 53.942 0.377 8.18 12.03 10.87
3/29/2021 7:45:00 PM 12.06 53.708 0.379 8.16 11.46 10.7
3/29/2021 8:00:00 PM 11.9 53.42 0.38 8.13 12.01 10.95
3/29/2021 8:15:00 PM 11.75 53.15 0.38 8.11 11.92 10.87
3/29/2021 8:30:00 PM 11.58 52.844 0.381 8.09 11.65 10.86
3/29/2021 8:45:00 PM 11.4 52.52 0.381 8.07 12.48 10.78
3/29/2021 9:00:00 PM 11.22 52.196 0.382 8.06 11.5 10.85
3/29/2021 9:15:00 PM 11.05 51.89 0.382 8.03 11.78 10.83
3/29/2021 9:30:00 PM 10.87 51.566 0.383 8.01 11.97 10.8
3/29/2021 9:45:00 PM 10.69 51.242 0.384 8 12.13 10.79
3/29/2021 10:00:00 PM 10.51 50.918 0.384 7.98 11.82 10.78
3/29/2021 10:15:00 PM 10.33 50.594 0.385 7.96 12.22 10.75
3/29/2021 10:30:00 PM 10.16 50.288 0.386 7.95 12.55 10.75
3/29/2021 10:45:00 PM 10.01 50.018 0.386 7.93 12.27 10.74
3/29/2021 11:00:00 PM 9.87 49.766 0.387 7.92 13.6 10.74
3/29/2021 11:15:00 PM 9.73 49.514 0.387 7.91 12.57 10.74
3/29/2021 11:30:00 PM 9.6 49.28 0.387 7.9 12.75 10.73
3/29/2021 11:45:00 PM 9.47 49.046 0.387 7.9 11.87 10.76
3/30/2021 12:00:00 AM 9.35 48.83 0.387 7.89 12.7 10.8
3/30/2021 12:15:00 AM 9.24 48.632 0.388 7.89 12.47 10.83
3/30/2021 12:30:00 AM 9.12 48.416 0.388 7.89 12.58 10.86
3/30/2021 12:45:00 AM 9.02 48.236 0.388 7.88 14.34 10.87
3/30/2021 1:00:00 AM 8.91 48.038 0.388 7.88 12.55 10.86
3/30/2021 1:15:00 AM 8.81 47.858 0.388 7.88 12.93 10.91
3/30/2021 1:30:00 AM 8.71 47.678 0.388 7.88 14.07 10.99
3/30/2021 1:45:00 AM 8.62 47.516 0.388 7.88 14.44 11.02
3/30/2021 2:00:00 AM 8.53 47.354 0.388 7.88 13.3 10.97
3/30/2021 2:15:00 AM 8.45 47.21 0.388 7.88 12.71 11.07
3/30/2021 2:30:00 AM 8.37 47.066 0.388 7.88 11.23 11.1
3/30/2021 2:45:00 AM 8.29 46.922 0.389 7.88 11.41 11.12
3/30/2021 3:00:00 AM 8.22 46.796 0.389 7.88 11.67 11.15
3/30/2021 3:15:00 AM 8.15 46.67 0.389 7.88 11.57 11.17
3/30/2021 3:30:00 AM 8.08 46.544 0.389 7.88 11.16 11.2
3/30/2021 3:45:00 AM 8.01 46.418 0.389 7.87 12.17 11.22
3/30/2021 4:00:00 AM 7.94 46.292 0.389 7.88 11.4 11.24
3/30/2021 4:15:00 AM 7.88 46.184 0.389 7.88 12.09 11.26
3/30/2021 4:30:00 AM 7.82 46.076 0.389 7.88 11.64 11.27
3/30/2021 4:45:00 AM 7.76 45.968 0.389 7.88 11.66 11.3
3/30/2021 5:00:00 AM 7.7 45.86 0.388 7.88 11.43 11.32
3/30/2021 5:15:00 AM 7.64 45.752 0.388 7.88 11.52 11.34
3/30/2021 5:30:00 AM 7.59 45.662 0.388 7.88 11.82 11.37
3/30/2021 5:45:00 AM 7.54 45.572 0.388 7.88 11.49 11.38
3/30/2021 6:00:00 AM 7.49 45.482 0.388 7.88 11.42 11.39
3/30/2021 6:15:00 AM 7.45 45.41 0.389 7.88 11.37 11.4
3/30/2021 6:30:00 AM 7.4 45.32 0.389 7.88 11.9 11.42
3/30/2021 6:45:00 AM 7.36 45.248 0.389 7.88 11.44 11.44
3/30/2021 7:00:00 AM 7.32 45.176 0.389 7.88 11.53 11.45
3/30/2021 7:15:00 AM 7.29 45.122 0.389 7.88 11.7 11.48
3/30/2021 7:30:00 AM 7.26 45.068 0.389 7.88 11.27 11.52
3/30/2021 7:45:00 AM 7.23 45.014 0.389 7.88 11.23 11.55
3/30/2021 8:00:00 AM 7.21 44.978 0.389 7.89 11.16 11.59
3/30/2021 8:15:00 AM 7.2 44.96 0.389 7.89 11.02 11.63
3/30/2021 8:30:00 AM 7.2 44.96 0.389 7.89 10.73 11.67
3/30/2021 8:45:00 AM 7.22 44.996 0.389 7.9 10.73 11.73
3/30/2021 9:00:00 AM 7.27 45.086 0.389 7.91 10.57 11.78
3/30/2021 9:15:00 AM 7.35 45.23 0.389 7.91 10.55 11.85
3/30/2021 9:30:00 AM 7.44 45.392 0.389 7.92 10.77 11.91
3/30/2021 9:45:00 AM 7.56 45.608 0.389 7.93 10.52 11.98
3/30/2021 10:00:00 AM 7.69 45.842 0.389 7.94 10.52 12.04
3/30/2021 10:15:00 AM 7.86 46.148 0.388 7.96 10.36 12.14
3/30/2021 10:30:00 AM 8.05 46.49 0.388 7.97 10.34 12.21
3/30/2021 10:45:00 AM 8.27 46.886 0.388 7.99 10.31 12.31
3/30/2021 11:00:00 AM 8.54 47.372 0.388 8.01 10.25 12.4
3/30/2021 11:15:00 AM 8.84 47.912 0.388 8.03 10.21 12.49
3/30/2021 11:30:00 AM 9.18 48.524 0.388 8.05 10.13 12.55
3/30/2021 11:45:00 AM 9.53 49.154 0.387 8.08 10.3 12.6
3/30/2021 12:00:00 PM 9.91 49.838 0.387 8.1 10.05 12.67
3/30/2021 12:15:00 PM 10.3 50.54 0.386 8.13 10.21 12.68
3/30/2021 12:30:00 PM 10.7 51.26 0.385 8.16 10.35 12.73
3/30/2021 12:45:00 PM 11.11 51.998 0.385 8.18 10.6 12.72
3/30/2021 1:00:00 PM 11.51 52.718 0.384 8.21 10.54 12.72
3/30/2021 1:15:00 PM 11.89 53.402 0.384 8.23 11.02 12.69
3/30/2021 1:30:00 PM 12.27 54.086 0.383 8.26 11.4 12.65
3/30/2021 1:45:00 PM 12.64 54.752 0.383 8.3 11.65 12.61
3/30/2021 2:00:00 PM 12.98 55.364 0.382 8.33 11.39 12.57
3/30/2021 2:15:00 PM 13.29 55.922 0.382 8.35 11.83 12.53
3/30/2021 2:30:00 PM 13.58 56.444 0.382 8.37 14.22 12.47
3/30/2021 2:45:00 PM 13.83 56.894 0.381 8.38 13.47 12.4
3/30/2021 3:00:00 PM 14.06 57.308 0.381 8.4 14.85 12.35
3/30/2021 3:15:00 PM 14.24 57.632 0.381 8.41 16.25 12.29
3/30/2021 3:30:00 PM 14.4 57.92 0.38 8.42 22.29 12.2
3/30/2021 3:45:00 PM 14.53 58.154 0.38 8.44 21.44 12.08
3/30/2021 4:00:00 PM 14.63 58.334 0.38 8.45 17.09 12.01
3/30/2021 4:15:00 PM 14.69 58.442 0.38 8.46 15.43 12.02
3/30/2021 4:30:00 PM 14.71 58.478 0.38 8.45 14.79 11.94
3/30/2021 4:45:00 PM 14.7 58.46 0.38 8.45 14.26 11.84
3/30/2021 5:00:00 PM 14.68 58.424 0.379 8.44 15.08 11.73
3/30/2021 5:15:00 PM 14.64 58.352 0.379 8.43 19.1 11.65
3/30/2021 5:30:00 PM 14.58 58.244 0.379 8.42 19.89 11.57
3/30/2021 5:45:00 PM 14.49 58.082 0.379 8.41 20.14 11.45
3/30/2021 6:00:00 PM 14.43 57.974 0.38 8.39 17.82 11.34
3/30/2021 6:15:00 PM 14.35 57.83 0.38 8.37 15.58 11.24
3/30/2021 6:30:00 PM 14.24 57.632 0.38 8.34 13.83 11.12
3/30/2021 6:45:00 PM 14.14 57.452 0.38 8.32 13.43 11.02
3/30/2021 7:00:00 PM 14.03 57.254 0.381 8.3 13.24 10.94
3/30/2021 7:15:00 PM 13.92 57.056 0.381 8.27 14.02 10.83
3/30/2021 7:30:00 PM 13.79 56.822 0.381 8.25 13.91 10.73
3/30/2021 7:45:00 PM 13.65 56.57 0.382 8.22 13.28 10.65
3/30/2021 8:00:00 PM 13.5 56.3 0.382 8.2 12.72 10.6
3/30/2021 8:15:00 PM 13.35 56.03 0.383 8.16 13.66 10.55
3/30/2021 8:30:00 PM 13.18 55.724 0.383 8.14 13.84 10.46
3/30/2021 8:45:00 PM 13.01 55.418 0.384 8.1 13.5 10.4
3/30/2021 9:00:00 PM 12.83 55.094 0.384 8.08 13.08 10.41
3/30/2021 9:15:00 PM 12.66 54.788 0.385 8.06 13.83 10.39
3/30/2021 9:30:00 PM 12.49 54.482 0.386 8.04 13.5 10.38
3/30/2021 9:45:00 PM 12.32 54.176 0.387 8.03 14.71 10.35
3/30/2021 10:00:00 PM 12.14 53.852 0.387 8.01 13.52 10.35
3/30/2021 10:15:00 PM 11.96 53.528 0.388 7.99 14.23 10.33
3/30/2021 10:30:00 PM 11.79 53.222 0.388 7.98 14.63 10.31
3/30/2021 10:45:00 PM 11.62 52.916 0.389 7.96 14.25 10.29
3/30/2021 11:00:00 PM 11.47 52.646 0.389 7.95 14.36 10.29
3/30/2021 11:15:00 PM 11.33 52.394 0.389 7.93 14.01 10.3
3/30/2021 11:30:00 PM 11.2 52.16 0.39 7.93 13.71 10.31
3/30/2021 11:45:00 PM 11.08 51.944 0.39 7.92 13.93 10.33
3/31/2021 12:00:00 AM 10.97 51.746 0.389 7.91 13.94 10.35
3/31/2021 12:15:00 AM 10.86 51.548 0.389 7.91 14.09 10.37
3/31/2021 12:30:00 AM 10.76 51.368 0.389 7.9 13.87 10.4
3/31/2021 12:45:00 AM 10.67 51.206 0.389 7.9 11.7 10.4
3/31/2021 1:00:00 AM 10.58 51.044 0.388 7.9 10.91 10.44
3/31/2021 1:15:00 AM 10.5 50.9 0.388 7.9 11.24 10.45
3/31/2021 1:30:00 AM 10.43 50.774 0.388 7.9 11.34 10.47
3/31/2021 1:45:00 AM 10.36 50.648 0.388 7.89 11.12 10.49
3/31/2021 2:00:00 AM 10.29 50.522 0.389 7.89 11.01 10.51
3/31/2021 2:15:00 AM 10.22 50.396 0.389 7.89 11.15 10.53
3/31/2021 2:30:00 AM 10.15 50.27 0.389 7.89 10.96 10.55
3/31/2021 2:45:00 AM 10.08 50.144 0.389 7.89 11.02 10.57
3/31/2021 3:00:00 AM 10.02 50.036 0.389 7.89 11.1 10.58
3/31/2021 3:15:00 AM 9.96 49.928 0.389 7.89 11.26 10.6
3/31/2021 3:30:00 AM 9.91 49.838 0.39 7.89 11.18 10.61
3/31/2021 3:45:00 AM 9.85 49.73 0.39 7.89 11.22 10.62
3/31/2021 4:00:00 AM 9.8 49.64 0.39 7.88 11.15 10.63
3/31/2021 4:15:00 AM 9.75 49.55 0.39 7.88 11.83 10.64
3/31/2021 4:30:00 AM 9.7 49.46 0.39 7.88 10.99 10.67
3/31/2021 4:45:00 AM 9.66 49.388 0.39 7.88 10.75 10.66
3/31/2021 5:00:00 AM 9.61 49.298 0.39 7.88 11.39 10.68
3/31/2021 5:15:00 AM 9.57 49.226 0.39 7.88 11.26 10.71
3/31/2021 5:30:00 AM 9.52 49.136 0.389 7.88 11.33 10.71
3/31/2021 5:45:00 AM 9.48 49.064 0.389 7.88 11.23 10.73
3/31/2021 6:00:00 AM 9.44 48.992 0.389 7.88 13.17 10.74
3/31/2021 6:15:00 AM 9.4 48.92 0.389 7.89 11.32 10.75
3/31/2021 6:30:00 AM 9.37 48.866 0.389 7.88 11.64 10.76
3/31/2021 6:45:00 AM 9.33 48.794 0.389 7.88 18.13 10.77
3/31/2021 7:00:00 AM 9.3 48.74 0.389 7.88 11.45 10.78
3/31/2021 7:15:00 AM 9.29 48.722 0.389 7.88 11.47 10.79
3/31/2021 7:30:00 AM 9.29 48.722 0.389 7.88 12.36 10.82
3/31/2021 7:45:00 AM 9.3 48.74 0.389 7.88 11.43 10.86
3/31/2021 8:00:00 AM 9.33 48.794 0.389 7.89 11.45 10.9
3/31/2021 8:15:00 AM 9.36 48.848 0.389 7.89 11.16 10.93
3/31/2021 8:30:00 AM 9.4 48.92 0.389 7.89 11.29 10.96
3/31/2021 8:45:00 AM 9.45 49.01 0.389 7.9 11.29 11
3/31/2021 9:00:00 AM 9.52 49.136 0.389 7.9 11.41 11.04
3/31/2021 9:15:00 AM 9.59 49.262 0.388 7.91 10.8 11.09
3/31/2021 9:30:00 AM 9.68 49.424 0.389 7.92 11.23 11.13
3/31/2021 9:45:00 AM 9.76 49.568 0.388 7.92 10.54 11.16
3/31/2021 10:00:00 AM 9.85 49.73 0.388 7.93 10.79 11.22
3/31/2021 10:15:00 AM 9.94 49.892 0.388 7.94 11 11.28
3/31/2021 10:30:00 AM 10.05 50.09 0.387 7.96 11.06 11.37
3/31/2021 10:45:00 AM 10.16 50.288 0.387 7.97 10.81 11.45
3/31/2021 11:00:00 AM 10.27 50.486 0.387 7.99 11.1 11.52
3/31/2021 11:15:00 AM 10.41 50.738 0.387 8 10.91 11.62
3/31/2021 11:30:00 AM 10.57